Provisional Data: Yellow Breeches Creek near Lisburn, PA


Please select a monitoring station.
Please select start date.
Please select start date.

Toggle Unit: C/F Toggle Unit: C/F
Sample Time Temperature (C) Temperature (F) Specific Conductivity (mS/cm) pH   Turbidity (NTU+) DO (mg/L)
3/7/2021 12:00:00 AM 4.23 39.614 0.163 6.57 4.15 12.45
3/7/2021 12:15:00 AM 4.21 39.578 0.168 6.57 3.54 12.44
3/7/2021 12:30:00 AM 4.19 39.542 0.171 6.54 7.27 12.42
3/7/2021 12:45:00 AM 4.16 39.488 0.17 6.55 3.61 12.42
3/7/2021 1:00:00 AM 4.13 39.434 0.169 6.55 4.21 12.41
3/7/2021 1:15:00 AM 4.08 39.344 0.178 6.56 3.6 12.42
3/7/2021 1:30:00 AM 4.06 39.308 0.176 6.54 3.83 12.42
3/7/2021 1:45:00 AM 4.02 39.236 0.171 6.55 3.14 12.44
3/7/2021 2:00:00 AM 3.98 39.164 0.179 6.54 3.12 12.42
3/7/2021 2:15:00 AM 3.95 39.11 0.169 6.54 2.96 12.44
3/7/2021 2:30:00 AM 3.91 39.038 0.165 6.53 2.93 12.44
3/7/2021 2:45:00 AM 3.88 38.984 0.179 6.53 2.81 12.45
3/7/2021 3:00:00 AM 3.84 38.912 0.163 6.53 3.76 12.44
3/7/2021 3:15:00 AM 3.82 38.876 0.17 6.52 4.94 12.46
3/7/2021 3:30:00 AM 3.8 38.84 0.165 6.53 4.67 12.43
3/7/2021 3:45:00 AM 3.78 38.804 0.172 6.51 3.52 12.43
3/7/2021 4:00:00 AM 3.74 38.732 0.185 6.5 3.29 12.43
3/7/2021 4:15:00 AM 3.72 38.696 0.163 6.52 6.06 12.44
3/7/2021 4:30:00 AM 3.69 38.642 0.189 6.51 4.5 12.43
3/7/2021 4:45:00 AM 3.66 38.588 0.179 6.52 4.12 12.43
3/7/2021 5:00:00 AM 3.63 38.534 0.167 6.51 2.84 12.44
3/7/2021 5:15:00 AM 3.6 38.48 0.176 6.51 2.86 12.46
3/7/2021 5:30:00 AM 3.57 38.426 0.173 6.51 3.33 12.47
3/7/2021 5:45:00 AM 3.55 38.39 0.174 6.52 4.06 12.45
3/7/2021 6:00:00 AM 3.52 38.336 0.177 6.51 4.45 12.45
3/7/2021 6:15:00 AM 3.5 38.3 0.164 6.46 4.17 12.46
3/7/2021 6:30:00 AM 3.48 38.264 0.169 6.49 2.94 12.45
3/7/2021 6:45:00 AM 3.46 38.228 0.17 6.49 5.35 12.46
3/7/2021 7:00:00 AM 3.44 38.192 0.168 6.49 6.22 12.49
3/7/2021 7:15:00 AM 3.41 38.138 0.169 6.49 5.67 12.5
3/7/2021 7:30:00 AM 3.38 38.084 0.182 6.48 2.65 12.53
3/7/2021 7:45:00 AM 3.37 38.066 0.173 6.5 3.04 12.57
3/7/2021 8:00:00 AM 3.37 38.066 0.168 6.5 3.25 12.62
3/7/2021 8:15:00 AM 3.39 38.102 0.159 6.5 2.24 12.66
3/7/2021 8:30:00 AM 3.43 38.174 0.163 6.5 3.06 12.73
3/7/2021 8:45:00 AM 3.46 38.228 0.178 6.51 4.06 12.79
3/7/2021 9:00:00 AM 3.49 38.282 0.168 6.52 2.8 12.84
3/7/2021 9:15:00 AM 3.53 38.354 0.154 6.52 4.75 12.86
3/7/2021 9:30:00 AM 3.59 38.462 0.156 6.54 2.87 12.92
3/7/2021 9:45:00 AM 3.66 38.588 0.162 6.55 3.34 12.95
3/7/2021 10:00:00 AM 3.72 38.696 0.163 6.53 3.32 13
3/7/2021 10:15:00 AM 3.79 38.822 0.176 6.54 4.17 13.04
3/7/2021 10:30:00 AM 3.87 38.966 0.179 6.55 5.61 13.07
3/7/2021 10:45:00 AM 3.96 39.128 0.175 6.56 1.97 13.08
3/7/2021 11:00:00 AM 4.03 39.254 0.174 6.57 2.65 12.76
3/7/2021 11:15:00 AM 4.12 39.416 0.174 6.57 3.84 13.13
3/7/2021 11:30:00 AM 4.22 39.596 0.175 6.58 4.26 13.16
3/7/2021 11:45:00 AM 4.31 39.758 0.173 6.6 2.29 13.27
3/7/2021 12:00:00 PM 4.4 39.92 0.169 6.6 1.66 13.32
3/7/2021 12:15:00 PM 4.5 40.1 0.174 6.6 3.43 13.32
3/7/2021 12:30:00 PM 4.6 40.28 0.178 6.62 2.21 13.37
3/7/2021 12:45:00 PM 4.7 40.46 0.174 6.63 2.95 13.39
3/7/2021 1:00:00 PM 4.8 40.64 0.176 6.65 2.94 13.42
3/7/2021 1:15:00 PM 4.9 40.82 0.17 6.66 4.11 13.42
3/7/2021 1:30:00 PM 4.98 40.964 0.167 6.67 3.09 13.42
3/7/2021 1:45:00 PM 5.07 41.126 0.172 6.67 2.42 13.43
3/7/2021 2:00:00 PM 5.16 41.288 0.182 6.69 2.25 13.43
3/7/2021 2:15:00 PM 5.24 41.432 0.184 6.7 3.45 13.45
3/7/2021 2:30:00 PM 5.32 41.576 0.16 6.72 2.23 13.46
3/7/2021 2:45:00 PM 5.39 41.702 0.172 6.73 2.84 13.47
3/7/2021 3:00:00 PM 5.45 41.81 0.169 6.74 2.95 13.46
3/7/2021 3:15:00 PM 5.52 41.936 0.176 6.75 2.17 13.42
3/7/2021 3:30:00 PM 5.57 42.026 0.183 6.75 3.19 13.42
3/7/2021 3:45:00 PM 5.62 42.116 0.185 6.76 5.75 13.39
3/7/2021 4:00:00 PM 5.65 42.17 0.186 6.77 8.01 13.35
3/7/2021 4:15:00 PM 5.68 42.224 0.186 6.77 3.76 13.34
3/7/2021 4:30:00 PM 5.7 42.26 0.182 6.79 3.16 13.31
3/7/2021 4:45:00 PM 5.72 42.296 0.172 6.8 1.99 13.26
3/7/2021 5:00:00 PM 5.72 42.296 0.168 6.8 3.4 13.24
3/7/2021 5:15:00 PM 5.73 42.314 0.169 6.8 3.18 13.21
3/7/2021 5:30:00 PM 5.73 42.314 0.168 6.81 6.01 13.18
3/7/2021 5:45:00 PM 5.72 42.296 0.174 6.81 3.58 13.13
3/7/2021 6:00:00 PM 5.72 42.296 0.172 6.8 3.42 13.05
3/7/2021 6:15:00 PM 5.72 42.296 0.168 6.78 2.38 12.98
3/7/2021 6:30:00 PM 5.71 42.278 0.186 6.77 2.47 12.92
3/7/2021 6:45:00 PM 5.71 42.278 0.188 6.77 5.02 12.83
3/7/2021 7:00:00 PM 5.72 42.296 0.19 6.76 2.47 12.74
3/7/2021 7:15:00 PM 5.71 42.278 0.187 6.76 3.96 12.68
3/7/2021 7:30:00 PM 5.7 42.26 0.193 6.76 2.95 12.62
3/7/2021 7:45:00 PM 5.68 42.224 0.193 6.76 2.35 12.56
3/7/2021 8:00:00 PM 5.66 42.188 0.209 6.75 2.64 12.52
3/7/2021 8:15:00 PM 5.65 42.17 0.205 6.74 2.74 12.48
3/7/2021 8:30:00 PM 5.62 42.116 0.209 6.73 2.92 12.43
3/7/2021 8:45:00 PM 5.59 42.062 0.201 6.73 3.45 12.4
3/7/2021 9:00:00 PM 5.57 42.026 0.191 6.73 3.6 12.35
3/7/2021 9:15:00 PM 5.54 41.972 0.199 6.71 2.86 12.3
3/7/2021 9:30:00 PM 5.53 41.954 0.195 6.7 1.98 12.28
3/7/2021 9:45:00 PM 5.51 41.918 0.21 6.7 2.49 12.24
3/7/2021 10:00:00 PM 5.48 41.864 0.211 6.7 1.75 12.21
3/7/2021 10:15:00 PM 5.45 41.81 0.198 6.7 2.08 12.19
3/7/2021 10:30:00 PM 5.4 41.72 0.193 6.7 2.65 12.17
3/7/2021 10:45:00 PM 5.35 41.63 0.201 6.68 3.63 12.17
3/7/2021 11:00:00 PM 5.29 41.522 0.203 6.67 3.87 12.16
3/7/2021 11:15:00 PM 5.23 41.414 0.21 6.67 3.01 12.16
3/7/2021 11:30:00 PM 5.17 41.306 0.184 6.68 3.78 12.18
3/7/2021 11:45:00 PM 5.12 41.216 0.173 6.66 3.6 12.17
3/8/2021 12:00:00 AM 5.05 41.09 0.182 6.67 2.9 12.17
3/8/2021 12:15:00 AM 4.99 40.982 0.174 6.65 3.56 12.18
3/8/2021 12:30:00 AM 4.94 40.892 0.191 6.64 3.54 12.17
3/8/2021 12:45:00 AM 4.89 40.802 0.19 6.64 2.68 12.16
3/8/2021 1:00:00 AM 4.83 40.694 0.181 6.63 2.72 12.16
3/8/2021 1:15:00 AM 4.78 40.604 0.196 6.63 2.82 12.17
3/8/2021 1:30:00 AM 4.72 40.496 0.194 6.63 3.22 12.17
3/8/2021 1:45:00 AM 4.65 40.37 0.192 6.62 3.66 12.18
3/8/2021 2:00:00 AM 4.6 40.28 0.193 6.61 3.72 12.18
3/8/2021 2:15:00 AM 4.55 40.19 0.195 6.61 5.66 12.18
3/8/2021 2:30:00 AM 4.49 40.082 0.197 6.59 3.13 12.2
3/8/2021 2:45:00 AM 4.43 39.974 0.18 6.59 2.67 12.22
3/8/2021 3:00:00 AM 4.39 39.902 0.203 6.58 2.86 12.22
3/8/2021 3:15:00 AM 4.35 39.83 0.21 6.54 4.49 12.22
3/8/2021 3:30:00 AM 4.32 39.776 0.204 6.55 2.87 12.23
3/8/2021 3:45:00 AM 4.28 39.704 0.212 6.56 2.6 12.22
3/8/2021 4:00:00 AM 4.25 39.65 0.202 6.55 4.06 12.21
3/8/2021 4:15:00 AM 4.21 39.578 0.199 6.56 3.73 12.23
3/8/2021 4:30:00 AM 4.17 39.506 0.208 6.56 2.13 12.22
3/8/2021 4:45:00 AM 4.14 39.452 0.19 6.56 4.98 12.23
3/8/2021 5:00:00 AM 4.1 39.38 0.203 6.56 2.85 12.25
3/8/2021 5:15:00 AM 4.06 39.308 0.199 6.55 5.9 12.24
3/8/2021 5:30:00 AM 4.02 39.236 0.194 6.57 2.71 12.25
3/8/2021 5:45:00 AM 3.99 39.182 0.204 6.55 2.53 12.27
3/8/2021 6:00:00 AM 3.95 39.11 0.199 6.55 5.35 12.28
3/8/2021 6:15:00 AM 3.92 39.056 0.185 6.55 3.27 12.31
3/8/2021 6:30:00 AM 3.89 39.002 0.17 6.54 2.68 12.32
3/8/2021 6:45:00 AM 3.87 38.966 0.176 6.53 3.3 12.32
3/8/2021 7:00:00 AM 3.85 38.93 0.174 6.53 4.96 12.32
3/8/2021 7:15:00 AM 3.82 38.876 0.169 6.5 4.12 12.33
3/8/2021 7:30:00 AM 3.81 38.858 0.198 6.51 4.41 12.37
3/8/2021 7:45:00 AM 3.79 38.822 0.195 6.51 2.45 12.4
3/8/2021 8:00:00 AM 3.8 38.84 0.208 6.51 3.18 12.45
3/8/2021 8:15:00 AM 3.83 38.894 0.199 6.52 1.79 12.51
3/8/2021 8:30:00 AM 3.86 38.948 0.198 6.53 2.22 12.57
3/8/2021 8:45:00 AM 3.89 39.002 0.202 6.54 3.04 12.64
3/8/2021 9:00:00 AM 3.94 39.092 0.183 6.55 2.98 12.71
3/8/2021 9:15:00 AM 3.98 39.164 0.186 6.56 2.92 12.76
3/8/2021 9:30:00 AM 4.05 39.29 0.198 6.57 4.11 12.79
3/8/2021 9:45:00 AM 4.11 39.398 0.192 6.59 3.74 12.85
3/8/2021 10:00:00 AM 4.19 39.542 0.193 6.58 2.77 12.91
3/8/2021 10:15:00 AM 4.28 39.704 0.172 6.59 2.4 12.94
3/8/2021 10:30:00 AM 4.38 39.884 0.184 6.59 2.34 12.99
3/8/2021 10:45:00 AM 4.46 40.028 0.165 6.61 2.98 13.03
3/8/2021 11:00:00 AM 4.55 40.19 0.17 6.62 1.8 13.07
3/8/2021 11:15:00 AM 4.65 40.37 0.175 6.61 2.42 13.12
3/8/2021 11:30:00 AM 4.75 40.55 0.174 6.61 3.31 13.16
3/8/2021 11:45:00 AM 4.85 40.73 0.178 6.63 2.3 13.2
3/8/2021 12:00:00 PM 4.97 40.946 0.184 6.64 2.57 13.23
3/8/2021 12:15:00 PM 5.07 41.126 0.193 6.66 1.84 13.24
3/8/2021 12:30:00 PM 5.17 41.306 0.177 6.67 2.71 13.27
3/8/2021 12:45:00 PM 5.28 41.504 0.193 6.68 2.58 13.28
3/8/2021 1:00:00 PM 5.38 41.684 0.199 6.71 2.45 13.31
3/8/2021 1:15:00 PM 5.48 41.864 0.179 6.72 3.31 13.33
3/8/2021 1:30:00 PM 5.58 42.044 0.179 6.73 2.32 13.34
3/8/2021 1:45:00 PM 5.67 42.206 0.17 6.74 3.95 13.34
3/8/2021 2:00:00 PM 5.76 42.368 0.175 6.75 3 13.36
3/8/2021 2:15:00 PM 5.85 42.53 0.183 6.77 2.03 13.37
3/8/2021 2:30:00 PM 5.92 42.656 0.177 6.78 2.23 13.38
3/8/2021 2:45:00 PM 6 42.8 0.19 6.8 2.03 13.37
3/8/2021 3:00:00 PM 6.07 42.926 0.191 6.81 3.32 13.37
3/8/2021 3:15:00 PM 6.12 43.016 0.187 6.82 2.48 13.38
3/8/2021 3:30:00 PM 6.18 43.124 0.183 6.83 2.95 13.37
3/8/2021 3:45:00 PM 6.23 43.214 0.188 6.84 2.74 13.35
3/8/2021 4:00:00 PM 6.28 43.304 0.185 6.85 2.44 13.33
3/8/2021 4:15:00 PM 6.32 43.376 0.179 6.87 1.92 13.3
3/8/2021 4:30:00 PM 6.37 43.466 0.169 6.87 3.68 13.26
3/8/2021 4:45:00 PM 6.41 43.538 0.156 6.88 3.33 13.24
3/8/2021 5:00:00 PM 6.44 43.592 0.147 6.89 1.85 13.21
3/8/2021 5:15:00 PM 6.46 43.628 0.153 6.88 3.79 13.16
3/8/2021 5:30:00 PM 6.48 43.664 0.165 6.89 1.95 13.1
3/8/2021 5:45:00 PM 6.49 43.682 0.17 6.89 2.36 13.06
3/8/2021 6:00:00 PM 6.49 43.682 0.158 6.9 2.24 12.98
3/8/2021 6:15:00 PM 6.5 43.7 0.171 6.89 2.65 12.9
3/8/2021 6:30:00 PM 6.51 43.718 0.168 6.89 1.72 12.82
3/8/2021 6:45:00 PM 6.52 43.736 0.171 6.88 2.55 12.71
3/8/2021 7:00:00 PM 6.53 43.754 0.165 6.87 2.24 12.63
3/8/2021 7:15:00 PM 6.54 43.772 0.163 6.87 1.96 12.57
3/8/2021 7:30:00 PM 6.54 43.772 0.161 6.86 3.17 12.47
3/8/2021 7:45:00 PM 6.53 43.754 0.165 6.85 1.82 12.41
3/8/2021 8:00:00 PM 6.52 43.736 0.175 6.85 2.26 12.31
3/8/2021 8:15:00 PM 6.51 43.718 0.186 6.85 2.59 12.23
3/8/2021 8:30:00 PM 6.49 43.682 0.186 6.84 1.97 12.2
3/8/2021 8:45:00 PM 6.48 43.664 0.199 6.83 5.31 12.14
3/8/2021 9:00:00 PM 6.46 43.628 0.197 6.82 2.66 12.06
3/8/2021 9:15:00 PM 6.45 43.61 0.183 6.81 2.11 12.02
3/8/2021 9:30:00 PM 6.43 43.574 0.19 6.81 3.42 12
3/8/2021 9:45:00 PM 6.42 43.556 0.197 6.8 4.22 11.93
3/8/2021 10:00:00 PM 6.4 43.52 0.196 6.79 6.19 11.86
3/8/2021 10:15:00 PM 6.39 43.502 0.181 6.79 5.01 11.82
3/8/2021 10:30:00 PM 6.37 43.466 0.175 6.78 2.82 11.83
3/8/2021 10:45:00 PM 6.34 43.412 0.164 6.79 1.63 11.78
3/8/2021 11:00:00 PM 6.3 43.34 0.164 6.78 2.32 11.81
3/8/2021 11:15:00 PM 6.27 43.286 0.176 6.78 4.65 11.78
3/8/2021 11:30:00 PM 6.22 43.196 0.181 6.77 3.58 11.76
3/8/2021 11:45:00 PM 6.19 43.142 0.18 6.76 1399 11.77
3/9/2021 12:00:00 AM 6.15 43.07 0.177 6.76 1314 11.74
3/9/2021 12:15:00 AM 6.11 42.998 0.183 6.75 1277 11.74
3/9/2021 12:30:00 AM 6.07 42.926 0.202 6.74 2993 11.72
3/9/2021 12:45:00 AM 6.04 42.872 0.192 6.74 3564 11.74
3/9/2021 1:00:00 AM 6 42.8 0.185 6.73 1934 11.73
3/9/2021 1:15:00 AM 5.97 42.746 0.182 6.72 2001 11.7
3/9/2021 1:30:00 AM 5.92 42.656 0.17 6.71 1908 11.7
3/9/2021 1:45:00 AM 5.88 42.584 0.197 6.71 1381 11.72
3/9/2021 2:00:00 AM 5.83 42.494 0.183 6.71 1359 11.71
3/9/2021 2:15:00 AM 5.79 42.422 0.195 6.69 771.6 11.7
3/9/2021 2:30:00 AM 5.75 42.35 0.178 6.69 780 11.71
3/9/2021 2:45:00 AM 5.73 42.314 0.163 6.69 757.4 11.74
3/9/2021 3:00:00 AM 5.71 42.278 0.17 6.67 554.5 11.77
3/9/2021 3:15:00 AM 5.69 42.242 0.169 6.67 577.2 11.74
3/9/2021 3:30:00 AM 5.67 42.206 0.162 6.66 427.8 11.75
3/9/2021 3:45:00 AM 5.67 42.206 0.165 6.66 463.7 11.7
3/9/2021 4:00:00 AM 5.66 42.188 0.169 6.66 462.9 11.71
3/9/2021 4:15:00 AM 5.66 42.188 0.171 6.67 472.6 11.69
3/9/2021 4:30:00 AM 5.65 42.17 0.157 6.65 507.4 11.68
3/9/2021 4:45:00 AM 5.64 42.152 0.156 6.65 519 11.68
3/9/2021 5:00:00 AM 5.63 42.134 0.157 6.66 521.4 11.7
3/9/2021 5:15:00 AM 5.62 42.116 0.163 6.67 528.4 11.69
3/9/2021 5:30:00 AM 5.6 42.08 0.162 6.67 527 11.71
3/9/2021 5:45:00 AM 5.58 42.044 0.152 6.67 535.2 11.7
3/9/2021 6:00:00 AM 5.57 42.026 0.171 6.66 482.8 11.7
3/9/2021 6:15:00 AM 5.55 41.99 0.152 6.66 528.2 11.72
3/9/2021 6:30:00 AM 5.54 41.972 0.171 6.66 402.3 11.63
3/9/2021 6:45:00 AM 5.54 41.972 0.187 6.64 239.1 11.65
3/9/2021 7:00:00 AM 5.54 41.972 0.167 6.65 13.43 11.7
3/9/2021 7:15:00 AM 5.53 41.954 0.174 6.64 15.69 11.73
3/9/2021 7:30:00 AM 5.55 41.99 0.176 6.63 23.02 11.75
3/9/2021 7:45:00 AM 5.56 42.008 0.171 6.63 19.53 11.81
3/9/2021 8:00:00 AM 5.57 42.026 0.175 6.64 17.97 11.85
3/9/2021 8:15:00 AM 5.6 42.08 0.165 6.65 18.12 11.93
3/9/2021 8:30:00 AM 5.66 42.188 0.173 6.65 19.49 11.98
3/9/2021 8:45:00 AM 5.72 42.296 0.167 6.66 23.05 12.04
3/9/2021 9:00:00 AM 5.78 42.404 0.162 6.67 48.11 12.1
3/9/2021 9:15:00 AM 5.85 42.53 0.172 6.68 36.78 12.17
3/9/2021 9:30:00 AM 5.94 42.692 0.163 6.68 35.59 12.23
3/9/2021 9:45:00 AM 6.02 42.836 0.151 6.7 38.27 12.28
3/9/2021 10:00:00 AM 6.13 43.034 0.15 6.7 39.86 12.35
3/9/2021 10:15:00 AM 6.25 43.25 0.175 6.71 43.2 12.4
3/9/2021 10:30:00 AM 6.36 43.448 0.171 6.72 44.28 12.44
3/9/2021 10:45:00 AM 6.47 43.646 0.175 6.74 45.05 12.48
3/9/2021 11:00:00 AM 6.57 43.826 0.177 6.75 45.84 12.53
3/9/2021 11:15:00 AM 6.7 44.06 0.199 6.76 46.77 12.59
3/9/2021 11:30:00 AM 6.82 44.276 0.194 6.77 51.69 12.65
3/9/2021 11:45:00 AM 6.94 44.492 0.199 6.79 51.83 12.67
3/9/2021 12:00:00 PM 7.05 44.69 0.186 6.79 54.3 12.75
3/9/2021 12:15:00 PM 7.16 44.888 0.197 6.81 33.23 12.76
3/9/2021 12:30:00 PM 7.27 45.086 0.187 6.83 48.08 12.79
3/9/2021 12:45:00 PM 7.38 45.284 0.17 6.85 45.38 12.85
3/9/2021 1:00:00 PM 7.48 45.464 0.172 6.88 45.48 12.87
3/9/2021 1:15:00 PM 7.58 45.644 0.161 6.89 48 12.9
3/9/2021 1:30:00 PM 7.67 45.806 0.172 6.9 50.4 12.89
3/9/2021 1:45:00 PM 7.75 45.95 0.178 6.92 57.61 12.9
3/9/2021 2:00:00 PM 7.82 46.076 0.205 6.94 69.11 12.92
3/9/2021 2:15:00 PM 7.89 46.202 0.205 6.95 67.21 12.95
3/9/2021 2:30:00 PM 7.95 46.31 0.206 6.96 78.55 12.98
3/9/2021 2:45:00 PM 8.01 46.418 0.189 6.88 84.11 12.97
3/9/2021 3:00:00 PM 8.06 46.508 0.188 6.83 88.74 12.98
3/9/2021 3:15:00 PM 8.11 46.598 0.189 6.94 90.96 12.96
3/9/2021 3:30:00 PM 8.16 46.688 0.173 6.99 96.97 12.88
3/9/2021 3:45:00 PM 8.2 46.76 0.175 6.98 64.79 12.89
3/9/2021 4:00:00 PM 8.25 46.85 0.182 6.97 68.99 12.86
3/9/2021 4:15:00 PM 8.29 46.922 0.179 6.99 49.36 12.85
3/9/2021 4:30:00 PM 8.32 46.976 0.18 6.97 47.81 12.79
3/9/2021 4:45:00 PM 8.35 47.03 0.165 6.99 10.78 12.69
3/9/2021 5:00:00 PM 8.37 47.066 0.161 6.98 16.56 12.66
3/9/2021 5:15:00 PM 8.39 47.102 0.163 7 13.75 12.64
3/9/2021 5:30:00 PM 8.41 47.138 0.149 7.01 13.92 12.59
3/9/2021 5:45:00 PM 8.41 47.138 0.151 7.01 19.31 12.55
3/9/2021 6:00:00 PM 8.42 47.156 0.177 7 684.8 12.45
3/9/2021 6:15:00 PM 8.42 47.156 0.204 7 19.24 12.38
3/9/2021 6:30:00 PM 8.42 47.156 0.176 7 24.56 12.29
3/9/2021 6:45:00 PM 8.42 47.156 0.17 6.97 13.79 12.16
3/9/2021 7:00:00 PM 8.43 47.174 0.157 6.98 27.94 12.07
3/9/2021 7:15:00 PM 8.43 47.174 0.169 6.96 11.69 11.93
3/9/2021 7:30:00 PM 8.43 47.174 0.17 6.95 12.71 11.81
3/9/2021 7:45:00 PM 8.42 47.156 0.164 6.95 12.22 11.79
3/9/2021 8:00:00 PM 8.41 47.138 0.158 6.94 13.07 11.75
3/9/2021 8:15:00 PM 8.4 47.12 0.176 6.93 13.03 11.62
3/9/2021 8:30:00 PM 8.38 47.084 0.168 6.93 13.47 11.61
3/9/2021 8:45:00 PM 8.36 47.048 0.159 6.95 13.59 11.55
3/9/2021 9:00:00 PM 8.33 46.994 0.148 6.94 11.14 11.51
3/9/2021 9:15:00 PM 8.31 46.958 0.163 6.94 10.72 11.47
3/9/2021 9:30:00 PM 8.29 46.922 0.178 6.92 10.77 11.45
3/9/2021 9:45:00 PM 8.26 46.868 0.189 6.91 11.57 11.42
3/9/2021 10:00:00 PM 8.24 46.832 0.198 6.91 15.47 11.33
3/9/2021 10:15:00 PM 8.21 46.778 0.197 6.89 13.89 11.31
3/9/2021 10:30:00 PM 8.18 46.724 0.187 6.87 17.23 11.3
3/9/2021 10:45:00 PM 8.15 46.67 0.191 6.87 16.6 11.28
3/9/2021 11:00:00 PM 8.11 46.598 0.186 6.86 12.22 11.23
3/9/2021 11:15:00 PM 8.07 46.526 0.185 6.87 14.05 11.2
3/9/2021 11:30:00 PM 8.02 46.436 0.175 6.86 14.6 11.2
3/9/2021 11:45:00 PM 7.97 46.346 0.167 6.85 15.36 11.2
3/10/2021 12:00:00 AM 7.93 46.274 0.172 6.83 20.62 11.18
3/10/2021 12:15:00 AM 7.87 46.166 0.17 6.82 19.8 11.19
3/10/2021 12:30:00 AM 7.83 46.094 0.168 6.81 17.55 11.15
3/10/2021 12:45:00 AM 7.77 45.986 0.17 6.8 18.73 11.18
3/10/2021 1:00:00 AM 7.72 45.896 0.168 6.79 24.19 11.21
3/10/2021 1:15:00 AM 7.68 45.824 0.147 6.79 31.14 11.2
3/10/2021 1:30:00 AM 7.62 45.716 0.161 6.78 35.07 11.18
3/10/2021 1:45:00 AM 7.57 45.626 0.183 6.77 31.69 11.17
3/10/2021 2:00:00 AM 7.52 45.536 0.189 6.77 30.73 11.17
3/10/2021 2:15:00 AM 7.47 45.446 0.184 6.77 23.54 11.16
3/10/2021 2:30:00 AM 7.41 45.338 0.169 6.74 12.08 11.2
3/10/2021 2:45:00 AM 7.36 45.248 0.157 6.75 18.57 11.21
3/10/2021 3:00:00 AM 7.3 45.14 0.154 6.75 23.85 11.21
3/10/2021 3:15:00 AM 7.26 45.068 0.168 6.74 26.19 11.24
3/10/2021 3:30:00 AM 7.21 44.978 0.189 6.73 31.99 11.22
3/10/2021 3:45:00 AM 7.17 44.906 0.172 6.72 19.45 11.21
3/10/2021 4:00:00 AM 7.13 44.834 0.17 6.71 50.63 11.19
3/10/2021 4:15:00 AM 7.09 44.762 0.175 6.72 40.9 11.19
3/10/2021 4:30:00 AM 7.05 44.69 0.178 6.7 40.21 11.22
3/10/2021 4:45:00 AM 7 44.6 0.177 6.7 57.66 11.2
3/10/2021 5:00:00 AM 6.96 44.528 0.2 6.69 59.72 11.21
3/10/2021 5:15:00 AM 6.92 44.456 0.199 6.69 56.87 11.22
3/10/2021 5:30:00 AM 6.88 44.384 0.201 6.7 41.46 11.22
3/10/2021 5:45:00 AM 6.84 44.312 0.165 6.69 44.39 11.25
3/10/2021 6:00:00 AM 6.81 44.258 0.158 6.69 49.43 11.23
3/10/2021 6:15:00 AM 6.78 44.204 0.17 6.69 53.43 11.23
3/10/2021 6:30:00 AM 6.74 44.132 0.193 6.68 51.14 11.28
3/10/2021 6:45:00 AM 6.72 44.096 0.179 6.68 14.73 11.27
3/10/2021 7:00:00 AM 6.7 44.06 0.185 6.67 16.84 11.27
3/10/2021 7:15:00 AM 6.68 44.024 0.174 6.67 15.1 11.31
3/10/2021 7:30:00 AM 6.67 44.006 0.165 6.67 20.19 11.32
3/10/2021 7:45:00 AM 6.66 43.988 0.156 6.67 56.73 11.38
3/10/2021 8:00:00 AM 6.67 44.006 0.162 6.68 27.98 11.43
3/10/2021 8:15:00 AM 6.7 44.06 0.163 6.68 13.5 11.45
3/10/2021 8:30:00 AM 6.75 44.15 0.161 6.7 15.05 11.58
3/10/2021 8:45:00 AM 6.8 44.24 0.191 6.72 17.84 11.67
3/10/2021 9:00:00 AM 6.85 44.33 0.17 6.73 19.47 11.75
3/10/2021 9:15:00 AM 6.91 44.438 0.162 6.72 40.44 11.82
3/10/2021 9:30:00 AM 6.98 44.564 0.178 6.73 30.5 11.92
3/10/2021 9:45:00 AM 7.06 44.708 0.186 6.74 20.27 12
3/10/2021 10:00:00 AM 7.16 44.888 0.198 6.74 22.29 12.06
3/10/2021 10:15:00 AM 7.25 45.05 0.194 6.75 25.62 12.11
3/10/2021 10:30:00 AM 7.37 45.266 0.184 6.75 24.8 12.17
3/10/2021 10:45:00 AM 7.47 45.446 0.177 6.74 29.19 12.23
3/10/2021 11:00:00 AM 7.59 45.662 0.166 6.77 21.61 12.29
3/10/2021 11:15:00 AM 7.71 45.878 0.159 6.8 22.56 12.33
3/10/2021 11:30:00 AM 7.83 46.094 0.165 6.81 15.7 12.41
3/10/2021 11:45:00 AM 7.95 46.31 0.184 6.83 15.66 12.46
3/10/2021 12:00:00 PM 8.07 46.526 0.183 6.85 15.72 12.51
3/10/2021 12:15:00 PM 8.2 46.76 0.191 6.84 43.17 12.54
3/10/2021 12:30:00 PM 8.33 46.994 0.165 6.88 44.9 12.58
3/10/2021 12:45:00 PM 8.45 47.21 0.163 6.9 46.68 12.63
3/10/2021 1:00:00 PM 8.57 47.426 0.176 6.93 52.68 12.65
3/10/2021 1:15:00 PM 8.69 47.642 0.192 6.95 30.11 12.64
3/10/2021 1:30:00 PM 8.8 47.84 0.19 6.97 24.69 12.67
3/10/2021 1:45:00 PM 8.91 48.038 0.176 6.99 11.47 12.67
3/10/2021 2:00:00 PM 9.03 48.254 0.17 7.01 10.99 12.69
3/10/2021 2:15:00 PM 9.13 48.434 0.16 7.03 11.86 12.69
3/10/2021 2:30:00 PM 9.22 48.596 0.176 7.04 11.85 12.71
3/10/2021 2:45:00 PM 9.32 48.776 0.154 7.06 11.74 12.7
3/10/2021 3:00:00 PM 9.4 48.92 0.17 7.07 13.07 12.7
3/10/2021 3:15:00 PM 9.48 49.064 0.163 7.09 14.83 12.68
3/10/2021 3:30:00 PM 9.56 49.208 0.196 7.09 14.59 12.68
3/10/2021 3:45:00 PM 9.63 49.334 0.175 7.11 10.36 12.64
3/10/2021 4:00:00 PM 9.69 49.442 0.166 7.12 18.65 12.61
3/10/2021 4:15:00 PM 9.74 49.532 0.17 7.14 18.45 12.56
3/10/2021 4:30:00 PM 9.78 49.604 0.175 7.15 13.51 12.52
3/10/2021 4:45:00 PM 9.81 49.658 0.173 7.15 14.96 12.45
3/10/2021 5:00:00 PM 9.83 49.694 0.176 7.15 14.88 12.4
3/10/2021 5:15:00 PM 9.85 49.73 0.195 7.15 15.67 12.32
3/10/2021 5:30:00 PM 9.87 49.766 0.195 7.14 15.26 12.26
3/10/2021 5:45:00 PM 9.88 49.784 0.193 7.14 41.3 12.18
3/10/2021 6:00:00 PM 9.88 49.784 0.181 7.14 41.11 12.08
3/10/2021 6:15:00 PM 9.89 49.802 0.201 7.13 24.49 11.98
3/10/2021 6:30:00 PM 9.91 49.838 0.168 7.13 23.29 11.87
3/10/2021 6:45:00 PM 9.92 49.856 0.213 7.11 24.75 11.76
3/10/2021 7:00:00 PM 9.94 49.892 0.212 7.09 29.35 11.67
3/10/2021 7:15:00 PM 9.95 49.91 0.179 7.08 38.07 11.54
3/10/2021 7:30:00 PM 9.95 49.91 0.203 7.06 38.78 11.46
3/10/2021 7:45:00 PM 9.94 49.892 0.197 7.02 52.29 11.35
3/10/2021 8:00:00 PM 9.95 49.91 0.214 7.02 15.13 11.27
3/10/2021 8:15:00 PM 9.95 49.91 0.202 7 13.97 11.2
3/10/2021 8:30:00 PM 9.95 49.91 0.19 7 14.55 11.12
3/10/2021 8:45:00 PM 9.95 49.91 0.188 6.99 15.22 11.05
3/10/2021 9:00:00 PM 9.94 49.892 0.175 6.97 16.14 11.01
3/10/2021 9:15:00 PM 9.94 49.892 0.201 6.98 15.28 10.96
3/10/2021 9:30:00 PM 9.94 49.892 0.208 6.97 26.06 10.9
3/10/2021 9:45:00 PM 9.93 49.874 0.212 6.96 26.49 10.85
3/10/2021 10:00:00 PM 9.92 49.856 0.191 6.95 32.04 10.81
3/10/2021 10:15:00 PM 9.91 49.838 0.213 6.94 24.73 10.73
3/10/2021 10:30:00 PM 9.9 49.82 0.213 6.9 31.13 10.7
3/10/2021 10:45:00 PM 9.88 49.784 0.215 6.91 35.99 10.66
3/10/2021 11:00:00 PM 9.85 49.73 0.193 6.92 89.41 10.63
3/10/2021 11:15:00 PM 9.82 49.676 0.193 6.92 94.1 10.64
3/10/2021 11:30:00 PM 9.78 49.604 0.196 6.91 99.99 10.62
3/10/2021 11:45:00 PM 9.74 49.532 0.189 6.9 102.3 10.6
3/11/2021 12:00:00 AM 9.68 49.424 0.205 6.9 107.3 10.59
3/11/2021 12:15:00 AM 9.64 49.352 0.198 6.89 187 10.58
3/11/2021 12:30:00 AM 9.59 49.262 0.185 6.89 195.3 10.59
3/11/2021 12:45:00 AM 9.54 49.172 0.209 6.88 196.3 10.58
3/11/2021 1:00:00 AM 9.49 49.082 0.2 6.87 146.2 10.55
3/11/2021 1:15:00 AM 9.44 48.992 0.213 6.85 140.6 10.56
3/11/2021 1:30:00 AM 9.39 48.902 0.2 6.84 24.35 10.53
3/11/2021 1:45:00 AM 9.34 48.812 0.217 6.85 21.02 10.54
3/11/2021 2:00:00 AM 9.28 48.704 0.225 6.83 17.09 10.54
3/11/2021 2:15:00 AM 9.22 48.596 0.194 6.82 27.04 10.54
3/11/2021 2:30:00 AM 9.17 48.506 0.186 6.81 28.34 10.52
3/11/2021 2:45:00 AM 9.11 48.398 0.2 6.8 30.38 10.57
3/11/2021 3:00:00 AM 9.06 48.308 0.197 6.8 26.49 10.57
3/11/2021 3:15:00 AM 9.01 48.218 0.22 6.79 26.58 10.55
3/11/2021 3:30:00 AM 8.95 48.11 0.213 6.79 36.01 10.56
3/11/2021 3:45:00 AM 8.9 48.02 0.202 6.78 23.65 10.54
3/11/2021 4:00:00 AM 8.87 47.966 0.185 6.78 16.4 10.57
3/11/2021 4:15:00 AM 8.83 47.894 0.202 6.77 17.21 10.55
3/11/2021 4:30:00 AM 8.79 47.822 0.224 6.76 27.41 10.54
3/11/2021 4:45:00 AM 8.76 47.768 0.212 6.75 25.49 10.56
3/11/2021 5:00:00 AM 8.72 47.696 0.218 6.75 22.6 10.55
3/11/2021 5:15:00 AM 8.69 47.642 0.204 6.74 23.47 10.54
3/11/2021 5:30:00 AM 8.66 47.588 0.206 6.74 31.63 10.53
3/11/2021 5:45:00 AM 8.63 47.534 0.207 6.74 32.81 10.56
3/11/2021 6:00:00 AM 8.6 47.48 0.186 6.74 18.78 10.55
3/11/2021 6:15:00 AM 8.57 47.426 0.183 6.74 17.35 10.59
3/11/2021 6:30:00 AM 8.56 47.408 0.195 6.74 21.64 10.59
3/11/2021 6:45:00 AM 8.55 47.39 0.196 6.74 19.47 10.57
3/11/2021 7:00:00 AM 8.54 47.372 0.197 6.72 41.82 10.59
3/11/2021 7:15:00 AM 8.55 47.39 0.198 6.72 44.71 10.61
3/11/2021 7:30:00 AM 8.55 47.39 0.201 6.73 43.75 10.63
3/11/2021 7:45:00 AM 8.56 47.408 0.204 6.72 54.3 10.68
3/11/2021 8:00:00 AM 8.56 47.408 0.217 6.73 100.3 10.77
3/11/2021 8:15:00 AM 8.59 47.462 0.236 6.72 35.67 10.83
3/11/2021 8:30:00 AM 8.64 47.552 0.235 6.73 41.64 10.92
3/11/2021 8:45:00 AM 8.66 47.588 0.219 6.75 51.96 10.99
3/11/2021 9:00:00 AM 8.74 47.732 0.219 6.78 51.06 11.05
3/11/2021 9:15:00 AM 8.82 47.876 0.222 6.77 49.98 11.15
3/11/2021 9:30:00 AM -100000 -179968 -100000 -100000 -100000 -100000
3/11/2021 9:45:00 AM 8.98 48.164 0.235 7.71 -0.24 10.31
3/11/2021 10:00:00 AM 9.03 48.254 0.238 7.35 -0.57 11.07
3/11/2021 10:15:00 AM 9.14 48.452 0.239 7.07 -1.63 11.15
3/11/2021 10:30:00 AM 9.25 48.65 0.239 6.93 -0.5 11.21
3/11/2021 10:45:00 AM 9.35 48.83 0.239 6.92 -1.73 11.27
3/11/2021 11:00:00 AM 9.47 49.046 0.239 6.95 -1.42 11.35
3/11/2021 11:15:00 AM 9.6 49.28 0.239 6.91 -1.52 11.42
3/11/2021 11:30:00 AM 9.73 49.514 0.237 6.97 -1.28 11.47
3/11/2021 11:45:00 AM 9.87 49.766 0.237 7.02 -1 11.53
3/11/2021 12:00:00 PM 9.99 49.982 0.237 7.05 -1.32 11.59
3/11/2021 12:15:00 PM 10.12 50.216 0.237 7.11 0.14 11.63
3/11/2021 12:30:00 PM 10.25 50.45 0.236 7.15 -0.93 11.68
3/11/2021 12:45:00 PM 10.36 50.648 0.237 7.19 -1.31 11.74
3/11/2021 1:00:00 PM 10.47 50.846 0.237 7.2 0.06 11.78
3/11/2021 1:15:00 PM 10.59 51.062 0.238 7.22 -1.98 11.8
3/11/2021 1:30:00 PM 10.71 51.278 0.238 7.25 -0.05 11.83
3/11/2021 1:45:00 PM 10.82 51.476 0.238 7.25 -1.5 11.84
3/11/2021 2:00:00 PM 10.95 51.71 0.238 7.29 -1.25 11.87
3/11/2021 2:15:00 PM 11.03 51.854 0.237 7.29 -1.52 11.88
3/11/2021 2:30:00 PM 11.14 52.052 0.237 7.32 -1.81 11.89
3/11/2021 2:45:00 PM 11.22 52.196 0.237 7.34 -1.7 11.89
3/11/2021 3:00:00 PM 11.31 52.358 0.236 7.35 -1.18 11.89
3/11/2021 3:15:00 PM 11.38 52.484 0.236 7.36 -1.82 11.89
3/11/2021 3:30:00 PM 11.43 52.574 0.236 7.39 -0.32 11.87
3/11/2021 3:45:00 PM 11.5 52.7 0.236 7.4 -1.08 11.85
3/11/2021 4:00:00 PM 11.55 52.79 0.237 7.43 -2 11.83
3/11/2021 4:15:00 PM 11.58 52.844 0.237 7.42 -1.01 11.76
3/11/2021 4:30:00 PM 11.61 52.898 0.238 7.43 -0.78 11.7
3/11/2021 4:45:00 PM 11.64 52.952 0.238 7.45 0.14 11.61
3/11/2021 5:00:00 PM 11.66 52.988 0.238 7.43 -0.71 11.54
3/11/2021 5:15:00 PM 11.67 53.006 0.237 7.41 -1.79 11.42
3/11/2021 5:30:00 PM 11.68 53.024 0.237 7.41 -1.75 11.31
3/11/2021 5:45:00 PM 11.69 53.042 0.236 7.4 -1.22 11.21
3/11/2021 6:00:00 PM 11.71 53.078 0.236 7.38 0.14 11.11
3/11/2021 6:15:00 PM 11.72 53.096 0.236 7.37 -1.65 11
3/11/2021 6:30:00 PM 11.75 53.15 0.235 7.36 -0.55 10.89
3/11/2021 6:45:00 PM 11.78 53.204 0.236 7.36 -0.47 10.79
3/11/2021 7:00:00 PM 11.8 53.24 0.223 7.35 -0.3 10.67
3/11/2021 7:15:00 PM 11.82 53.276 0.239 7.32 -1.26 10.58
3/11/2021 7:30:00 PM 11.84 53.312 0.241 7.31 -1.58 10.46
3/11/2021 7:45:00 PM 11.86 53.348 0.242 7.28 0 10.37
3/11/2021 8:00:00 PM 11.88 53.384 0.241 7.27 -0.16 10.28
3/11/2021 8:15:00 PM 11.89 53.402 0.24 7.26 -1.48 10.19
3/11/2021 8:30:00 PM 11.9 53.42 0.24 7.24 1.1 10.12
3/11/2021 8:45:00 PM 11.91 53.438 0.239 7.23 -0.86 10.08
3/11/2021 9:00:00 PM 11.91 53.438 0.238 7.23 -0.86 10.02
3/11/2021 9:15:00 PM 11.91 53.438 0.235 7.22 -0.7 9.95
3/11/2021 9:30:00 PM 11.92 53.456 0.238 7.2 0.24 9.92
3/11/2021 9:45:00 PM 11.91 53.438 0.239 7.19 -0.48 9.88
3/11/2021 10:00:00 PM 11.91 53.438 0.242 7.18 -1.4 9.83
3/11/2021 10:15:00 PM 11.9 53.42 0.244 7.17 -0.49 9.78
3/11/2021 10:30:00 PM 11.89 53.402 0.246 7.16 -1.1 9.73
3/11/2021 10:45:00 PM 11.88 53.384 0.245 7.15 2.87 9.69
3/11/2021 11:00:00 PM 11.86 53.348 0.245 7.14 -1.91 9.66
3/11/2021 11:15:00 PM 11.83 53.294 0.244 7.13 0.07 9.64
3/11/2021 11:30:00 PM 11.8 53.24 0.242 7.12 1.27 9.6
3/11/2021 11:45:00 PM 11.76 53.168 0.241 7.11 -1.22 9.58
3/12/2021 12:00:00 AM 11.72 53.096 0.24 7.1 -0.52 9.6
3/12/2021 12:15:00 AM 11.68 53.024 0.239 7.1 -0.92 9.59
3/12/2021 12:30:00 AM 11.65 52.97 0.239 7.08 -0.71 9.55
3/12/2021 12:45:00 AM 11.63 52.934 0.239 7.08 -0.21 9.56
3/12/2021 1:00:00 AM 11.62 52.916 0.24 7.07 0.01 9.54
3/12/2021 1:15:00 AM 11.61 52.898 0.242 7.06 0.93 9.53
3/12/2021 1:30:00 AM 11.59 52.862 0.243 7.05 1.91 9.51
3/12/2021 1:45:00 AM 11.56 52.808 0.242 7.04 0.34 9.5
3/12/2021 2:00:00 AM 11.55 52.79 0.242 7.03 0.04 9.49
3/12/2021 2:15:00 AM 11.52 52.736 0.242 7.02 0.07 9.49
3/12/2021 2:30:00 AM 11.5 52.7 0.241 7.02 0.45 9.49
3/12/2021 2:45:00 AM 11.47 52.646 0.24 6.99 4.95 9.5
3/12/2021 3:00:00 AM 11.45 52.61 0.24 6.99 -0.94 9.5
3/12/2021 3:15:00 AM 11.43 52.574 0.239 7 -1.24 9.49
3/12/2021 3:30:00 AM 11.42 52.556 0.239 6.99 0.48 9.48
3/12/2021 3:45:00 AM 11.4 52.52 0.24 6.98 -0.75 9.48
3/12/2021 4:00:00 AM 11.39 52.502 0.242 6.98 -0.99 9.47
3/12/2021 4:15:00 AM 11.38 52.484 0.244 6.97 0.38 9.44
3/12/2021 4:30:00 AM 11.37 52.466 0.245 6.97 -1.39 9.45
3/12/2021 4:45:00 AM 11.36 52.448 0.246 6.96 -0.37 9.42
3/12/2021 5:00:00 AM 11.35 52.43 0.246 6.96 -1.17 9.43
3/12/2021 5:15:00 AM 11.33 52.394 0.245 6.96 -1.39 9.43
3/12/2021 5:30:00 AM 11.32 52.376 0.244 6.94 -1.46 9.42
3/12/2021 5:45:00 AM 11.31 52.358 0.243 6.94 0.95 9.42
3/12/2021 6:00:00 AM 11.31 52.358 0.242 6.93 -0.62 9.42
3/12/2021 6:15:00 AM 11.3 52.34 0.242 6.92 -0.16 9.41
3/12/2021 6:30:00 AM 11.3 52.34 0.241 6.93 0.21 9.43
3/12/2021 6:45:00 AM 11.3 52.34 0.242 6.93 -1.17 9.4
3/12/2021 7:00:00 AM 11.31 52.358 0.243 6.92 -0.53 9.42
3/12/2021 7:15:00 AM 11.32 52.376 0.245 6.91 -0.64 9.42
3/12/2021 7:30:00 AM 11.34 52.412 0.246 6.91 -0.75 9.42
3/12/2021 7:45:00 AM 11.35 52.43 0.246 6.92 -0.56 9.44
3/12/2021 8:00:00 AM 11.37 52.466 0.246 6.92 0.17 9.48
3/12/2021 8:15:00 AM 11.38 52.484 0.245 6.92 -1.06 9.53
3/12/2021 8:30:00 AM 11.41 52.538 0.244 6.93 -0.46 9.61
3/12/2021 8:45:00 AM 11.48 52.664 0.243 6.94 -1.54 9.73
3/12/2021 9:00:00 AM 11.52 52.736 0.242 6.97 -1.83 9.83
3/12/2021 9:15:00 AM 11.55 52.79 0.241 6.99 0.74 9.95
3/12/2021 9:30:00 AM 11.56 52.808 0.241 6.99 1.63 10.01
3/12/2021 9:45:00 AM 11.66 52.988 0.241 7.02 -0.3 10.1
3/12/2021 10:00:00 AM 11.76 53.168 0.242 7.03 -1.21 10.21
3/12/2021 10:15:00 AM 11.84 53.312 0.243 7.05 -1.39 10.3
3/12/2021 10:30:00 AM 11.91 53.438 0.244 7.08 3.67 10.39
3/12/2021 10:45:00 AM 11.95 53.51 0.244 7.11 -1.23 10.47
3/12/2021 11:00:00 AM 12.03 53.654 0.244 7.12 -0.73 10.53
3/12/2021 11:15:00 AM 12.12 53.816 0.244 7.15 -1.04 10.66
3/12/2021 11:30:00 AM 12.2 53.96 0.243 7.17 0.57 10.72
3/12/2021 11:45:00 AM 12.29 54.122 0.242 7.23 -0.06 10.83
3/12/2021 12:00:00 PM 12.39 54.302 0.241 7.25 0.29 10.89
3/12/2021 12:15:00 PM 12.48 54.464 0.241 7.29 -1.02 10.98
3/12/2021 12:30:00 PM 12.58 54.644 0.241 7.31 -0.8 11.03
3/12/2021 12:45:00 PM 12.66 54.788 0.241 7.33 -0.22 11.08
3/12/2021 1:00:00 PM 12.76 54.968 0.241 7.36 -0.53 11.12
3/12/2021 1:15:00 PM 12.85 55.13 0.242 7.39 -1.52 11.19
3/12/2021 1:30:00 PM 12.94 55.292 0.242 7.4 -0.12 11.21
3/12/2021 1:45:00 PM 13.03 55.454 0.242 7.43 -0.81 11.24
3/12/2021 2:00:00 PM 13.1 55.58 0.242 7.45 -0.73 11.31
3/12/2021 2:15:00 PM 13.17 55.706 0.242 7.49 0.06 11.32
3/12/2021 2:30:00 PM 13.22 55.796 0.241 7.52 -1.18 11.34
3/12/2021 2:45:00 PM 13.28 55.904 0.24 7.54 -1.44 11.35
3/12/2021 3:00:00 PM 13.3 55.94 0.24 7.57 -1.33 11.37
3/12/2021 3:15:00 PM 13.32 55.976 0.24 7.59 -1.19 11.35
3/12/2021 3:30:00 PM 13.34 56.012 0.24 7.59 -0.83 11.33
3/12/2021 3:45:00 PM 13.36 56.048 0.24 7.61 -1.01 11.34
3/12/2021 4:00:00 PM 13.36 56.048 0.24 7.62 1.49 11.31
3/12/2021 4:15:00 PM 13.36 56.048 0.24 7.62 1.94 11.27
3/12/2021 4:30:00 PM 13.34 56.012 0.241 7.63 0.17 11.23
3/12/2021 4:45:00 PM 13.33 55.994 0.241 7.63 -1.3 11.17
3/12/2021 5:00:00 PM 13.3 55.94 0.241 7.63 15.38 11.11
3/12/2021 5:15:00 PM 13.28 55.904 0.24 7.64 -1.07 11.04
3/12/2021 5:30:00 PM 13.25 55.85 0.24 7.62 3.38 10.95
3/12/2021 5:45:00 PM 13.22 55.796 0.24 7.61 0.05 10.87
3/12/2021 6:00:00 PM 13.18 55.724 0.24 7.6 -0.18 10.78
3/12/2021 6:15:00 PM 13.14 55.652 0.24 7.59 -0.27 10.68
3/12/2021 6:30:00 PM 13.1 55.58 0.24 7.57 -1.69 10.56
3/12/2021 6:45:00 PM 13.07 55.526 0.24 7.56 -1.08 10.46
3/12/2021 7:00:00 PM 13.03 55.454 0.242 7.52 0.47 10.34
3/12/2021 7:15:00 PM 13.01 55.418 0.244 7.41 1.76 10.24
3/12/2021 7:30:00 PM 12.99 55.382 0.246 7.44 -0.74 10.15
3/12/2021 7:45:00 PM 12.96 55.328 0.247 7.45 -0.54 10.03
3/12/2021 8:00:00 PM 12.92 55.256 0.247 7.42 -0.59 9.96
3/12/2021 8:15:00 PM 12.89 55.202 0.246 7.41 -0.57 9.86
3/12/2021 8:30:00 PM 12.86 55.148 0.244 7.39 -0.6 9.8
3/12/2021 8:45:00 PM 12.81 55.058 0.243 7.37 -0.6 9.71
3/12/2021 9:00:00 PM 12.77 54.986 0.242 7.3 -0.47 9.66
3/12/2021 9:15:00 PM 12.74 54.932 0.241 7.33 -0.32 9.61
3/12/2021 9:30:00 PM 12.7 54.86 0.241 7.32 0.09 9.55
3/12/2021 9:45:00 PM 12.65 54.77 0.241 7.31 0.12 9.52
3/12/2021 10:00:00 PM 12.6 54.68 0.243 7.29 3.38 9.49
3/12/2021 10:15:00 PM 12.54 54.572 0.245 7.25 -0.5 9.46
3/12/2021 10:30:00 PM 12.48 54.464 0.247 7.25 -1.05 9.42
3/12/2021 10:45:00 PM 12.43 54.374 0.248 7.22 2.44 9.39
3/12/2021 11:00:00 PM 12.37 54.266 0.248 7.21 -0.33 9.36
3/12/2021 11:15:00 PM 12.31 54.158 0.248 7.21 -0.92 9.36
3/12/2021 11:30:00 PM 12.25 54.05 0.246 7.19 -0.28 9.35
3/12/2021 11:45:00 PM 12.17 53.906 0.244 7.18 0.74 9.34
3/13/2021 12:00:00 AM 12.11 53.798 0.244 7.19 0.17 9.34
3/13/2021 12:15:00 AM 12.05 53.69 0.242 7.15 1.3 9.33
3/13/2021 12:30:00 AM 11.97 53.546 0.242 7.16 0.76 9.34
3/13/2021 12:45:00 AM 11.89 53.402 0.242 7.15 -1.5 9.34
3/13/2021 1:00:00 AM 11.81 53.258 0.243 7.14 -0.61 9.34
3/13/2021 1:15:00 AM 11.74 53.132 0.244 7.11 2.19 9.33
3/13/2021 1:30:00 AM 11.65 52.97 0.246 7.1 0.52 9.33
3/13/2021 1:45:00 AM 11.56 52.808 0.247 7.07 0.62 9.33
3/13/2021 2:00:00 AM 11.46 52.628 0.247 7.05 1.07 9.35
3/13/2021 2:15:00 AM 11.38 52.484 0.246 7.04 -1.6 9.36
3/13/2021 2:30:00 AM 11.3 52.34 0.245 7.02 1.75 9.39
3/13/2021 2:45:00 AM 11.2 52.16 0.244 7.02 -0.33 9.39
3/13/2021 3:00:00 AM 11.11 51.998 0.243 7.01 0.69 9.41
3/13/2021 3:15:00 AM 11.02 51.836 0.242 7.01 2.15 9.42
3/13/2021 3:30:00 AM 10.93 51.674 0.242 7.01 -1.06 9.43
3/13/2021 3:45:00 AM 10.84 51.512 0.242 7.01 -0.92 9.44
3/13/2021 4:00:00 AM 10.75 51.35 0.243 7 -1.04 9.45
3/13/2021 4:15:00 AM 10.66 51.188 0.245 6.99 -0.52 9.48
3/13/2021 4:30:00 AM 10.58 51.044 0.246 6.98 0.85 9.5
3/13/2021 4:45:00 AM 10.52 50.936 0.247 6.97 -0.98 9.5
3/13/2021 5:00:00 AM 10.44 50.792 0.247 6.96 2.14 9.51
3/13/2021 5:15:00 AM 10.35 50.63 0.246 6.95 3.93 9.53
3/13/2021 5:30:00 AM 10.27 50.486 0.245 6.95 1.25 9.54
3/13/2021 5:45:00 AM 10.19 50.342 0.245 6.95 0.8 9.58
3/13/2021 6:00:00 AM 10.11 50.198 0.243 6.95 0.95 9.61
3/13/2021 6:15:00 AM 10.04 50.072 0.243 6.94 1.91 9.62
3/13/2021 6:30:00 AM 9.94 49.892 0.242 6.93 -0.59 9.66
3/13/2021 6:45:00 AM 9.86 49.748 0.242 6.93 0.31 9.69
3/13/2021 7:00:00 AM 9.79 49.622 0.243 6.92 1.4 9.73
3/13/2021 7:15:00 AM 9.73 49.514 0.244 6.92 1.54 9.76
3/13/2021 7:30:00 AM 9.66 49.388 0.245 6.92 1.57 9.81
3/13/2021 7:45:00 AM 9.62 49.316 0.246 6.92 1.22 9.87
3/13/2021 8:00:00 AM 9.59 49.262 0.246 6.92 -0.21 9.94
3/13/2021 8:15:00 AM 9.59 49.262 0.246 6.93 -0.03 10.04
3/13/2021 8:30:00 AM 9.62 49.316 0.245 6.93 -0.67 10.16
3/13/2021 8:45:00 AM 9.63 49.334 0.244 6.95 -0.53 10.25
3/13/2021 9:00:00 AM 9.63 49.334 0.243 6.96 -1.24 10.37
3/13/2021 9:15:00 AM 9.65 49.37 0.242 6.96 -0.19 10.47
3/13/2021 9:30:00 AM 9.68 49.424 0.242 6.98 -1.74 10.58
3/13/2021 9:45:00 AM 9.7 49.46 0.242 6.98 -0.4 10.69
3/13/2021 10:00:00 AM 9.73 49.514 0.242 7.01 -0.69 10.79
3/13/2021 10:15:00 AM 9.8 49.64 0.243 7.02 4.84 10.89
3/13/2021 10:30:00 AM 9.86 49.748 0.245 7.04 -0.58 10.98
3/13/2021 10:45:00 AM 9.92 49.856 0.246 7.06 -0.86 11.06
3/13/2021 11:00:00 AM 10 50 0.246 7.08 -1.33 11.17
3/13/2021 11:15:00 AM 10.06 50.108 0.246 7.1 -0.28 11.25
3/13/2021 11:30:00 AM 10.16 50.288 0.245 7.12 -0.81 11.33
3/13/2021 11:45:00 AM 10.24 50.432 0.245 7.15 -0.99 11.42
3/13/2021 12:00:00 PM 10.33 50.594 0.245 7.17 -1.25 11.49
3/13/2021 12:15:00 PM 10.41 50.738 0.244 7.19 -0.01 11.54
3/13/2021 12:30:00 PM 10.49 50.882 0.244 7.23 -0.29 11.6
3/13/2021 12:45:00 PM 10.56 51.008 0.244 7.24 -0.56 11.67
3/13/2021 1:00:00 PM 10.63 51.134 0.244 7.27 -0.34 11.75
3/13/2021 1:15:00 PM 10.7 51.26 0.245 7.3 0.12 11.77
3/13/2021 1:30:00 PM 10.76 51.368 0.246 7.31 -0.71 11.82
3/13/2021 1:45:00 PM 10.83 51.494 0.246 7.34 -0.47 11.86
3/13/2021 2:00:00 PM 10.9 51.62 0.246 7.38 -1.07 11.9
3/13/2021 2:15:00 PM 10.95 51.71 0.246 7.39 -1.48 11.93
3/13/2021 2:30:00 PM 10.99 51.782 0.246 7.42 -1.56 11.94
3/13/2021 2:45:00 PM 11.04 51.872 0.245 7.43 -1.43 11.97
3/13/2021 3:00:00 PM 11.05 51.89 0.245 7.45 -1.06 11.96
3/13/2021 3:15:00 PM 11.09 51.962 0.244 7.47 -0.54 11.96
3/13/2021 3:30:00 PM 11.08 51.944 0.244 7.48 -1.08 11.97
3/13/2021 3:45:00 PM 11.1 51.98 0.243 7.5 -0.5 11.95
3/13/2021 4:00:00 PM 11.11 51.998 0.243 7.51 -1.44 11.93
3/13/2021 4:15:00 PM 11.1 51.98 0.244 7.52 -0.64 11.92
3/13/2021 4:30:00 PM 11.1 51.98 0.244 7.52 -0.49 11.86
3/13/2021 4:45:00 PM 11.09 51.962 0.244 7.53 -1.81 11.83
3/13/2021 5:00:00 PM 11.07 51.926 0.244 7.53 -1.45 11.77
3/13/2021 5:15:00 PM 11.03 51.854 0.244 7.52 -0.67 11.71
3/13/2021 5:30:00 PM 11.01 51.818 0.243 7.52 -0.61 11.64
3/13/2021 5:45:00 PM 10.97 51.746 0.243 7.51 -1.26 11.57
3/13/2021 6:00:00 PM 10.93 51.674 0.243 7.51 -0.68 11.47
3/13/2021 6:15:00 PM 10.89 51.602 0.242 7.5 -1.28 11.36
3/13/2021 6:30:00 PM 10.85 51.53 0.242 7.49 -1.08 11.25
3/13/2021 6:45:00 PM 10.82 51.476 0.242 7.48 -0.62 11.14
3/13/2021 7:00:00 PM 10.78 51.404 0.243 7.46 -1.05 11.05
3/13/2021 7:15:00 PM 10.75 51.35 0.244 7.44 -0.09 10.94
3/13/2021 7:30:00 PM 10.71 51.278 0.246 7.42 -0.6 10.85
3/13/2021 7:45:00 PM 10.67 51.206 0.247 7.39 -0.66 10.75
3/13/2021 8:00:00 PM 10.62 51.116 0.248 7.37 -0.61 10.68
3/13/2021 8:15:00 PM 10.59 51.062 0.248 7.34 -0.93 10.6
3/13/2021 8:30:00 PM 10.55 50.99 0.247 7.33 0.64 10.52
3/13/2021 8:45:00 PM 10.5 50.9 0.246 7.31 0.58 10.46
3/13/2021 9:00:00 PM 10.46 50.828 0.245 7.29 0.16 10.39
3/13/2021 9:15:00 PM 10.43 50.774 0.244 7.28 -1.44 10.33
3/13/2021 9:30:00 PM 10.38 50.684 0.244 7.27 -1.07 10.29
3/13/2021 9:45:00 PM 10.34 50.612 0.244 7.24 -1.15 10.24
3/13/2021 10:00:00 PM 10.31 50.558 0.244 7.23 -1 10.21
3/13/2021 10:15:00 PM 10.28 50.504 0.246 7.21 29.17 10.18
3/13/2021 10:30:00 PM 10.25 50.45 0.248 7.19 0.51 10.13
3/13/2021 10:45:00 PM 10.21 50.378 0.25 7.18 -1.37 10.1
3/13/2021 11:00:00 PM 10.17 50.306 0.251 7.16 3.66 10.07
3/13/2021 11:15:00 PM 10.11 50.198 0.251 7.15 -1.06 10.04
3/13/2021 11:30:00 PM 10.06 50.108 0.249 7.13 0.06 10.04
3/13/2021 11:45:00 PM 9.99 49.982 0.248 7.11 0.48 10.03
3/14/2021 12:00:00 AM 9.92 49.856 0.247 7.1 -0.5 10.02
3/14/2021 12:15:00 AM 9.85 49.73 0.246 7.08 -0.83 10.02
3/14/2021 12:30:00 AM 9.79 49.622 0.246 7.09 -1.68 10.03
3/14/2021 12:45:00 AM 9.73 49.514 0.245 7.09 -1.11 10.04
3/14/2021 1:00:00 AM 9.65 49.37 0.246 7.08 0.4 10.02
3/14/2021 1:15:00 AM 9.59 49.262 0.247 7.07 1.88 10.03
3/14/2021 1:30:00 AM 9.52 49.136 0.249 7.06 0.19 10.03
3/14/2021 1:45:00 AM 9.44 48.992 0.25 7.05 0.4 10.02
3/14/2021 4:15:00 AM 8.99 48.182 0.247 6.96 -0.17 10.09
3/14/2021 4:30:00 AM 8.92 48.056 0.247 6.94 -1.73 10.1
3/14/2021 4:45:00 AM 8.86 47.948 0.246 6.93 0.02 10.12
3/14/2021 5:00:00 AM 8.8 47.84 0.247 6.91 1.19 10.12
3/14/2021 5:15:00 AM 8.74 47.732 0.248 6.91 -1.52 10.13
3/14/2021 5:30:00 AM 8.68 47.624 0.249 6.89 -0.68 10.13
3/14/2021 5:45:00 AM 8.63 47.534 0.25 6.89 -0.89 10.13
3/14/2021 6:00:00 AM 8.57 47.426 0.251 6.89 -0.89 10.14
3/14/2021 6:15:00 AM 8.52 47.336 0.25 6.88 0.33 10.15
3/14/2021 6:30:00 AM 8.46 47.228 0.25 6.88 -1.56 10.17
3/14/2021 6:45:00 AM 8.41 47.138 0.249 6.87 -1.25 10.18
3/14/2021 7:00:00 AM 8.35 47.03 0.248 6.88 -0.83 10.19
3/14/2021 7:15:00 AM 8.3 46.94 0.247 6.88 0.02 10.21
3/14/2021 7:30:00 AM 8.25 46.85 0.246 6.86 0.31 10.22
3/14/2021 7:45:00 AM 8.2 46.76 0.246 6.86 -0.59 10.23
3/14/2021 8:00:00 AM 8.16 46.688 0.246 6.87 1.6 10.28
3/14/2021 8:15:00 AM 8.14 46.652 0.248 6.86 -0.51 10.31
3/14/2021 8:30:00 AM 8.12 46.616 0.249 6.87 23.16 10.35
3/14/2021 8:45:00 AM 8.12 46.616 0.25 6.87 0 10.4
3/14/2021 9:00:00 AM 8.14 46.652 0.251 6.88 -1.32 10.47
3/14/2021 9:15:00 AM 8.18 46.724 0.251 6.87 -1.14 10.55
3/14/2021 9:30:00 AM 8.24 46.832 0.25 6.88 0.16 10.65
3/14/2021 9:45:00 AM 8.29 46.922 0.249 6.9 -1.09 10.76
3/14/2021 10:00:00 AM 8.33 46.994 0.248 6.91 -0.48 10.85
3/14/2021 10:15:00 AM 8.38 47.084 0.247 6.94 -1.04 10.95
3/14/2021 10:30:00 AM 8.44 47.192 0.247 6.95 -0.52 11.04
3/14/2021 10:45:00 AM 8.49 47.282 0.247 6.97 -1.72 11.13
3/14/2021 11:00:00 AM 8.56 47.408 0.246 6.98 3.96 11.23
3/14/2021 11:15:00 AM 8.66 47.588 0.247 6.99 -1.14 11.29
3/14/2021 11:30:00 AM 8.76 47.768 0.248 7 -1.09 11.38
3/14/2021 11:45:00 AM 8.88 47.984 0.248 7.03 -1.4 11.47
3/14/2021 12:00:00 PM 9 48.2 0.249 7.06 -1.23 11.51
3/14/2021 12:15:00 PM 9.1 48.38 0.248 7.08 -1.66 11.61
3/14/2021 12:30:00 PM 9.21 48.578 0.248 7.1 -1.34 11.65
3/14/2021 12:45:00 PM 9.33 48.794 0.247 7.12 -1.28 11.72
3/14/2021 1:00:00 PM 9.45 49.01 0.246 7.15 -0.85 11.8
3/14/2021 1:15:00 PM 9.55 49.19 0.246 7.17 -0.93 11.83
3/14/2021 1:30:00 PM 9.66 49.388 0.245 7.2 -1.06 11.89
3/14/2021 1:45:00 PM 9.76 49.568 0.245 7.22 -1.58 11.96
3/14/2021 2:00:00 PM 9.85 49.73 0.245 7.16 -0.07 11.97
3/14/2021 2:15:00 PM 9.95 49.91 0.245 7.21 -1.08 12.03
3/14/2021 2:30:00 PM 10.04 50.072 0.246 7.27 -0.25 12.05
3/14/2021 2:45:00 PM 10.12 50.216 0.246 7.3 -0.53 12.08
3/14/2021 3:00:00 PM 10.2 50.36 0.247 7.32 -1.56 12.09
3/14/2021 3:15:00 PM 10.26 50.468 0.247 7.36 -1.14 12.12
3/14/2021 3:30:00 PM 10.32 50.576 0.247 7.37 -1.64 12.13
3/14/2021 3:45:00 PM 10.38 50.684 0.246 7.39 -1.55 12.14
3/14/2021 4:00:00 PM 10.43 50.774 0.246 7.41 -0.23 12.15
3/14/2021 4:15:00 PM 10.48 50.864 0.245 7.43 -1.17 12.14
3/14/2021 4:30:00 PM 10.51 50.918 0.245 7.44 -0.81 12.12
3/14/2021 4:45:00 PM 10.53 50.954 0.245 7.45 -1.52 12.12
3/14/2021 5:00:00 PM 10.54 50.972 0.245 7.46 1.51 12.08
3/14/2021 5:15:00 PM 10.53 50.954 0.246 7.48 -0.96 12.04
3/14/2021 5:30:00 PM 10.52 50.936 0.246 7.47 -1.41 11.99
3/14/2021 5:45:00 PM 10.5 50.9 0.246 7.46 -1.34 11.95
3/14/2021 6:00:00 PM 10.47 50.846 0.247 7.46 -1.24 11.87
3/14/2021 6:15:00 PM 10.43 50.774 0.247 7.45 1.11 11.82
3/14/2021 6:30:00 PM 10.37 50.666 0.247 7.46 -1.66 11.73
3/14/2021 6:45:00 PM 10.32 50.576 0.246 7.45 -0.94 11.65
3/14/2021 7:00:00 PM 10.26 50.468 0.246 7.45 -1.45 11.57
3/14/2021 7:15:00 PM 10.2 50.36 0.245 7.44 -1.68 11.47
3/14/2021 7:30:00 PM 10.15 50.27 0.245 7.44 -1.39 11.37
3/14/2021 7:45:00 PM 10.11 50.198 0.245 7.41 -0.47 11.26
3/14/2021 8:00:00 PM 10.06 50.108 0.245 7.39 104.7 11.17
3/14/2021 8:15:00 PM 10.03 50.054 0.246 7.38 -1.62 11.07
3/14/2021 8:30:00 PM 10 50 0.248 7.36 -1.96 10.98
3/14/2021 8:45:00 PM 9.96 49.928 0.249 7.32 -1.46 10.86
3/14/2021 9:00:00 PM 9.93 49.874 0.25 7.31 0.17 10.82
3/14/2021 9:15:00 PM 9.88 49.784 0.25 7.29 -0.73 10.73
3/14/2021 9:30:00 PM 9.85 49.73 0.249 7.28 -1.16 10.66
3/14/2021 9:45:00 PM 9.8 49.64 0.248 7.28 -1.2 10.6
3/14/2021 10:00:00 PM 9.76 49.568 0.247 7.26 -1.56 10.53
3/14/2021 10:15:00 PM 9.72 49.496 0.246 7.24 -1.1 10.5
3/14/2021 10:30:00 PM 9.68 49.424 0.245 7.23 -0.5 10.44
3/14/2021 10:45:00 PM 9.63 49.334 0.245 7.22 -1.41 10.42
3/14/2021 11:00:00 PM 9.59 49.262 0.245 7.2 -1.29 10.36
3/14/2021 11:15:00 PM 9.55 49.19 0.246 7.19 -1.35 10.34
3/14/2021 11:30:00 PM 9.49 49.082 0.247 7.16 -1.1 10.29
3/14/2021 11:45:00 PM 9.44 48.992 0.249 7.16 -0.9 10.27
3/15/2021 12:00:00 AM 9.37 48.866 0.25 7.14 -1.19 10.25
3/15/2021 12:15:00 AM 9.3 48.74 0.251 7.12 -0.86 10.22
3/15/2021 12:30:00 AM 9.22 48.596 0.25 7.12 -0.85 10.22
3/15/2021 12:45:00 AM 9.14 48.452 0.249 7.09 -0.68 10.24
3/15/2021 1:00:00 AM 9.06 48.308 0.248 7.09 -1.64 10.23
3/15/2021 1:15:00 AM 8.97 48.146 0.247 7.07 -0.09 10.23
3/15/2021 1:30:00 AM 8.87 47.966 0.247 7.06 -0.2 10.24
3/15/2021 1:45:00 AM 8.79 47.822 0.246 7.05 1.01 10.24
3/15/2021 2:00:00 AM 8.69 47.642 0.246 7.04 -1.38 10.26
3/15/2021 2:15:00 AM 8.62 47.516 0.247 7.03 1.68 10.26
3/15/2021 2:30:00 AM 8.54 47.372 0.248 7.01 -1 10.26
3/15/2021 2:45:00 AM 8.45 47.21 0.25 7 -1.51 10.3
3/15/2021 3:00:00 AM 8.36 47.048 0.252 6.98 0.74 10.3
3/15/2021 3:15:00 AM 8.27 46.886 0.252 6.97 -1.05 10.3
3/15/2021 3:30:00 AM 8.17 46.706 0.252 6.96 -0.53 10.33
3/15/2021 3:45:00 AM 8.07 46.526 0.251 6.95 -0.45 10.35
3/15/2021 4:00:00 AM 7.98 46.364 0.25 6.94 0.16 10.37
3/15/2021 4:15:00 AM 7.85 46.13 0.249 6.93 -0.59 10.39
3/15/2021 4:30:00 AM 7.75 45.95 0.249 6.93 -1.17 10.42
3/15/2021 4:45:00 AM 7.67 45.806 0.248 6.92 -0.32 10.45
3/15/2021 5:00:00 AM 7.59 45.662 0.248 6.91 -1.43 10.46
3/15/2021 5:15:00 AM 7.5 45.5 0.249 6.9 -1.08 10.49
3/15/2021 5:30:00 AM 7.42 45.356 0.251 6.9 -1.01 10.49
3/15/2021 5:45:00 AM 7.34 45.212 0.252 6.89 -1.11 10.51
3/15/2021 6:00:00 AM 7.26 45.068 0.254 6.88 -1.07 10.52
3/15/2021 6:15:00 AM 7.19 44.942 0.254 6.87 -1.19 10.54
3/15/2021 6:30:00 AM 7.1 44.78 0.254 6.86 0.14 10.55
3/15/2021 6:45:00 AM 7.04 44.672 0.253 6.86 -1.15 10.59
3/15/2021 7:00:00 AM 6.97 44.546 0.252 6.85 -0.63 10.61
3/15/2021 7:15:00 AM 6.9 44.42 0.251 6.85 -0.95 10.63
3/15/2021 7:30:00 AM 6.82 44.276 0.25 6.84 -1.17 10.63
3/15/2021 7:45:00 AM 6.78 44.204 0.249 6.84 -2.02 10.71
3/15/2021 8:00:00 AM 6.72 44.096 0.249 6.83 0.04 10.74
3/15/2021 8:15:00 AM 6.68 44.024 0.249 6.83 -0.81 10.78
3/15/2021 8:30:00 AM 6.64 43.952 0.251 6.82 -0.61 10.82
3/15/2021 8:45:00 AM 6.6 43.88 0.252 6.82 -1.47 10.88
3/15/2021 9:00:00 AM 6.59 43.862 0.253 6.82 1.56 10.96
3/15/2021 9:15:00 AM 6.6 43.88 0.254 6.82 -0.29 11.06
3/15/2021 9:30:00 AM 6.65 43.97 0.253 6.83 -1.18 11.17
3/15/2021 9:45:00 AM 6.65 43.97 0.253 6.84 0.34 11.29
3/15/2021 10:00:00 AM 6.65 43.97 0.251 6.87 -1.77 11.4
3/15/2021 10:15:00 AM 6.67 44.006 0.25 6.88 -1.48 11.5
3/15/2021 10:30:00 AM 6.7 44.06 0.249 6.89 -1.54 11.59
3/15/2021 10:45:00 AM 6.74 44.132 0.248 6.9 -1.1 11.71
3/15/2021 11:00:00 AM 6.8 44.24 0.248 6.92 -2.2 11.8
3/15/2021 11:15:00 AM 6.86 44.348 0.248 6.92 -0.2 11.9
3/15/2021 11:30:00 AM 6.92 44.456 0.248 6.94 -0.61 11.97
3/15/2021 11:45:00 AM 7.02 44.636 0.248 6.96 -1.43 12.04
3/15/2021 12:00:00 PM 7.1 44.78 0.249 6.98 0.18 12.14
3/15/2021 12:15:00 PM 7.19 44.942 0.249 7 -1.54 12.2
3/15/2021 12:30:00 PM 7.27 45.086 0.249 7.02 -1.78 12.25
3/15/2021 12:45:00 PM 7.36 45.248 0.249 7.04 0.22 12.33
3/15/2021 1:00:00 PM 7.46 45.428 0.248 7.07 -1.31 12.4
3/15/2021 1:15:00 PM 7.53 45.554 0.247 7.09 -1.17 12.45
3/15/2021 1:30:00 PM 7.61 45.698 0.247 7.11 -2.09 12.51
3/15/2021 1:45:00 PM 7.68 45.824 0.246 7.14 -1.72 12.55
3/15/2021 2:00:00 PM 7.77 45.986 0.246 7.17 -1.04 12.61
3/15/2021 2:15:00 PM 7.83 46.094 0.246 7.19 -1.61 12.62
3/15/2021 2:30:00 PM 7.94 46.292 0.246 7.21 -1.92 12.69
3/15/2021 2:45:00 PM 8.03 46.454 0.246 7.23 -1.86 12.72
3/15/2021 3:00:00 PM 8.11 46.598 0.245 7.25 -1.68 12.76
3/15/2021 3:15:00 PM 8.18 46.724 0.246 7.27 -1.18 12.78
3/15/2021 3:30:00 PM 8.24 46.832 0.246 7.29 -2.2 12.8
3/15/2021 3:45:00 PM 8.31 46.958 0.246 7.3 -1.69 12.81
3/15/2021 4:00:00 PM 8.36 47.048 0.246 7.32 -2.12 12.82
3/15/2021 4:15:00 PM 8.38 47.084 0.246 7.34 -1.02 12.82
3/15/2021 4:30:00 PM 8.4 47.12 0.247 7.34 -1.29 12.79
3/15/2021 4:45:00 PM 8.43 47.174 0.247 7.36 -1.8 12.79
3/15/2021 5:00:00 PM 8.44 47.192 0.248 7.36 -1.47 12.77
3/15/2021 5:15:00 PM 8.45 47.21 0.248 7.37 -1.68 12.74
3/15/2021 5:30:00 PM 8.44 47.192 0.248 7.38 -1.37 12.72
3/15/2021 5:45:00 PM 8.42 47.156 0.247 7.39 -1.39 12.68
3/15/2021 6:00:00 PM 8.4 47.12 0.247 7.39 -2.26 12.63
3/15/2021 6:15:00 PM 8.38 47.084 0.246 7.39 -1.07 12.6
3/15/2021 6:30:00 PM 8.35 47.03 0.246 7.39 -1.28 12.54
3/15/2021 6:45:00 PM 8.32 46.976 0.246 7.38 -1.14 12.48
3/15/2021 7:00:00 PM 8.27 46.886 0.247 7.37 -1.62 12.36
3/15/2021 7:15:00 PM 8.24 46.832 0.249 7.35 -1.9 12.27
3/15/2021 7:30:00 PM 8.22 46.796 0.252 7.33 -1.3 12.15
3/15/2021 7:45:00 PM 8.19 46.742 0.255 7.31 -1.18 12.04
3/15/2021 8:00:00 PM 8.17 46.706 0.258 7.29 -1.41 11.92
3/15/2021 8:15:00 PM 8.15 46.67 0.26 7.27 1.5 11.82
3/15/2021 8:30:00 PM 8.13 46.634 0.26 7.25 -1.71 11.74
3/15/2021 8:45:00 PM 8.11 46.598 0.259 7.23 -1.02 11.64
3/15/2021 9:00:00 PM 8.09 46.562 0.256 7.22 -1.54 11.56
3/15/2021 9:15:00 PM 8.07 46.526 0.255 7.21 -1.54 11.49
3/15/2021 9:30:00 PM 8.05 46.49 0.253 7.2 -2.1 11.42
3/15/2021 9:45:00 PM 8.03 46.454 0.252 7.19 -1.97 11.35
3/15/2021 10:00:00 PM 8.02 46.436 0.252 7.17 -1.74 11.26
3/15/2021 10:15:00 PM 8.01 46.418 0.252 7.16 -2.18 11.23
3/15/2021 10:30:00 PM 8 46.4 0.253 7.14 -1.62 11.16
3/15/2021 10:45:00 PM 8 46.4 0.255 7.12 -1 11.12
3/15/2021 11:00:00 PM 8 46.4 0.256 7.1 -0.58 11.05
3/15/2021 11:15:00 PM 8 46.4 0.257 7.1 -1.82 11
3/15/2021 11:30:00 PM 7.99 46.382 0.256 7.08 -1.32 10.97
3/15/2021 11:45:00 PM 7.97 46.346 0.256 7.08 -1.98 10.94
3/16/2021 12:00:00 AM 7.95 46.31 0.255 7.08 -1.11 10.91
3/16/2021 12:15:00 AM 7.93 46.274 0.253 7.06 -1.59 10.89
3/16/2021 12:30:00 AM 7.92 46.256 0.252 7.06 3.42 10.88
3/16/2021 12:45:00 AM 7.9 46.22 0.252 7.05 -1.34 10.85
3/16/2021 1:00:00 AM 7.87 46.166 0.25 7.04 -1.11 10.83
3/16/2021 1:15:00 AM 7.85 46.13 0.252 7.03 0.18 10.79
3/16/2021 1:30:00 AM 7.82 46.076 0.253 7.03 -0.83 10.8
3/16/2021 1:45:00 AM 7.79 46.022 0.254 7.01 0.73 10.77
3/16/2021 2:00:00 AM 7.75 45.95 0.255 7 -1.22 10.77
3/16/2021 2:15:00 AM 7.7 45.86 0.256 6.99 -0.75 10.76
3/16/2021 2:30:00 AM 7.66 45.788 0.256 6.98 -0.39 10.73
3/16/2021 2:45:00 AM 7.62 45.716 0.255 6.98 -0.96 10.73
3/16/2021 3:00:00 AM 7.58 45.644 0.254 6.97 -1.01 10.75
3/16/2021 3:15:00 AM 7.53 45.554 0.254 6.96 -0.97 10.75
3/16/2021 3:30:00 AM 7.48 45.464 0.253 6.95 -1.11 10.76
3/16/2021 3:45:00 AM 7.44 45.392 0.252 6.95 -0.7 10.76
3/16/2021 4:00:00 AM 7.39 45.302 0.252 6.92 -1.48 10.76
3/16/2021 4:15:00 AM 7.34 45.212 0.253 6.92 -0.42 10.77
3/16/2021 4:30:00 AM 7.3 45.14 0.254 6.92 -1.21 10.76
3/16/2021 4:45:00 AM 7.25 45.05 0.256 6.91 -1.39 10.73
3/16/2021 5:00:00 AM 7.21 44.978 0.257 6.89 -1.17 10.75
3/16/2021 5:15:00 AM 7.17 44.906 0.257 6.88 0.03 10.74
3/16/2021 5:30:00 AM 7.13 44.834 0.257 6.86 -1.26 10.75
3/16/2021 5:45:00 AM 7.09 44.762 0.256 6.86 -1.36 10.76
3/16/2021 6:00:00 AM 7.05 44.69 0.255 6.86 3.5 10.76
3/16/2021 6:15:00 AM 7.01 44.618 0.254 6.86 -1.39 10.77
3/16/2021 6:30:00 AM 6.96 44.528 0.253 6.85 -0.75 10.77
3/16/2021 6:45:00 AM 6.93 44.474 0.253 6.84 -1.34 10.79
3/16/2021 7:00:00 AM 6.9 44.42 0.252 6.83 -1.21 10.79
3/16/2021 7:15:00 AM 6.87 44.366 0.253 6.83 -0.77 10.8
3/16/2021 7:30:00 AM 6.84 44.312 0.254 6.82 -1.06 10.79
3/16/2021 7:45:00 AM 6.81 44.258 0.255 6.81 -0.5 10.79
3/16/2021 8:00:00 AM 6.78 44.204 0.257 6.81 -0.19 10.79
3/16/2021 8:15:00 AM 6.77 44.186 0.257 6.81 -1.4 10.8
3/16/2021 8:30:00 AM 6.76 44.168 0.257 6.8 -1.66 10.83
3/16/2021 8:45:00 AM 6.75 44.15 0.257 6.8 -1.33 10.86
3/16/2021 9:00:00 AM 6.74 44.132 0.255 6.8 -1.25 10.91
3/16/2021 9:15:00 AM 6.72 44.096 0.254 6.81 -1.3 10.99
3/16/2021 9:30:00 AM 6.71 44.078 0.253 6.81 -1.06 11.08
3/16/2021 9:45:00 AM 6.71 44.078 0.252 6.82 -1.38 11.12
3/16/2021 10:00:00 AM 6.71 44.078 0.252 6.82 -1.51 11.21
3/16/2021 10:15:00 AM 6.71 44.078 0.252 6.83 -0.7 11.25
3/16/2021 10:30:00 AM 6.72 44.096 0.253 6.83 -0.57 11.33
3/16/2021 10:45:00 AM 6.74 44.132 0.253 6.84 -0.78 11.39
3/16/2021 11:00:00 AM 6.77 44.186 0.255 6.85 -1.17 11.47
3/16/2021 11:15:00 AM 6.8 44.24 0.255 6.87 -1 11.59
3/16/2021 11:30:00 AM 6.82 44.276 0.255 6.89 -0.83 11.67
3/16/2021 11:45:00 AM 6.84 44.312 0.255 6.9 -1.57 11.75
3/16/2021 12:00:00 PM 6.86 44.348 0.254 6.92 -0.81 11.83
3/16/2021 12:15:00 PM 6.89 44.402 0.253 6.94 -0.56 11.91
3/16/2021 12:30:00 PM 6.92 44.456 0.253 6.96 -1.06 11.98
3/16/2021 12:45:00 PM 6.95 44.51 0.252 6.98 -1.44 12.06
3/16/2021 1:00:00 PM 6.98 44.564 0.252 6.98 -1.47 12.14
3/16/2021 1:15:00 PM 6.99 44.582 0.252 7.01 -1.65 12.17
3/16/2021 1:30:00 PM 7 44.6 0.252 7.01 -0.1 12.2
3/16/2021 1:45:00 PM 7.02 44.636 0.252 7.03 -1.11 12.24
3/16/2021 2:00:00 PM 7.03 44.654 0.253 7.04 -1.81 12.24
3/16/2021 2:15:00 PM 7.04 44.672 0.253 7.05 -1.95 12.26
3/16/2021 2:30:00 PM 7.06 44.708 0.253 7.06 -1.2 12.29
3/16/2021 2:45:00 PM 7.09 44.762 0.253 7.06 -0.8 12.31
3/16/2021 3:00:00 PM 7.14 44.852 0.253 7.09 -1.22 12.35
3/16/2021 3:15:00 PM 7.19 44.942 0.252 7.11 -1.07 12.43
3/16/2021 3:30:00 PM 7.23 45.014 0.251 7.13 -1.76 12.48
3/16/2021 3:45:00 PM 7.24 45.032 0.251 7.13 -1.54 12.51
3/16/2021 4:00:00 PM 7.25 45.05 0.251 7.15 -0.63 12.55
3/16/2021 4:15:00 PM 7.27 45.086 0.251 7.16 -0.83 12.56
3/16/2021 4:30:00 PM 7.28 45.104 0.252 7.17 -2.12 12.55
3/16/2021 4:45:00 PM 7.29 45.122 0.252 7.16 -1.75 12.53
3/16/2021 5:00:00 PM 7.29 45.122 0.253 7.16 -1.74 12.5
3/16/2021 5:15:00 PM 7.3 45.14 0.253 7.18 -1.83 12.51
3/16/2021 5:30:00 PM 7.3 45.14 0.253 7.17 -2.03 12.44
3/16/2021 5:45:00 PM 7.3 45.14 0.253 7.17 -1.78 12.4
3/16/2021 6:00:00 PM 7.29 45.122 0.252 7.16 -1.63 12.37
3/16/2021 6:15:00 PM 7.28 45.104 0.252 7.17 -1.54 12.32
3/16/2021 6:30:00 PM 7.27 45.086 0.251 7.15 -1.56 12.27
3/16/2021 6:45:00 PM 7.26 45.068 0.251 7.15 -1.31 12.17
3/16/2021 7:00:00 PM 7.24 45.032 0.252 7.13 -2.01 12.09
3/16/2021 7:15:00 PM 7.22 44.996 0.252 7.12 -1.54 12
3/16/2021 7:30:00 PM 7.21 44.978 0.253 7.1 -0.87 11.91
3/16/2021 7:45:00 PM 7.2 44.96 0.255 7.09 -1.88 11.84
3/16/2021 8:00:00 PM 7.2 44.96 0.256 7.07 -1.81 11.76
3/16/2021 8:15:00 PM 7.19 44.942 0.257 7.07 -1.83 11.67
3/16/2021 8:30:00 PM 7.18 44.924 0.256 7.05 -1.46 11.62
3/16/2021 8:45:00 PM 7.17 44.906 0.256 7.05 -1.44 11.58
3/16/2021 9:00:00 PM 7.16 44.888 0.255 7.04 -2.23 11.52
3/16/2021 9:15:00 PM 7.16 44.888 0.254 7.03 -1.65 11.48
3/16/2021 9:30:00 PM 7.15 44.87 0.253 7.02 -1.05 11.42
3/16/2021 9:45:00 PM 7.14 44.852 0.252 7 -1.83 11.39
3/16/2021 10:00:00 PM 7.13 44.834 0.252 7 -1.79 11.34
3/16/2021 10:15:00 PM 7.13 44.834 0.252 6.98 -1.9 11.31
3/16/2021 10:30:00 PM 7.13 44.834 0.253 6.97 -1.96 11.27
3/16/2021 10:45:00 PM 7.13 44.834 0.254 6.96 -2.14 11.24
3/16/2021 11:00:00 PM 7.13 44.834 0.256 6.94 -1.55 11.19
3/16/2021 11:15:00 PM 7.13 44.834 0.256 6.94 -1.83 11.16
3/16/2021 11:30:00 PM 7.12 44.816 0.256 6.93 -0.69 11.13
3/16/2021 11:45:00 PM 7.12 44.816 0.256 6.92 -1.68 11.1
3/17/2021 12:00:00 AM 7.11 44.798 0.255 6.91 -0.18 11.08
3/17/2021 12:15:00 AM 7.1 44.78 0.254 6.91 -2.06 11.07
3/17/2021 12:30:00 AM 7.1 44.78 0.253 6.9 -1.55 11.06
3/17/2021 12:45:00 AM 7.09 44.762 0.253 6.89 -1.71 11.04
3/17/2021 1:00:00 AM 7.08 44.744 0.253 6.88 -1.56 11.03
3/17/2021 1:15:00 AM 7.07 44.726 0.253 6.89 1.23 11.01
3/17/2021 1:30:00 AM 7.06 44.708 0.255 6.89 -1.32 11
3/17/2021 1:45:00 AM 7.06 44.708 0.256 6.89 -1.61 10.97
3/17/2021 2:00:00 AM 7.05 44.69 0.257 6.87 -1.32 10.95
3/17/2021 2:15:00 AM 7.04 44.672 0.258 6.87 -1.94 10.96
3/17/2021 2:30:00 AM 7.03 44.654 0.258 6.87 -1.17 10.92
3/17/2021 2:45:00 AM 7.02 44.636 0.258 6.86 -1.66 10.92
3/17/2021 3:00:00 AM 7 44.6 0.257 6.85 -1.31 10.93
3/17/2021 3:15:00 AM 6.98 44.564 0.256 6.84 -1.51 10.91
3/17/2021 3:30:00 AM 6.96 44.528 0.255 6.85 -1.97 10.91
3/17/2021 3:45:00 AM 6.94 44.492 0.255 6.84 -1.69 10.9
3/17/2021 4:00:00 AM 6.93 44.474 0.255 6.83 -1.62 10.9
3/17/2021 4:15:00 AM 6.91 44.438 0.255 6.82 -1.56 10.9
3/17/2021 4:30:00 AM 6.9 44.42 0.256 6.82 -0.53 10.88
3/17/2021 4:45:00 AM 6.89 44.402 0.257 6.8 -1.23 10.88
3/17/2021 5:00:00 AM 6.89 44.402 0.258 6.8 -1.97 10.88
3/17/2021 5:15:00 AM 6.88 44.384 0.258 6.79 1.29 10.85
3/17/2021 5:30:00 AM 6.87 44.366 0.258 6.79 -1.57 10.86
3/17/2021 5:45:00 AM 6.85 44.33 0.258 6.78 -1.33 10.86
3/17/2021 6:00:00 AM 6.84 44.312 0.257 6.77 -2.35 10.84
3/17/2021 6:15:00 AM 6.83 44.294 0.256 6.78 -1.17 10.87
3/17/2021 6:30:00 AM 6.82 44.276 0.255 6.77 -1.37 10.87
3/17/2021 6:45:00 AM 6.8 44.24 0.255 6.76 -1.27 10.86
3/17/2021 7:00:00 AM 6.79 44.222 0.254 6.75 -0.44 10.87
3/17/2021 7:15:00 AM 6.79 44.222 0.255 6.74 -0.94 10.86
3/17/2021 7:30:00 AM 6.78 44.204 0.255 6.74 -2.34 10.86
3/17/2021 7:45:00 AM 6.78 44.204 0.257 6.74 -0.38 10.88
3/17/2021 8:00:00 AM 6.78 44.204 0.258 6.73 -0.04 10.87
3/17/2021 8:15:00 AM 6.78 44.204 0.259 6.74 -1.98 10.89
3/17/2021 8:30:00 AM 6.79 44.222 0.259 6.74 -1.91 10.92
3/17/2021 8:45:00 AM 6.79 44.222 0.258 6.74 -1.96 10.97
3/17/2021 9:00:00 AM 6.8 44.24 0.256 6.76 -2.14 11.06
3/17/2021 9:15:00 AM 6.81 44.258 0.256 6.76 -1.49 11.12
3/17/2021 9:30:00 AM 6.83 44.294 0.255 6.77 -0.53 11.21
3/17/2021 9:45:00 AM 6.84 44.312 0.254 6.79 -1.32 11.29
3/17/2021 10:00:00 AM 6.86 44.348 0.253 6.78 -1.94 11.38
3/17/2021 10:15:00 AM 6.89 44.402 0.253 6.79 -1.36 11.47
3/17/2021 10:30:00 AM 6.91 44.438 0.253 6.8 -2.04 11.53
3/17/2021 10:45:00 AM 6.95 44.51 0.254 6.81 -2.19 11.59
3/17/2021 11:00:00 AM 6.98 44.564 0.255 6.82 -1.67 11.69
3/17/2021 11:15:00 AM 7.02 44.636 0.255 6.84 -1.95 11.78
3/17/2021 11:30:00 AM 7.06 44.708 0.255 6.86 -1.67 11.86
3/17/2021 11:45:00 AM 7.09 44.762 0.254 6.88 -1.65 11.92
3/17/2021 12:00:00 PM 7.13 44.834 0.253 6.9 -1.89 12.04
3/17/2021 12:15:00 PM 7.17 44.906 0.251 6.92 -1.62 12.1
3/17/2021 12:30:00 PM 7.21 44.978 0.252 6.95 -1.36 12.19
3/17/2021 12:45:00 PM 7.25 45.05 0.251 6.97 -2.05 12.25
3/17/2021 1:00:00 PM 7.29 45.122 0.25 7 -2.04 12.32
3/17/2021 1:15:00 PM 7.34 45.212 0.25 7.02 -1.79 12.37
3/17/2021 1:30:00 PM 7.39 45.302 0.25 7.04 -1.86 12.45
3/17/2021 1:45:00 PM 7.43 45.374 0.251 7.05 -2.09 12.47
3/17/2021 2:00:00 PM 7.48 45.464 0.251 7.07 -1.82 12.53
3/17/2021 2:15:00 PM 7.53 45.554 0.251 7.08 -1.89 12.57
3/17/2021 2:30:00 PM 7.58 45.644 0.251 7.1 -2.05 12.61
3/17/2021 2:45:00 PM 7.61 45.698 0.251 7.13 -1.35 12.65
3/17/2021 3:00:00 PM 7.64 45.752 0.251 7.16 -1.55 12.66
3/17/2021 3:15:00 PM 7.66 45.788 0.251 7.17 -2.18 12.66
3/17/2021 3:30:00 PM 7.7 45.86 0.25 7.2 -1.52 12.63
3/17/2021 3:45:00 PM 7.74 45.932 0.25 7.21 -2.06 12.67
3/17/2021 4:00:00 PM 7.79 46.022 0.25 7.22 -1.86 12.7
3/17/2021 4:15:00 PM 7.82 46.076 0.25 7.24 -2.03 12.72
3/17/2021 4:30:00 PM 7.85 46.13 0.25 7.25 -1.93 12.71
3/17/2021 4:45:00 PM 7.88 46.184 0.251 7.26 -2.01 12.68
3/17/2021 5:00:00 PM 7.9 46.22 0.252 7.26 -1.96 12.66
3/17/2021 5:15:00 PM 7.93 46.274 0.252 7.26 -2.16 12.66
3/17/2021 5:30:00 PM 7.95 46.31 0.252 7.26 -2.13 12.6
3/17/2021 5:45:00 PM 7.96 46.328 0.252 7.26 -0.81 12.53
3/17/2021 6:00:00 PM 7.97 46.346 0.251 7.26 -2.09 12.51
3/17/2021 6:15:00 PM 7.98 46.364 0.251 7.26 -2.49 12.42
3/17/2021 6:30:00 PM 7.99 46.382 0.251 7.26 -1.93 12.37
3/17/2021 6:45:00 PM 8 46.4 0.25 7.25 -1.32 12.27
3/17/2021 7:00:00 PM 8 46.4 0.25 7.24 0.63 12.14
3/17/2021 7:15:00 PM 8.01 46.418 0.251 7.23 -2.08 12.07
3/17/2021 7:30:00 PM 8.02 46.436 0.252 7.21 -0.36 11.95
3/17/2021 7:45:00 PM 8.03 46.454 0.254 7.19 -1.83 11.88
3/17/2021 8:00:00 PM 8.04 46.472 0.256 7.18 -1.63 11.78
3/17/2021 8:15:00 PM 8.05 46.49 0.257 7.16 -1.38 11.68
3/17/2021 8:30:00 PM 8.06 46.508 0.258 7.15 -1.47 11.61
3/17/2021 8:45:00 PM 8.07 46.526 0.257 7.14 -1.89 11.52
3/17/2021 9:00:00 PM 8.07 46.526 0.256 7.12 -1.52 11.43
3/17/2021 9:15:00 PM 8.08 46.544 0.255 7.12 0.27 11.38
3/17/2021 9:30:00 PM 8.08 46.544 0.254 7.1 -2.06 11.3
3/17/2021 9:45:00 PM 8.08 46.544 0.253 7.08 -1.67 11.26
3/17/2021 10:00:00 PM 8.09 46.562 0.253 7.07 -2.27 11.19
3/17/2021 10:15:00 PM 8.09 46.562 0.253 7.05 -1.29 11.15
3/17/2021 10:30:00 PM 8.1 46.58 0.255 7.03 -2.4 11.09
3/17/2021 10:45:00 PM 8.11 46.598 0.257 7.02 0.15 11.04
3/17/2021 11:00:00 PM 8.13 46.634 0.258 7.01 -2.1 10.98
3/17/2021 11:15:00 PM 8.14 46.652 0.26 6.99 0.05 10.93
3/17/2021 11:30:00 PM 8.15 46.67 0.26 6.98 -1.14 10.89
3/17/2021 11:45:00 PM 8.16 46.688 0.259 6.96 -1.99 10.87
3/18/2021 12:00:00 AM 8.17 46.706 0.258 6.96 -1.57 10.83
3/18/2021 12:15:00 AM 8.17 46.706 0.257 6.97 -1.69 10.81
3/18/2021 12:30:00 AM 8.17 46.706 0.256 6.96 0.11 10.78
3/18/2021 12:45:00 AM 8.17 46.706 0.255 6.95 -1.27 10.75
3/18/2021 1:00:00 AM 8.17 46.706 0.254 6.94 -1.28 10.71
3/18/2021 1:15:00 AM 8.17 46.706 0.254 6.94 -1.42 10.7
3/18/2021 1:30:00 AM 8.18 46.724 0.255 6.93 -1.9 10.69
3/18/2021 1:45:00 AM 8.18 46.724 0.256 6.92 -1.56 10.67
3/18/2021 2:00:00 AM 8.18 46.724 0.257 6.92 -0.51 10.63
3/18/2021 2:15:00 AM 8.19 46.742 0.258 6.91 -2.05 10.62
3/18/2021 2:30:00 AM 8.19 46.742 0.258 6.9 -1.83 10.6
3/18/2021 2:45:00 AM 8.19 46.742 0.258 6.9 -1.57 10.57
3/18/2021 3:00:00 AM 8.18 46.724 0.257 6.89 -1.5 10.56
3/18/2021 3:15:00 AM 8.18 46.724 0.256 6.89 -2.07 10.54
3/18/2021 3:30:00 AM 8.17 46.706 0.256 6.88 -1.7 10.53
3/18/2021 3:45:00 AM 8.17 46.706 0.255 6.87 -1.79 10.52
3/18/2021 4:00:00 AM 8.16 46.688 0.255 6.86 -1.53 10.51
3/18/2021 4:15:00 AM 8.16 46.688 0.255 6.85 -1.23 10.48
3/18/2021 4:30:00 AM 8.16 46.688 0.256 6.84 -0.27 10.48
3/18/2021 4:45:00 AM 8.16 46.688 0.257 6.83 -1 10.45
3/18/2021 5:00:00 AM 8.16 46.688 0.259 6.83 -1.76 10.44
3/18/2021 5:15:00 AM 8.17 46.706 0.259 6.82 -1.95 10.43
3/18/2021 5:30:00 AM 8.17 46.706 0.259 6.81 -2.39 10.43
3/18/2021 5:45:00 AM 8.16 46.688 0.259 6.8 -1.9 10.4
3/18/2021 6:00:00 AM 8.16 46.688 0.258 6.79 -1.11 10.4
3/18/2021 6:15:00 AM 8.16 46.688 0.257 6.79 -1.07 10.4
3/18/2021 6:30:00 AM 8.15 46.67 0.256 6.79 -1.15 10.39
3/18/2021 6:45:00 AM 8.15 46.67 0.255 6.79 -1.54 10.4
3/18/2021 7:00:00 AM 8.15 46.67 0.255 6.79 -1.68 10.37
3/18/2021 7:15:00 AM 8.15 46.67 0.255 6.78 0.18 10.38
3/18/2021 7:30:00 AM 8.16 46.688 0.256 6.77 0 10.36
3/18/2021 7:45:00 AM 8.16 46.688 0.258 6.76 -1.25 10.35
3/18/2021 8:00:00 AM 8.17 46.706 0.259 6.75 -2.18 10.34
3/18/2021 8:15:00 AM 8.17 46.706 0.259 6.76 -1.78 10.35
3/18/2021 8:30:00 AM 8.18 46.724 0.259 6.76 -1.59 10.35
3/18/2021 8:45:00 AM 8.18 46.724 0.258 6.74 -1.78 10.37
3/18/2021 9:00:00 AM 8.19 46.742 0.257 6.74 -0.26 10.38
3/18/2021 9:15:00 AM 8.19 46.742 0.256 6.75 -1.08 10.41
3/18/2021 9:30:00 AM 8.2 46.76 0.255 6.75 -1.39 10.44
3/18/2021 9:45:00 AM 8.2 46.76 0.255 6.75 -1.42 10.48
3/18/2021 10:00:00 AM 8.21 46.778 0.254 6.76 -0.98 10.51
3/18/2021 10:15:00 AM 8.22 46.796 0.253 6.76 1.48 10.54
3/18/2021 10:30:00 AM 8.23 46.814 0.254 6.76 0.21 10.55
3/18/2021 10:45:00 AM 8.24 46.832 0.255 6.76 -1.2 10.56
3/18/2021 11:00:00 AM 8.26 46.868 0.256 6.77 -0.59 10.59
3/18/2021 11:15:00 AM 8.27 46.886 0.256 6.77 -0.39 10.63
3/18/2021 11:30:00 AM 8.29 46.922 0.256 6.78 -1.56 10.65
3/18/2021 11:45:00 AM 8.3 46.94 0.256 6.79 -0.65 10.69
3/18/2021 12:00:00 PM 8.33 46.994 0.255 6.79 -1.12 10.76
3/18/2021 12:15:00 PM 8.35 47.03 0.254 6.8 -0.86 10.83
3/18/2021 12:30:00 PM 8.36 47.048 0.253 6.81 -1.04 10.87
3/18/2021 12:45:00 PM 8.37 47.066 0.253 6.83 -0.69 10.89
3/18/2021 1:00:00 PM 8.39 47.102 0.253 6.83 -0.73 10.93
3/18/2021 1:15:00 PM 8.41 47.138 0.253 6.84 -1.08 10.97
3/18/2021 1:30:00 PM 8.43 47.174 0.254 6.84 -0.79 11
3/18/2021 1:45:00 PM 8.44 47.192 0.254 6.86 -0.95 11.04
3/18/2021 2:00:00 PM 8.45 47.21 0.255 6.85 -1.33 11.02
3/18/2021 2:15:00 PM 8.47 47.246 0.255 6.86 -0.33 10.99
3/18/2021 2:30:00 PM 8.48 47.264 0.255 6.87 -0.58 10.98
3/18/2021 2:45:00 PM 8.49 47.282 0.254 6.87 0.54 10.99
3/18/2021 3:00:00 PM 8.51 47.318 0.253 6.87 -0.57 11.02
3/18/2021 3:15:00 PM 8.52 47.336 0.252 6.87 0.7 11.02
3/18/2021 3:30:00 PM 8.54 47.372 0.251 6.87 0.41 11.05
3/18/2021 3:45:00 PM 8.55 47.39 0.251 6.88 1.12 11.04
3/18/2021 4:00:00 PM 8.56 47.408 0.251 6.89 -0.08 11.05
3/18/2021 4:15:00 PM 8.56 47.408 0.251 6.88 0.27 11.03
3/18/2021 4:30:00 PM 8.57 47.426 0.252 6.87 -0.04 10.99
3/18/2021 4:45:00 PM 8.57 47.426 0.253 6.87 0.32 10.96
3/18/2021 5:00:00 PM 8.58 47.444 0.254 6.86 0.73 10.96
3/18/2021 5:15:00 PM 8.58 47.444 0.254 6.86 -0.38 10.96
3/18/2021 5:30:00 PM 8.58 47.444 0.255 6.86 0.11 10.97
3/18/2021 5:45:00 PM 8.58 47.444 0.255 6.87 -0.34 10.97
3/18/2021 6:00:00 PM 8.57 47.426 0.255 6.86 -0.67 10.98
3/18/2021 6:15:00 PM 8.57 47.426 0.256 6.86 0.56 10.95
3/18/2021 6:30:00 PM 8.56 47.408 0.257 6.86 0.3 10.93
3/18/2021 6:45:00 PM 8.56 47.408 0.259 6.86 1.88 10.89
3/18/2021 7:00:00 PM 8.56 47.408 0.262 6.84 1.75 10.85
3/18/2021 7:15:00 PM 8.55 47.39 0.264 6.84 3 10.79
3/18/2021 7:30:00 PM 8.54 47.372 0.265 6.83 0.54 10.77
3/18/2021 7:45:00 PM 8.53 47.354 0.265 6.83 0.97 10.76
3/18/2021 8:00:00 PM 8.52 47.336 0.264 6.81 2.21 10.72
3/18/2021 8:15:00 PM 8.51 47.318 0.263 6.81 5.28 10.68
3/18/2021 8:30:00 PM 8.5 47.3 0.262 6.82 3.85 10.66
3/18/2021 8:45:00 PM 8.49 47.282 0.261 6.8 1.2 10.65
3/18/2021 9:00:00 PM 8.47 47.246 0.26 6.79 1.35 10.62
3/18/2021 9:15:00 PM 8.47 47.246 0.261 6.79 4.37 10.58
3/18/2021 9:30:00 PM 8.47 47.246 0.263 6.78 1.68 10.56
3/18/2021 9:45:00 PM 8.47 47.246 0.264 6.76 7.39 10.53
3/18/2021 10:00:00 PM 8.47 47.246 0.264 6.76 3.07 10.51
3/18/2021 10:15:00 PM 8.46 47.228 0.263 6.76 2.85 10.5
3/18/2021 10:30:00 PM 8.45 47.21 0.262 6.76 1.96 10.5
3/18/2021 10:45:00 PM 8.44 47.192 0.26 6.75 2.74 10.49
3/18/2021 11:00:00 PM 8.43 47.174 0.258 6.75 6.63 10.47
3/18/2021 11:15:00 PM 8.42 47.156 0.257 6.75 3.71 10.47
3/18/2021 11:30:00 PM 8.41 47.138 0.256 6.74 3.82 10.45
3/18/2021 11:45:00 PM 8.4 47.12 0.255 6.73 10.64 10.45
3/19/2021 12:00:00 AM 8.39 47.102 0.256 6.73 4.66 10.44
3/19/2021 12:15:00 AM 8.38 47.084 0.258 6.72 3.32 10.41
3/19/2021 12:30:00 AM 8.37 47.066 0.259 6.71 3.8 10.4
3/19/2021 12:45:00 AM 8.35 47.03 0.259 6.71 1.18 10.39
3/19/2021 1:00:00 AM 8.33 46.994 0.257 6.7 9.98 10.39
3/19/2021 1:15:00 AM 8.3 46.94 0.256 6.7 6.48 10.39
3/19/2021 1:30:00 AM 8.27 46.886 0.255 6.7 3.78 10.38
3/19/2021 1:45:00 AM 8.24 46.832 0.253 6.68 5.12 10.38
3/19/2021 2:00:00 AM 8.21 46.778 0.252 6.68 4.86 10.37
3/19/2021 2:15:00 AM 8.19 46.742 0.251 6.67 2.88 10.38
3/19/2021 2:30:00 AM 8.16 46.688 0.251 6.66 3.82 10.36
3/19/2021 2:45:00 AM 8.14 46.652 0.251 6.65 5.51 10.37
3/19/2021 3:00:00 AM 8.11 46.598 0.252 6.64 3.77 10.37
3/19/2021 3:15:00 AM 8.09 46.562 0.253 6.63 4.52 10.35
3/19/2021 3:30:00 AM 8.06 46.508 0.253 6.62 4.1 10.36
3/19/2021 3:45:00 AM 8.01 46.418 0.251 6.61 4.2 10.36
3/19/2021 4:00:00 AM 7.96 46.328 0.249 6.62 1.89 10.34
3/19/2021 4:15:00 AM 7.92 46.256 0.247 6.6 4.79 10.38
3/19/2021 4:30:00 AM 7.86 46.148 0.245 6.6 3.76 10.38
3/19/2021 4:45:00 AM 7.82 46.076 0.243 6.59 4.7 10.39
3/19/2021 5:00:00 AM 7.77 45.986 0.242 6.58 3.4 10.39
3/19/2021 5:15:00 AM 7.73 45.914 0.24 6.58 3.05 10.41
3/19/2021 5:30:00 AM 7.68 45.824 0.239 6.57 4.52 10.41
3/19/2021 5:45:00 AM 7.64 45.752 0.239 6.57 2.02 10.43
3/19/2021 6:00:00 AM 7.6 45.68 0.24 6.56 2.64 10.43
3/19/2021 6:15:00 AM 7.55 45.59 0.241 6.55 5.82 10.44
3/19/2021 6:30:00 AM 7.5 45.5 0.241 6.55 5.77 10.44
3/19/2021 6:45:00 AM 7.44 45.392 0.239 6.54 3.28 10.47
3/19/2021 7:00:00 AM 7.39 45.302 0.236 6.54 16.09 10.48
3/19/2021 7:15:00 AM 7.34 45.212 0.234 6.54 3.85 10.5
3/19/2021 7:30:00 AM 7.28 45.104 0.232 6.53 4.87 10.53
3/19/2021 7:45:00 AM 7.25 45.05 0.23 6.53 7.08 10.56
3/19/2021 8:00:00 AM 7.22 44.996 0.228 6.52 7.83 10.58
3/19/2021 8:15:00 AM 7.17 44.906 0.227 6.52 4.92 10.63
3/19/2021 8:30:00 AM 7.15 44.87 0.226 6.52 3.26 10.7
3/19/2021 8:45:00 AM 7.11 44.798 0.225 6.51 5.25 10.75
3/19/2021 9:00:00 AM 7.08 44.744 0.226 6.5 3.57 10.8
3/19/2021 9:15:00 AM 7.07 44.726 0.226 6.51 5.77 10.84
3/19/2021 9:30:00 AM 7.1 44.78 0.226 6.51 4.87 10.93
3/19/2021 9:45:00 AM 7.1 44.78 0.224 6.51 5.46 11.01
3/19/2021 10:00:00 AM 7.11 44.798 0.223 6.52 1.42 11.11
3/19/2021 10:15:00 AM 7.12 44.816 0.221 6.54 3.56 11.2
3/19/2021 10:30:00 AM 7.13 44.834 0.22 6.55 2.51 11.27
3/19/2021 10:45:00 AM 7.17 44.906 0.219 6.56 3.6 11.37
3/19/2021 11:00:00 AM 7.21 44.978 0.218 6.58 3.72 11.45
3/19/2021 11:15:00 AM 7.24 45.032 0.217 6.6 1.7 11.57
3/19/2021 11:30:00 AM 7.3 45.14 0.216 6.61 2.28 11.63
3/19/2021 11:45:00 AM 7.36 45.248 0.216 6.63 0.64 11.71
3/19/2021 12:00:00 PM 7.41 45.338 0.216 6.65 1.74 11.78
3/19/2021 12:15:00 PM 7.48 45.464 0.216 6.65 13.76 11.82
3/19/2021 12:30:00 PM 7.57 45.626 0.215 6.68 2.2 11.9
3/19/2021 12:45:00 PM 7.64 45.752 0.214 6.71 1.69 11.95
3/19/2021 1:00:00 PM 7.74 45.932 0.213 6.72 1.72 12.02
3/19/2021 1:15:00 PM 7.82 46.076 0.212 6.75 1.52 12.04
3/19/2021 1:30:00 PM 7.9 46.22 0.211 6.78 1.81 12.14
3/19/2021 1:45:00 PM 7.98 46.364 0.21 6.8 1.27 12.19
3/19/2021 2:00:00 PM 8.05 46.49 0.209 6.82 2.56 12.24
3/19/2021 2:15:00 PM 8.12 46.616 0.208 6.84 1.64 12.27
3/19/2021 2:30:00 PM 8.21 46.778 0.208 6.86 3.35 12.3
3/19/2021 2:45:00 PM 8.27 46.886 0.208 6.88 3.84 12.34
3/19/2021 3:00:00 PM 8.34 47.012 0.208 6.9 4.32 12.36
3/19/2021 3:15:00 PM 8.41 47.138 0.208 6.92 1.16 12.39
3/19/2021 3:30:00 PM 8.47 47.246 0.208 6.95 1.05 12.42
3/19/2021 3:45:00 PM 8.53 47.354 0.208 6.96 1.75 12.43
3/19/2021 4:00:00 PM 8.58 47.444 0.208 6.97 0.97 12.44
3/19/2021 4:15:00 PM 8.63 47.534 0.207 6.99 0.7 12.45
3/19/2021 4:30:00 PM 8.67 47.606 0.206 7 0.22 12.44
3/19/2021 4:45:00 PM 8.69 47.642 0.206 7.03 0.29 12.41
3/19/2021 5:00:00 PM 8.71 47.678 0.206 7.04 0.88 12.42
3/19/2021 5:15:00 PM 8.72 47.696 0.205 7.04 4.08 12.36
3/19/2021 5:30:00 PM 8.72 47.696 0.205 7.05 3.67 12.35
3/19/2021 5:45:00 PM 8.71 47.678 0.205 7.06 1.05 12.32
3/19/2021 6:00:00 PM 8.72 47.696 0.206 7.06 0.2 12.27
3/19/2021 6:15:00 PM 8.7 47.66 0.207 7.06 2.96 12.25
3/19/2021 6:30:00 PM 8.7 47.66 0.21 7.05 0.19 12.17
3/19/2021 6:45:00 PM 8.68 47.624 0.211 7.03 1.34 12.1
3/19/2021 7:00:00 PM 8.65 47.57 0.212 7.03 0.27 12.03
3/19/2021 7:15:00 PM 8.62 47.516 0.211 7.02 0.5 11.95
3/19/2021 7:30:00 PM 8.59 47.462 0.21 7.01 -0.06 11.83
3/19/2021 7:45:00 PM 8.55 47.39 0.209 6.99 2.87 11.75
3/19/2021 8:00:00 PM 8.52 47.336 0.207 6.97 1.63 11.68
3/19/2021 8:15:00 PM 8.49 47.282 0.207 6.96 0.24 11.6
3/19/2021 8:30:00 PM 8.46 47.228 0.206 6.95 0.44 11.54
3/19/2021 8:45:00 PM 8.42 47.156 0.206 6.92 4.18 11.45
3/19/2021 9:00:00 PM 8.39 47.102 0.206 6.89 0.32 11.4
3/19/2021 9:15:00 PM 8.35 47.03 0.207 6.89 3.02 11.33
3/19/2021 9:30:00 PM 8.33 46.994 0.21 6.85 1.93 11.29
3/19/2021 9:45:00 PM 8.3 46.94 0.212 6.81 2.57 11.2
3/19/2021 10:00:00 PM 8.26 46.868 0.214 6.8 1.46 11.15
3/19/2021 10:15:00 PM 8.22 46.796 0.214 6.78 -0.06 11.11
3/19/2021 10:30:00 PM 8.17 46.706 0.214 6.75 0.89 11.08
3/19/2021 10:45:00 PM 8.14 46.652 0.212 6.74 2 11.05
3/19/2021 11:00:00 PM 8.08 46.544 0.212 6.73 1.16 11.01
3/19/2021 11:15:00 PM 8.05 46.49 0.21 6.72 4.23 11
3/19/2021 11:30:00 PM 8 46.4 0.21 6.71 0.15 10.98
3/19/2021 11:45:00 PM 7.95 46.31 0.21 6.69 4.85 10.97
3/20/2021 12:00:00 AM 7.9 46.22 0.21 6.68 0.34 10.95
3/20/2021 12:15:00 AM 7.83 46.094 0.21 6.67 1.23 10.94
3/20/2021 12:30:00 AM 7.78 46.004 0.212 6.65 0.32 10.93
3/20/2021 12:45:00 AM 7.71 45.878 0.214 6.63 3.54 10.91
3/20/2021 1:00:00 AM 7.64 45.752 0.216 6.61 0.14 10.88
3/20/2021 1:15:00 AM 7.58 45.644 0.217 6.6 1.31 10.88
3/20/2021 1:30:00 AM 7.51 45.518 0.217 6.58 0.97 10.87
3/20/2021 1:45:00 AM 7.45 45.41 0.217 6.57 0.12 10.9
3/20/2021 2:00:00 AM 7.38 45.284 0.216 6.56 -0.01 10.89
3/20/2021 2:15:00 AM 7.31 45.158 0.215 6.55 0.98 10.91
3/20/2021 2:30:00 AM 7.25 45.05 0.215 6.55 -0.21 10.9
3/20/2021 2:45:00 AM 7.18 44.924 0.215 6.55 0.06 10.91
3/20/2021 3:00:00 AM 7.12 44.816 0.215 6.53 -0.31 10.9
3/20/2021 3:15:00 AM 7.05 44.69 0.215 6.53 0.33 10.9
3/20/2021 3:30:00 AM 6.99 44.582 0.216 6.52 0.85 10.91
3/20/2021 3:45:00 AM 6.94 44.492 0.219 6.49 1.43 10.89
3/20/2021 4:00:00 AM 6.89 44.402 0.22 6.47 1.43 10.91
3/20/2021 4:15:00 AM 6.83 44.294 0.222 6.47 -0.24 10.88
3/20/2021 4:30:00 AM 6.78 44.204 0.223 6.45 2.09 10.91
3/20/2021 4:45:00 AM 6.72 44.096 0.223 6.45 1.12 10.93
3/20/2021 5:00:00 AM 6.67 44.006 0.222 6.45 1.61 10.94
3/20/2021 5:15:00 AM 6.62 43.916 0.222 6.45 0.08 10.94
3/20/2021 5:30:00 AM 6.57 43.826 0.222 6.44 1.99 10.94
3/20/2021 5:45:00 AM 6.51 43.718 0.221 6.44 1.39 10.95
3/20/2021 6:00:00 AM 6.47 43.646 0.221 6.43 0.89 10.97
3/20/2021 6:15:00 AM 6.42 43.556 0.221 6.42 0.41 10.97
3/20/2021 6:30:00 AM 6.37 43.466 0.222 6.41 4.63 11
3/20/2021 6:45:00 AM 6.34 43.412 0.224 6.4 -0.23 10.99
3/20/2021 7:00:00 AM 6.29 43.322 0.226 6.39 1.9 10.98
3/20/2021 7:15:00 AM 6.26 43.268 0.228 6.38 1.42 11
3/20/2021 7:30:00 AM 6.23 43.214 0.229 6.38 0.98 10.99
3/20/2021 7:45:00 AM 6.19 43.142 0.229 6.38 -0.13 11.03
3/20/2021 8:00:00 AM 6.16 43.088 0.229 6.38 0.07 11.06
3/20/2021 8:15:00 AM 6.13 43.034 0.228 6.37 0.93 11.1
3/20/2021 8:30:00 AM 6.11 42.998 0.227 6.37 1.9 11.18
3/20/2021 8:45:00 AM 6.11 42.998 0.226 6.38 -0.41 11.25
3/20/2021 9:00:00 AM 6.13 43.034 0.226 6.38 -0.02 11.32
3/20/2021 9:15:00 AM 6.17 43.106 0.226 6.38 0.33 11.43
3/20/2021 9:30:00 AM 6.23 43.214 0.226 6.39 -0.14 11.52
3/20/2021 9:45:00 AM 6.29 43.322 0.227 6.38 -1.19 11.63
3/20/2021 10:00:00 AM 6.35 43.43 0.229 6.42 -0.44 11.69
3/20/2021 10:15:00 AM 6.42 43.556 0.23 6.44 0.24 11.78
3/20/2021 10:30:00 AM 6.5 43.7 0.231 6.46 0.48 11.89
3/20/2021 10:45:00 AM 6.58 43.844 0.231 6.47 0.07 11.95
3/20/2021 11:00:00 AM 6.67 44.006 0.231 6.5 -0.76 12.05
3/20/2021 11:15:00 AM 6.78 44.204 0.23 6.51 -0.04 12.15
3/20/2021 11:30:00 AM 6.89 44.402 0.23 6.53 -0.45 12.2
3/20/2021 11:45:00 AM 7 44.6 0.229 6.56 -0.45 12.3
3/20/2021 12:00:00 PM 7.13 44.834 0.229 6.58 0.27 12.36
3/20/2021 12:15:00 PM 7.26 45.068 0.229 6.61 0.14 12.43
3/20/2021 12:30:00 PM 7.37 45.266 0.229 6.65 -0.84 12.48
3/20/2021 12:45:00 PM 7.5 45.5 0.229 6.67 1.6 12.52
3/20/2021 1:00:00 PM 7.64 45.752 0.23 6.7 -1.6 12.58
3/20/2021 1:15:00 PM 7.77 45.986 0.231 6.72 -0.86 12.6
3/20/2021 1:30:00 PM 7.91 46.238 0.232 6.76 -0.86 12.69
3/20/2021 1:45:00 PM 8.03 46.454 0.233 6.79 -0.45 12.72
3/20/2021 2:00:00 PM 8.16 46.688 0.233 6.83 -1.26 12.76
3/20/2021 2:15:00 PM 8.27 46.886 0.232 6.86 -0.26 12.79
3/20/2021 2:30:00 PM 8.39 47.102 0.232 6.88 -0.97 12.8
3/20/2021 2:45:00 PM 8.51 47.318 0.232 6.91 -0.23 12.84
3/20/2021 3:00:00 PM 8.61 47.498 0.232 6.9 -1.09 12.87
3/20/2021 3:15:00 PM 8.72 47.696 0.232 6.92 -0.3 12.88
3/20/2021 3:30:00 PM 8.82 47.876 0.232 6.95 -0.93 12.88
3/20/2021 3:45:00 PM 8.91 48.038 0.232 6.95 -0.85 12.87
3/20/2021 4:00:00 PM 9 48.2 0.233 6.98 -1.26 12.88
3/20/2021 4:15:00 PM 9.07 48.326 0.234 6.99 -0.75 12.87
3/20/2021 4:30:00 PM 9.14 48.452 0.235 6.98 -0.48 12.84
3/20/2021 4:45:00 PM 9.2 48.56 0.235 7.02 -1.24 12.84
3/20/2021 5:00:00 PM 9.26 48.668 0.235 7.04 1.03 12.82
3/20/2021 5:15:00 PM 9.29 48.722 0.235 7.06 0.51 12.76
3/20/2021 5:30:00 PM 9.33 48.794 0.235 7.08 0.67 12.71
3/20/2021 5:45:00 PM 9.35 48.83 0.234 7.11 -0.77 12.67
3/20/2021 6:00:00 PM 9.36 48.848 0.234 7.11 0.67 12.59
3/20/2021 6:15:00 PM 9.38 48.884 0.234 7.11 -0.56 12.52
3/20/2021 6:30:00 PM 9.38 48.884 0.234 7.12 0.03 12.46
3/20/2021 6:45:00 PM 9.39 48.902 0.235 7.11 -0.64 12.36
3/20/2021 7:00:00 PM 9.39 48.902 0.236 7.1 0.38 12.24
3/20/2021 7:15:00 PM 9.38 48.884 0.238 7.09 -0.54 12.15
3/20/2021 7:30:00 PM 9.35 48.83 0.239 7.07 -0.6 12.04
3/20/2021 7:45:00 PM 9.33 48.794 0.241 7.07 -0.54 11.9
3/20/2021 8:00:00 PM 9.32 48.776 0.24 7.07 -1.54 11.78
3/20/2021 8:15:00 PM 9.29 48.722 0.24 7.05 0.45 11.68
3/20/2021 8:30:00 PM 9.26 48.668 0.24 7.04 -0.91 11.53
3/20/2021 8:45:00 PM 9.23 48.614 0.239 7.01 -0.81 11.48
3/20/2021 9:00:00 PM 9.2 48.56 0.238 7 -0.66 11.39
3/20/2021 9:15:00 PM 9.17 48.506 0.238 6.98 -0.91 11.32
3/20/2021 9:30:00 PM 9.14 48.452 0.238 6.97 -1.76 11.23
3/20/2021 9:45:00 PM 9.1 48.38 0.239 6.95 -1.9 11.14
3/20/2021 10:00:00 PM 9.07 48.326 0.24 6.92 -0.12 11.07
3/20/2021 10:15:00 PM 9.05 48.29 0.242 6.9 0.18 10.97
3/20/2021 10:30:00 PM 9.01 48.218 0.244 6.88 -0.81 10.91
3/20/2021 10:45:00 PM 8.99 48.182 0.246 6.86 -1.43 10.87
3/20/2021 11:00:00 PM 8.94 48.092 0.247 6.83 -1.21 10.82
3/20/2021 11:15:00 PM 8.92 48.056 0.246 6.81 0.41 10.76
3/20/2021 11:30:00 PM 8.88 47.984 0.246 6.79 0.51 10.74
3/20/2021 11:45:00 PM 8.84 47.912 0.244 6.79 -0.9 10.73
3/21/2021 12:00:00 AM 8.78 47.804 0.243 6.75 -0.73 10.67
3/21/2021 12:15:00 AM 8.72 47.696 0.243 6.74 -0.98 10.66
3/21/2021 12:30:00 AM 8.68 47.624 0.242 6.74 0.39 10.65
3/21/2021 12:45:00 AM 8.62 47.516 0.243 6.74 -1.76 10.62
3/21/2021 1:00:00 AM 8.56 47.408 0.243 6.73 -1.24 10.62
3/21/2021 1:15:00 AM 8.5 47.3 0.245 6.72 -1.16 10.59
3/21/2021 1:30:00 AM 8.43 47.174 0.247 6.7 0.1 10.58
3/21/2021 1:45:00 AM 8.37 47.066 0.249 6.68 0.18 10.57
3/21/2021 2:00:00 AM 8.3 46.94 0.249 6.66 -1.31 10.55
3/21/2021 2:15:00 AM 8.23 46.814 0.249 6.66 -0.66 10.55
3/21/2021 2:30:00 AM 8.15 46.67 0.249 6.64 -0.76 10.55
3/21/2021 2:45:00 AM 8.08 46.544 0.248 6.63 -0.81 10.57
3/21/2021 3:00:00 AM 7.99 46.382 0.247 6.62 0 10.57
3/21/2021 3:15:00 AM 7.92 46.256 0.246 6.61 0.04 10.61
3/21/2021 3:30:00 AM 7.84 46.112 0.246 6.6 -1.08 10.61
3/21/2021 3:45:00 AM 7.76 45.968 0.246 6.58 -1.72 10.6
3/21/2021 4:00:00 AM 7.68 45.824 0.246 6.56 -0.24 10.62
3/21/2021 4:15:00 AM 7.61 45.698 0.248 6.54 0.02 10.63
3/21/2021 4:30:00 AM 7.54 45.572 0.249 6.54 -0.97 10.63
3/21/2021 4:45:00 AM 7.47 45.446 0.251 6.52 5.39 10.63
3/21/2021 5:00:00 AM 7.4 45.32 0.251 6.51 -0.52 10.62
3/21/2021 5:15:00 AM 7.33 45.194 0.251 6.5 -0.1 10.65
3/21/2021 5:30:00 AM 7.26 45.068 0.25 6.5 -0.3 10.64
3/21/2021 5:45:00 AM 7.19 44.942 0.249 6.48 -0.9 10.67
3/21/2021 6:00:00 AM 7.12 44.816 0.249 6.48 -0.63 10.69
3/21/2021 6:15:00 AM 7.05 44.69 0.248 6.47 -1.24 10.71
3/21/2021 6:30:00 AM 6.99 44.582 0.247 6.46 -0.55 10.73
3/21/2021 6:45:00 AM 6.94 44.492 0.247 6.46 -1.76 10.73
3/21/2021 7:00:00 AM 6.88 44.384 0.248 6.44 -0.49 10.74
3/21/2021 7:15:00 AM 6.83 44.294 0.248 6.44 -1.54 10.76
3/21/2021 7:30:00 AM 6.79 44.222 0.25 6.43 -1.45 10.77
3/21/2021 7:45:00 AM 6.74 44.132 0.251 6.42 -1.31 10.78
3/21/2021 8:00:00 AM 6.71 44.078 0.252 6.43 -0.65 10.84
3/21/2021 8:15:00 AM 6.68 44.024 0.252 6.42 -0.67 10.89
3/21/2021 8:30:00 AM 6.67 44.006 0.251 6.42 -1.14 10.94
3/21/2021 8:45:00 AM 6.67 44.006 0.25 6.42 -1.33 11.02
3/21/2021 9:00:00 AM 6.69 44.042 0.249 6.42 -0.37 11.12
3/21/2021 9:15:00 AM 6.75 44.15 0.248 6.42 -0.38 11.23
3/21/2021 9:30:00 AM 6.82 44.276 0.247 6.43 -0.85 11.35
3/21/2021 9:45:00 AM 6.9 44.42 0.246 6.45 0.08 11.46
3/21/2021 10:00:00 AM 6.97 44.546 0.247 6.47 -0.42 11.55
3/21/2021 10:15:00 AM 7.06 44.708 0.247 6.48 -1.41 11.64
3/21/2021 10:30:00 AM 7.17 44.906 0.248 6.49 -0.64 11.72
3/21/2021 10:45:00 AM 7.28 45.104 0.249 6.53 -0.35 11.81
3/21/2021 11:00:00 AM 7.41 45.338 0.249 6.56 -0.99 11.91
3/21/2021 11:15:00 AM 7.54 45.572 0.249 6.58 -0.95 11.98
3/21/2021 11:30:00 AM 7.67 45.806 0.248 6.61 -1.4 12.06
3/21/2021 11:45:00 AM 7.82 46.076 0.247 6.63 -1.62 12.16
3/21/2021 12:00:00 PM 7.94 46.292 0.246 6.67 -0.85 12.24
3/21/2021 12:15:00 PM 8.11 46.598 0.246 6.71 -0.7 12.29
3/21/2021 12:30:00 PM 8.25 46.85 0.246 6.75 -0.01 12.36
3/21/2021 12:45:00 PM 8.41 47.138 0.245 6.77 -1.69 12.42
3/21/2021 1:00:00 PM 8.56 47.408 0.246 6.81 -1.55 12.47
3/21/2021 1:15:00 PM 8.72 47.696 0.247 6.83 -1.12 12.5
3/21/2021 1:30:00 PM 8.86 47.948 0.247 6.87 -1.2 12.56
3/21/2021 1:45:00 PM 9.01 48.218 0.248 6.91 -1.64 12.6
3/21/2021 2:00:00 PM 9.16 48.488 0.249 6.94 -1.49 12.65
3/21/2021 2:15:00 PM 9.29 48.722 0.249 6.98 -1.78 12.66
3/21/2021 2:30:00 PM 9.42 48.956 0.249 7.01 -2.05 12.7
3/21/2021 2:45:00 PM 9.55 49.19 0.25 7.03 -0.94 12.73
3/21/2021 3:00:00 PM 9.67 49.406 0.249 7.07 -1.52 12.74
3/21/2021 3:15:00 PM 9.78 49.604 0.249 7.11 0.02 12.77
3/21/2021 3:30:00 PM 9.87 49.766 0.249 7.13 -1.21 12.77
3/21/2021 3:45:00 PM 9.96 49.928 0.249 7.13 -1.37 12.78
3/21/2021 4:00:00 PM 10.05 50.09 0.249 7.15 -1.5 12.76
3/21/2021 4:15:00 PM 10.13 50.234 0.25 7.19 -1.82 12.75
3/21/2021 4:30:00 PM 10.2 50.36 0.25 7.21 -1.89 12.74
3/21/2021 4:45:00 PM 10.28 50.504 0.25 7.24 -1.56 12.73
3/21/2021 5:00:00 PM 10.33 50.594 0.251 7.26 -1.3 12.68
3/21/2021 5:15:00 PM 10.38 50.684 0.25 7.28 -1.4 12.64
3/21/2021 5:30:00 PM 10.41 50.738 0.25 7.28 -1.64 12.56
3/21/2021 5:45:00 PM 10.44 50.792 0.25 7.28 1.76 12.52
3/21/2021 6:00:00 PM 10.46 50.828 0.249 7.29 -1.1 12.46
3/21/2021 6:15:00 PM 10.47 50.846 0.249 7.3 -0.7 12.38
3/21/2021 6:30:00 PM 10.47 50.846 0.248 7.31 -1.9 12.28
3/21/2021 6:45:00 PM 10.47 50.846 0.249 7.31 -1.36 12.18
3/21/2021 7:00:00 PM 10.47 50.846 0.249 7.3 -1.71 12.07
3/21/2021 7:15:00 PM 10.46 50.828 0.25 7.28 -1.16 11.94
3/21/2021 7:30:00 PM 10.44 50.792 0.251 7.26 -1.4 11.81
3/21/2021 7:45:00 PM 10.42 50.756 0.252 7.24 -0.83 11.65
3/21/2021 8:00:00 PM 10.4 50.72 0.253 7.22 -1.8 11.54
3/21/2021 8:15:00 PM 10.38 50.684 0.253 7.19 -1.39 11.41
3/21/2021 8:30:00 PM 10.37 50.666 0.252 7.17 -1.31 11.3
3/21/2021 8:45:00 PM 10.35 50.63 0.252 7.16 -1.23 11.19
3/21/2021 9:00:00 PM 10.31 50.558 0.251 7.13 -0.95 11.05
3/21/2021 9:15:00 PM 10.29 50.522 0.25 7.11 -0.22 10.99
3/21/2021 9:30:00 PM 10.26 50.468 0.25 7.09 -1.68 10.89
3/21/2021 9:45:00 PM 10.23 50.414 0.25 7.07 -0.42 10.79
3/21/2021 10:00:00 PM 10.2 50.36 0.25 7.04 6.08 10.71
3/21/2021 10:15:00 PM 10.19 50.342 0.252 7.02 -1.41 10.62
3/21/2021 10:30:00 PM 10.16 50.288 0.254 6.99 -0.64 10.54
3/21/2021 10:45:00 PM 10.12 50.216 0.256 6.96 -0.79 10.47
3/21/2021 11:00:00 PM 10.1 50.18 0.257 6.94 -0.97 10.42
3/21/2021 11:15:00 PM 10.08 50.144 0.258 6.92 -1.67 10.35
3/21/2021 11:30:00 PM 10.03 50.054 0.258 6.9 -0.6 10.33
3/21/2021 11:45:00 PM 10 50 0.256 6.89 -1.49 10.28
3/22/2021 12:00:00 AM 9.95 49.91 0.256 6.87 1.16 10.25
3/22/2021 12:15:00 AM 9.9 49.82 0.255 6.87 -1.36 10.25
3/22/2021 12:30:00 AM 9.85 49.73 0.254 6.85 1.8 10.21
3/22/2021 12:45:00 AM 9.8 49.64 0.253 6.84 -0.58 10.19
3/22/2021 1:00:00 AM 9.74 49.532 0.253 6.83 -1.73 10.18
3/22/2021 1:15:00 AM 9.67 49.406 0.255 6.81 -0.76 10.14
3/22/2021 1:30:00 AM 9.6 49.28 0.256 6.79 -0.24 10.13
3/22/2021 1:45:00 AM 9.54 49.172 0.258 6.77 2.96 10.1
3/22/2021 2:00:00 AM 9.47 49.046 0.259 6.74 -0.85 10.13
3/22/2021 2:15:00 AM 9.39 48.902 0.26 6.72 -1.48 10.12
3/22/2021 2:30:00 AM 9.32 48.776 0.259 6.72 0.05 10.12
3/22/2021 2:45:00 AM 9.24 48.632 0.259 6.7 -0.87 10.12
3/22/2021 3:00:00 AM 9.15 48.47 0.258 6.69 -1.14 10.12
3/22/2021 3:15:00 AM 9.07 48.326 0.257 6.68 0.31 10.14
3/22/2021 3:30:00 AM 8.99 48.182 0.256 6.66 -1.83 10.15
3/22/2021 3:45:00 AM 8.91 48.038 0.255 6.65 -0.06 10.17
3/22/2021 4:00:00 AM 8.82 47.876 0.256 6.64 -0.6 10.16
3/22/2021 4:15:00 AM 8.75 47.75 0.256 6.63 -1.2 10.17
3/22/2021 4:30:00 AM 8.67 47.606 0.258 6.61 -0.73 10.17
3/22/2021 4:45:00 AM 8.59 47.462 0.259 6.59 1.5 10.18
3/22/2021 5:00:00 AM 8.5 47.3 0.26 6.58 0.42 10.19
3/22/2021 5:15:00 AM 8.43 47.174 0.26 6.57 0.78 10.2
3/22/2021 5:30:00 AM 8.36 47.048 0.259 6.56 -0.66 10.22
3/22/2021 5:45:00 AM 8.27 46.886 0.259 6.55 -0.67 10.23
3/22/2021 6:00:00 AM 8.19 46.742 0.257 6.53 0.95 10.26
3/22/2021 6:15:00 AM 8.13 46.634 0.257 6.53 -1.67 10.26
3/22/2021 6:30:00 AM 8.06 46.508 0.256 6.52 -1.97 10.28
3/22/2021 6:45:00 AM 7.98 46.364 0.256 6.5 -0.6 10.3
3/22/2021 7:00:00 AM 7.91 46.238 0.256 6.49 -1.38 10.33
3/22/2021 7:15:00 AM 7.86 46.148 0.256 6.47 -0.91 10.33
3/22/2021 7:30:00 AM 7.8 46.04 0.258 6.47 -1.42 10.35
3/22/2021 7:45:00 AM 7.76 45.968 0.26 6.45 -1.14 10.38
3/22/2021 8:00:00 AM 7.72 45.896 0.261 6.45 -0.3 10.41
3/22/2021 8:15:00 AM 7.68 45.824 0.261 6.45 -0.14 10.47
3/22/2021 8:30:00 AM 7.67 45.806 0.26 6.45 0.65 10.54
3/22/2021 8:45:00 AM 7.67 45.806 0.259 6.45 -1.13 10.62
3/22/2021 9:00:00 AM 7.69 45.842 0.258 6.44 -0.66 10.73
3/22/2021 9:15:00 AM 7.74 45.932 0.257 6.45 -1.37 10.86
3/22/2021 9:30:00 AM 7.82 46.076 0.256 6.47 -0.42 10.98
3/22/2021 9:45:00 AM 7.89 46.202 0.256 6.48 -1.26 11.11
3/22/2021 10:00:00 AM 7.96 46.328 0.255 6.51 -1.67 11.24
3/22/2021 10:15:00 AM 8.06 46.508 0.255 6.53 -1.45 11.33
3/22/2021 10:30:00 AM 8.14 46.652 0.256 6.54 -1.14 11.45
3/22/2021 10:45:00 AM 8.25 46.85 0.257 6.56 -2.08 11.52
3/22/2021 11:00:00 AM 8.39 47.102 0.257 6.59 -1.21 11.64
3/22/2021 11:15:00 AM 8.49 47.282 0.257 6.63 0.26 11.73
3/22/2021 11:30:00 AM 8.63 47.534 0.256 6.67 -1.49 11.83
3/22/2021 11:45:00 AM 8.77 47.786 0.256 6.7 -1.61 11.93
3/22/2021 12:00:00 PM 8.91 48.038 0.256 6.74 -0.92 12.01
3/22/2021 12:15:00 PM 9.06 48.308 0.255 6.78 -1.07 12.07
3/22/2021 12:30:00 PM 9.21 48.578 0.254 6.83 -1.97 12.17
3/22/2021 12:45:00 PM 9.36 48.848 0.254 6.87 -1.71 12.22
3/22/2021 1:00:00 PM 9.51 49.118 0.253 6.91 -1.39 12.28
3/22/2021 1:15:00 PM 9.66 49.388 0.254 6.95 -0.45 12.34
3/22/2021 1:30:00 PM 9.8 49.64 0.254 6.99 -1.12 12.39
3/22/2021 1:45:00 PM 9.95 49.91 0.254 6.98 -0.65 12.42
3/22/2021 2:00:00 PM 10.09 50.162 0.254 7.06 -1.84 12.48
3/22/2021 2:15:00 PM 10.21 50.378 0.255 7.09 -1.88 12.52
3/22/2021 2:30:00 PM 10.34 50.612 0.255 7.12 -0.2 12.54
3/22/2021 2:45:00 PM 10.47 50.846 0.254 7.15 -1.78 12.58
3/22/2021 3:00:00 PM 10.58 51.044 0.254 7.18 -1.61 12.61
3/22/2021 3:15:00 PM 10.69 51.242 0.253 7.21 -1.47 12.62
3/22/2021 3:30:00 PM 10.78 51.404 0.253 7.24 -1.6 12.64
3/22/2021 3:45:00 PM 10.87 51.566 0.252 7.27 -0.42 12.63
3/22/2021 4:00:00 PM 10.95 51.71 0.252 7.3 -1.45 12.65
3/22/2021 4:15:00 PM 11.02 51.836 0.252 7.33 -1.85 12.65
3/22/2021 4:30:00 PM 11.09 51.962 0.252 7.34 0.71 12.6
3/22/2021 4:45:00 PM 11.15 52.07 0.252 7.37 -1.73 12.61
3/22/2021 5:00:00 PM 11.19 52.142 0.253 7.38 -1.47 12.53
3/22/2021 5:15:00 PM 11.23 52.214 0.252 7.39 -0.64 12.51
3/22/2021 5:30:00 PM 11.26 52.268 0.252 7.4 -1.62 12.45
3/22/2021 5:45:00 PM 11.28 52.304 0.252 7.4 -1.67 12.38
3/22/2021 6:00:00 PM 11.29 52.322 0.252 7.41 -1 12.33
3/22/2021 6:15:00 PM 11.3 52.34 0.251 7.41 -1.1 12.21
3/22/2021 6:30:00 PM 11.29 52.322 0.251 7.41 -1.55 12.13
3/22/2021 6:45:00 PM 11.29 52.322 0.251 7.4 -0.23 12
3/22/2021 7:00:00 PM 11.28 52.304 0.252 7.39 0.78 11.91
3/22/2021 7:15:00 PM 11.26 52.268 0.253 7.38 -1.25 11.78
3/22/2021 7:30:00 PM 11.24 52.232 0.255 7.36 -1.01 11.65
3/22/2021 7:45:00 PM 11.21 52.178 0.257 7.34 -1.32 11.5
3/22/2021 8:00:00 PM 11.19 52.142 0.259 7.31 -0.15 11.33
3/22/2021 8:15:00 PM 11.17 52.106 0.26 7.13 -1.2 11.21
3/22/2021 8:30:00 PM 11.14 52.052 0.26 7.23 0.16 11.07
3/22/2021 8:45:00 PM 11.11 51.998 0.259 7.22 0.52 10.94
3/22/2021 9:00:00 PM 11.07 51.926 0.258 7.2 1.73 10.84
3/22/2021 9:15:00 PM 11.05 51.89 0.257 7.18 -1.08 10.75
3/22/2021 9:30:00 PM 11.01 51.818 0.256 7.16 -0.49 10.64
3/22/2021 9:45:00 PM 10.99 51.782 0.255 7.14 -1.49 10.54
3/22/2021 10:00:00 PM 10.95 51.71 0.255 7.11 -0.94 10.43
3/22/2021 10:15:00 PM 10.92 51.656 0.256 7.09 -0.37 10.32
3/22/2021 10:30:00 PM 10.9 51.62 0.257 7.07 15.91 10.26
3/22/2021 10:45:00 PM 10.86 51.548 0.258 7.05 8.42 10.2
3/22/2021 11:00:00 PM 10.84 51.512 0.259 7.02 7.82 10.14
3/22/2021 11:15:00 PM 10.81 51.458 0.26 7 3.1 10.07
3/22/2021 11:30:00 PM 10.77 51.386 0.259 6.97 4.72 10.03
3/22/2021 11:45:00 PM 10.73 51.314 0.259 6.97 3.6 9.99
3/23/2021 12:00:00 AM 10.68 51.224 0.258 6.95 3.96 9.94
3/23/2021 12:15:00 AM 10.64 51.152 0.257 6.94 1.02 9.93
3/23/2021 12:30:00 AM 10.58 51.044 0.257 6.93 1.56 9.91
3/23/2021 12:45:00 AM 10.52 50.936 0.256 6.91 1.85 9.88
3/23/2021 1:00:00 AM 10.48 50.864 0.255 6.9 0.18 9.85
3/23/2021 1:15:00 AM 10.41 50.738 0.256 6.88 0.54 9.84
3/23/2021 1:30:00 AM 10.34 50.612 0.257 6.86 1.76 9.82
3/23/2021 1:45:00 AM 10.28 50.504 0.258 6.84 0.31 9.8
3/23/2021 2:00:00 AM 10.21 50.378 0.259 6.82 -0.34 9.8
3/23/2021 2:15:00 AM 10.14 50.252 0.259 6.81 0.99 9.79
3/23/2021 2:30:00 AM 10.06 50.108 0.259 6.79 -0.09 9.79
3/23/2021 2:45:00 AM 9.98 49.964 0.259 6.78 -0.09 9.78
3/23/2021 3:00:00 AM 9.9 49.82 0.258 6.76 -0.13 9.8
3/23/2021 3:15:00 AM 9.82 49.676 0.257 6.74 0.63 9.8
3/23/2021 3:30:00 AM 9.74 49.532 0.257 6.73 -0.01 9.79
3/23/2021 3:45:00 AM 9.66 49.388 0.256 6.72 -0.96 9.8
3/23/2021 4:00:00 AM 9.58 49.244 0.256 6.7 -0.95 9.8
3/23/2021 4:15:00 AM 9.49 49.082 0.257 6.68 0 9.84
3/23/2021 4:30:00 AM 9.41 48.938 0.257 6.66 -0.48 9.85
3/23/2021 4:45:00 AM 9.34 48.812 0.259 6.64 -1.17 9.84
3/23/2021 5:00:00 AM 9.26 48.668 0.26 6.62 -0.36 9.85
3/23/2021 5:15:00 AM 9.17 48.506 0.26 6.61 5.45 9.86
3/23/2021 5:30:00 AM 9.1 48.38 0.26 6.59 1.65 9.85
3/23/2021 5:45:00 AM 9.04 48.272 0.259 6.58 -1.08 9.87
3/23/2021 6:00:00 AM 8.95 48.11 0.259 6.56 -0.13 9.88
3/23/2021 6:15:00 AM 8.88 47.984 0.258 6.56 -0.03 9.9
3/23/2021 6:30:00 AM 8.8 47.84 0.257 6.55 0.89 9.91
3/23/2021 6:45:00 AM 8.73 47.714 0.257 6.53 0.61 9.96
3/23/2021 7:00:00 AM 8.67 47.606 0.256 6.52 -0.4 9.98
3/23/2021 7:15:00 AM 8.61 47.498 0.257 6.52 -1.12 10
3/23/2021 7:30:00 AM 8.56 47.408 0.258 6.51 -1.82 10.02
3/23/2021 7:45:00 AM 8.51 47.318 0.26 6.5 -0.68 10.06
3/23/2021 8:00:00 AM 8.48 47.264 0.261 6.49 -0.87 10.1
3/23/2021 8:15:00 AM 8.46 47.228 0.261 6.5 -1.66 10.16
3/23/2021 8:30:00 AM 8.45 47.21 0.261 6.5 -0.66 10.26
3/23/2021 8:45:00 AM 8.45 47.21 0.261 6.5 -0.79 10.36
3/23/2021 9:00:00 AM 8.46 47.228 0.26 6.51 -0.61 10.49
3/23/2021 9:15:00 AM 8.5 47.3 0.258 6.53 -1.53 10.62
3/23/2021 9:30:00 AM 8.57 47.426 0.258 6.55 -0.43 10.74
3/23/2021 9:45:00 AM 8.62 47.516 0.257 6.58 -0.18 10.88
3/23/2021 10:00:00 AM 8.71 47.678 0.256 6.61 -0.79 11.01
3/23/2021 10:15:00 AM 8.79 47.822 0.256 6.63 0.71 11.15
3/23/2021 10:30:00 AM 8.88 47.984 0.257 6.66 -0.95 11.29
3/23/2021 10:45:00 AM 8.98 48.164 0.257 6.69 -0.67 11.41
3/23/2021 11:00:00 AM 9.08 48.344 0.258 6.72 -1.02 11.52
3/23/2021 11:15:00 AM 9.2 48.56 0.258 6.75 -1.8 11.63
3/23/2021 11:30:00 AM 9.34 48.812 0.257 6.78 -0.38 11.73
3/23/2021 11:45:00 AM 9.49 49.082 0.257 6.82 -1.91 11.85
3/23/2021 12:00:00 PM 9.63 49.334 0.256 6.86 0.1 11.94
3/23/2021 12:15:00 PM 9.76 49.568 0.255 6.9 -0.28 12.03
3/23/2021 12:30:00 PM 9.92 49.856 0.254 6.94 -1.44 12.14
3/23/2021 12:45:00 PM 10.04 50.072 0.254 7 -1.23 12.22
3/23/2021 1:00:00 PM 10.18 50.324 0.253 7.05 -0.41 12.29
3/23/2021 1:15:00 PM 10.32 50.576 0.253 7.1 -1.49 12.35
3/23/2021 1:30:00 PM 10.47 50.846 0.253 7.14 -1.15 12.43
3/23/2021 1:45:00 PM 10.62 51.116 0.253 7.17 -1.34 12.49
3/23/2021 2:00:00 PM 10.73 51.314 0.254 7.2 -1.23 12.55
3/23/2021 2:15:00 PM 10.84 51.512 0.254 7.25 -1.63 12.6
3/23/2021 2:30:00 PM 10.93 51.674 0.254 7.29 -1.43 12.64
3/23/2021 2:45:00 PM 11.06 51.908 0.254 7.32 -0.96 12.68
3/23/2021 3:00:00 PM 11.16 52.088 0.253 7.35 -0.45 12.73
3/23/2021 3:15:00 PM 11.25 52.25 0.253 7.39 -2.22 12.77
3/23/2021 3:30:00 PM 11.31 52.358 0.253 7.41 -1.35 12.78
3/23/2021 3:45:00 PM 11.38 52.484 0.252 7.44 -1.54 12.79
3/23/2021 4:00:00 PM 11.44 52.592 0.252 7.46 -1.06 12.78
3/23/2021 4:15:00 PM 11.51 52.718 0.252 7.49 -1.89 12.75
3/23/2021 4:30:00 PM 11.58 52.844 0.253 7.51 -1.82 12.75
3/23/2021 4:45:00 PM 11.63 52.934 0.253 7.52 -0.55 12.72
3/23/2021 5:00:00 PM 11.65 52.97 0.254 7.53 -1.57 12.69
3/23/2021 5:15:00 PM 11.67 53.006 0.254 7.54 -1.16 12.64
3/23/2021 5:30:00 PM 11.7 53.06 0.254 7.55 -1.35 12.57
3/23/2021 5:45:00 PM 11.73 53.114 0.254 7.55 0.32 12.48
3/23/2021 6:00:00 PM 11.73 53.114 0.254 7.55 -1.74 12.38
3/23/2021 6:15:00 PM 11.74 53.132 0.253 7.55 -1.4 12.28
3/23/2021 6:30:00 PM 11.75 53.15 0.253 7.55 -1.07 12.16
3/23/2021 6:45:00 PM 11.76 53.168 0.253 7.54 -1.68 12.06
3/23/2021 7:00:00 PM 11.75 53.15 0.253 7.53 -1.31 11.94
3/23/2021 7:15:00 PM 11.75 53.15 0.253 7.52 -1.34 11.78
3/23/2021 7:30:00 PM 11.75 53.15 0.254 7.5 -1.45 11.61
3/23/2021 7:45:00 PM 11.75 53.15 0.256 7.45 -1.55 11.33
3/23/2021 8:00:00 PM 11.75 53.15 0.257 7.44 -1.05 11.32
3/23/2021 8:15:00 PM 11.74 53.132 0.258 7.43 -1.57 11.15
3/23/2021 8:30:00 PM 11.73 53.114 0.258 7.39 -1.08 11.01
3/23/2021 8:45:00 PM 11.72 53.096 0.258 7.38 -1.91 10.86
3/23/2021 9:00:00 PM 11.72 53.096 0.257 7.34 -0.7 10.73
3/23/2021 9:15:00 PM 11.71 53.078 0.257 7.33 3.46 10.62
3/23/2021 9:30:00 PM 11.7 53.06 0.255 7.31 -1.25 10.54
3/23/2021 9:45:00 PM 11.7 53.06 0.255 7.3 -0.94 10.44
3/23/2021 10:00:00 PM 11.68 53.024 0.254 7.28 -1.27 10.32
3/23/2021 10:15:00 PM 11.67 53.006 0.255 7.27 -0.85 10.25
3/23/2021 10:30:00 PM 11.64 52.952 0.257 7.22 -1.05 10.15
3/23/2021 10:45:00 PM 11.62 52.916 0.259 7.19 -0.84 10.06
3/23/2021 11:00:00 PM 11.6 52.88 0.26 7.16 -0.82 9.99
3/23/2021 11:15:00 PM 11.57 52.826 0.261 7.13 -1.59 9.92
3/23/2021 11:30:00 PM 11.55 52.79 0.261 7.11 -0.22 9.88
3/23/2021 11:45:00 PM 11.52 52.736 0.261 7.09 -1.73 9.83
3/24/2021 12:00:00 AM 11.49 52.682 0.26 7.08 -0.68 9.79
3/24/2021 12:15:00 AM 11.47 52.646 0.258 7.05 -0.25 9.74
3/24/2021 12:30:00 AM 11.45 52.61 0.257 7.04 -0.89 9.72
3/24/2021 12:45:00 AM 11.43 52.574 0.256 7.03 -0.99 9.68
3/24/2021 1:00:00 AM 11.41 52.538 0.256 7.02 0.52 9.64
3/24/2021 1:15:00 AM 11.39 52.502 0.256 7.01 -1.74 9.62
3/24/2021 1:30:00 AM 11.37 52.466 0.257 6.99 -1.53 9.6
3/24/2021 1:45:00 AM 11.35 52.43 0.258 6.97 1.69 9.57
3/24/2021 2:00:00 AM 11.33 52.394 0.26 6.94 -1.3 9.55
3/24/2021 2:15:00 AM 11.3 52.34 0.26 6.92 0.31 9.53
3/24/2021 2:30:00 AM 11.27 52.286 0.261 6.91 -0.71 9.5
3/24/2021 2:45:00 AM 11.24 52.232 0.26 6.89 -0.9 9.49
3/24/2021 3:00:00 AM 11.22 52.196 0.259 6.87 0.82 9.48
3/24/2021 3:15:00 AM 11.19 52.142 0.259 6.86 -1.78 9.46
3/24/2021 3:30:00 AM 11.17 52.106 0.258 6.83 -1.32 9.46
3/24/2021 3:45:00 AM 11.14 52.052 0.257 6.82 -0.8 9.45
3/24/2021 4:00:00 AM 11.12 52.016 0.256 6.81 0.05 9.45
3/24/2021 4:15:00 AM 11.1 51.98 0.257 6.8 -0.97 9.43
3/24/2021 4:30:00 AM 11.08 51.944 0.258 6.79 -1.51 9.43
3/24/2021 4:45:00 AM 11.05 51.89 0.259 6.77 -1.69 9.42
3/24/2021 5:00:00 AM 11.03 51.854 0.26 6.75 -0.77 9.4
3/24/2021 5:15:00 AM 11 51.8 0.261 6.74 -0.51 9.4
3/24/2021 5:30:00 AM 10.98 51.764 0.261 6.74 -1.96 9.4
3/24/2021 5:45:00 AM 10.95 51.71 0.26 6.72 -0.55 9.39
3/24/2021 6:00:00 AM 10.93 51.674 0.259 6.71 -0.9 9.39
3/24/2021 6:15:00 AM 10.9 51.62 0.258 6.7 -0.51 9.38
3/24/2021 6:30:00 AM 10.88 51.584 0.257 6.7 0.35 9.4
3/24/2021 6:45:00 AM 10.86 51.548 0.256 6.68 -0.24 9.39
3/24/2021 7:00:00 AM 10.85 51.53 0.255 6.67 -0.29 9.39
3/24/2021 7:15:00 AM 10.84 51.512 0.256 6.67 -2.05 9.4
3/24/2021 7:30:00 AM 10.83 51.494 0.257 6.65 -0.87 9.38
3/24/2021 7:45:00 AM 10.82 51.476 0.258 6.64 -0.89 9.38
3/24/2021 8:00:00 AM 10.82 51.476 0.259 6.64 0.13 9.38
3/24/2021 8:15:00 AM 10.82 51.476 0.26 6.64 1.91 9.39
3/24/2021 8:30:00 AM 10.81 51.458 0.26 6.64 -1.44 9.41
3/24/2021 8:45:00 AM 10.81 51.458 0.259 6.63 -1.63 9.43
3/24/2021 9:00:00 AM 10.81 51.458 0.258 6.62 -0.7 9.45
3/24/2021 9:15:00 AM 10.81 51.458 0.254 6.63 0.77 9.52
3/24/2021 9:30:00 AM 10.82 51.476 0.254 6.64 0 9.55
3/24/2021 9:45:00 AM 10.83 51.494 0.253 6.64 3.47 9.6
3/24/2021 10:00:00 AM 10.85 51.53 0.253 6.66 -0.56 9.69
3/24/2021 10:15:00 AM 10.87 51.566 0.253 6.66 0.31 9.74
3/24/2021 10:30:00 AM 10.88 51.584 0.253 6.66 -0.06 9.79
3/24/2021 10:45:00 AM 10.9 51.62 0.253 6.66 -0.27 9.82
3/24/2021 11:00:00 AM 10.92 51.656 0.254 6.67 0.54 9.87
3/24/2021 11:15:00 AM 10.95 51.71 0.254 6.68 0.01 9.95
3/24/2021 11:30:00 AM 10.98 51.764 0.254 6.7 1.04 10.03
3/24/2021 11:45:00 AM 11.01 51.818 0.253 6.72 -0.01 10.13
3/24/2021 12:00:00 PM 11.03 51.854 0.253 6.75 -0.58 10.23
3/24/2021 12:15:00 PM 11.05 51.89 0.252 6.76 -1.28 10.29
3/24/2021 12:30:00 PM 11.07 51.926 0.252 6.77 0.33 10.32
3/24/2021 12:45:00 PM 11.1 51.98 0.251 6.79 7.03 10.38
3/24/2021 1:00:00 PM 11.13 52.034 0.251 6.8 -0.03 10.45
3/24/2021 1:15:00 PM 11.15 52.07 0.252 6.82 0.55 10.5
3/24/2021 1:30:00 PM 11.16 52.088 0.253 6.83 0.66 10.51
3/24/2021 1:45:00 PM 11.17 52.106 0.254 6.82 1.13 10.49
3/24/2021 2:00:00 PM 11.19 52.142 0.254 6.83 0.49 10.51
3/24/2021 2:15:00 PM 11.21 52.178 0.255 6.84 1.26 10.53
3/24/2021 2:30:00 PM 11.22 52.196 0.255 6.85 -0.35 10.55
3/24/2021 2:45:00 PM 11.24 52.232 0.255 6.86 -0.51 10.55
3/24/2021 3:00:00 PM 11.26 52.268 0.254 6.88 -0.48 10.61
3/24/2021 3:15:00 PM 11.29 52.322 0.253 6.89 -0.11 10.65
3/24/2021 3:30:00 PM 11.32 52.376 0.253 6.9 -0.08 10.72
3/24/2021 3:45:00 PM 11.35 52.43 0.252 6.91 0.33 10.75
3/24/2021 4:00:00 PM 11.38 52.484 0.253 6.93 -0.39 10.81
3/24/2021 4:15:00 PM 11.4 52.52 0.255 6.94 -0.7 10.82
3/24/2021 4:30:00 PM 11.42 52.556 0.256 6.94 -0.22 10.83
3/24/2021 4:45:00 PM 11.43 52.574 0.257 6.95 -0.54 10.8
3/24/2021 5:00:00 PM 11.43 52.574 0.258 6.95 -0.13 10.76
3/24/2021 5:15:00 PM 11.43 52.574 0.257 6.94 2.44 10.7
3/24/2021 5:30:00 PM 11.43 52.574 0.256 6.94 -0.05 10.66
3/24/2021 5:45:00 PM 11.43 52.574 0.254 6.94 -0.29 10.61
3/24/2021 6:00:00 PM 11.43 52.574 0.254 6.94 -0.04 10.57
3/24/2021 6:15:00 PM 11.43 52.574 0.254 6.93 1.83 10.51
3/24/2021 6:30:00 PM 11.44 52.592 0.255 6.92 1.35 10.48
3/24/2021 6:45:00 PM 11.43 52.574 0.258 6.92 0.56 10.45
3/24/2021 7:00:00 PM 11.43 52.574 0.261 6.91 0.36 10.39
3/24/2021 7:15:00 PM 11.43 52.574 0.264 6.89 1.68 10.34
3/24/2021 7:30:00 PM 11.42 52.556 0.265 6.88 11.34 10.29
3/24/2021 7:45:00 PM 11.41 52.538 0.265 6.87 -0.23 10.24
3/24/2021 8:00:00 PM 11.41 52.538 0.264 6.86 0.69 10.18
3/24/2021 8:15:00 PM 11.4 52.52 0.263 6.85 2.35 10.13
3/24/2021 8:30:00 PM 11.39 52.502 0.262 6.84 1.17 10.09
3/24/2021 8:45:00 PM 11.39 52.502 0.261 6.84 2.64 10.04
3/24/2021 9:00:00 PM 11.39 52.502 0.261 6.83 1.84 10.02
3/24/2021 9:15:00 PM 11.39 52.502 0.262 6.82 1.79 9.98
3/24/2021 9:30:00 PM 11.39 52.502 0.263 6.81 1.94 9.93
3/24/2021 9:45:00 PM 11.4 52.52 0.265 6.79 4.48 9.88
3/24/2021 10:00:00 PM 11.4 52.52 0.267 6.77 5.06 9.82
3/24/2021 10:15:00 PM 11.4 52.52 0.268 6.76 2.09 9.79
3/24/2021 10:30:00 PM 11.4 52.52 0.267 6.75 2.95 9.76
3/24/2021 10:45:00 PM 11.4 52.52 0.266 6.75 6.36 9.72
3/24/2021 11:00:00 PM 11.4 52.52 0.263 6.75 2.17 9.71
3/24/2021 11:15:00 PM 11.4 52.52 0.261 6.74 0.72 9.68
3/24/2021 11:30:00 PM 11.4 52.52 0.259 6.73 1.28 9.66
3/24/2021 11:45:00 PM 11.4 52.52 0.258 6.72 1.72 9.63
3/25/2021 12:00:00 AM 11.4 52.52 0.257 6.71 2.82 9.63
3/25/2021 12:15:00 AM 11.39 52.502 0.257 6.7 0.1 9.59
3/25/2021 12:30:00 AM 11.39 52.502 0.258 6.69 4.31 9.56
3/25/2021 12:45:00 AM 11.39 52.502 0.259 6.68 5.1 9.54
3/25/2021 1:00:00 AM 11.39 52.502 0.259 6.67 4.86 9.51
3/25/2021 1:15:00 AM 11.39 52.502 0.259 6.66 1.87 9.49
3/25/2021 1:30:00 AM 11.38 52.484 0.257 6.65 3.37 9.5
3/25/2021 1:45:00 AM 11.37 52.466 0.255 6.66 0.77 9.47
3/25/2021 2:00:00 AM 11.36 52.448 0.254 6.64 1.9 9.43
3/25/2021 2:15:00 AM 11.35 52.43 0.252 6.64 1.97 9.45
3/25/2021 2:30:00 AM 11.33 52.394 0.25 6.63 2.76 9.43
3/25/2021 2:45:00 AM 11.32 52.376 0.25 6.62 0.05 9.42
3/25/2021 3:00:00 AM 11.31 52.358 0.248 6.62 3.27 9.42
3/25/2021 3:15:00 AM 11.3 52.34 0.248 6.62 0.94 9.41
3/25/2021 3:30:00 AM 11.29 52.322 0.248 6.61 3.61 9.41
3/25/2021 3:45:00 AM 11.29 52.322 0.249 6.59 1.15 9.4
3/25/2021 4:00:00 AM 11.28 52.304 0.249 6.59 3.92 9.38
3/25/2021 4:15:00 AM 11.27 52.286 0.25 6.58 0.91 9.37
3/25/2021 4:30:00 AM 11.26 52.268 0.248 6.58 4.23 9.36
3/25/2021 4:45:00 AM 11.24 52.232 0.247 6.57 2.48 9.36
3/25/2021 5:00:00 AM 11.23 52.214 0.245 6.57 2.73 9.35
3/25/2021 5:15:00 AM 11.22 52.196 0.243 6.56 4.79 9.36
3/25/2021 5:30:00 AM 11.21 52.178 0.242 6.57 0.51 9.36
3/25/2021 5:45:00 AM 11.19 52.142 0.241 6.56 2.63 9.36
3/25/2021 6:00:00 AM 11.19 52.142 0.241 6.55 0.42 9.34
3/25/2021 6:15:00 AM 11.18 52.124 0.24 6.55 2.56 9.36
3/25/2021 6:30:00 AM 11.17 52.106 0.241 6.55 2.12 9.36
3/25/2021 6:45:00 AM 11.17 52.106 0.242 6.54 1.36 9.34
3/25/2021 7:00:00 AM 11.16 52.088 0.244 6.53 1.56 9.32
3/25/2021 7:15:00 AM 11.16 52.088 0.244 6.53 4.35 9.33
3/25/2021 7:30:00 AM 11.16 52.088 0.244 6.52 2.15 9.32
3/25/2021 7:45:00 AM 11.15 52.07 0.243 6.53 2.54 9.35
3/25/2021 8:00:00 AM 11.15 52.07 0.241 6.53 2.43 9.35
3/25/2021 8:15:00 AM 11.16 52.088 0.24 6.53 1.84 9.39
3/25/2021 8:30:00 AM 11.16 52.088 0.239 6.53 1.2 9.43
3/25/2021 8:45:00 AM 11.18 52.124 0.238 6.54 0.7 9.5
3/25/2021 9:00:00 AM 11.19 52.142 0.237 6.54 2.7 9.56
3/25/2021 9:15:00 AM 11.22 52.196 0.236 6.55 0.27 9.64
3/25/2021 9:30:00 AM 11.24 52.232 0.237 6.56 0.78 9.75
3/25/2021 9:45:00 AM 11.26 52.268 0.238 6.58 -0.01 9.81
3/25/2021 10:00:00 AM 11.3 52.34 0.239 6.59 1.19 9.86
3/25/2021 10:15:00 AM 11.32 52.376 0.239 6.61 1.3 9.95
3/25/2021 10:30:00 AM 11.34 52.412 0.239 6.63 0.17 10.03
3/25/2021 10:45:00 AM 11.36 52.448 0.238 6.64 0.87 10.07
3/25/2021 11:00:00 AM 11.39 52.502 0.237 6.67 0.18 10.17
3/25/2021 11:15:00 AM 11.41 52.538 0.236 6.68 0.27 10.25
3/25/2021 11:30:00 AM 11.44 52.592 0.235 6.71 -0.64 10.33
3/25/2021 11:45:00 AM 11.47 52.646 0.235 6.72 0.66 10.43
3/25/2021 12:00:00 PM 11.49 52.682 0.234 6.74 0.92 10.5
3/25/2021 12:15:00 PM 11.54 52.772 0.234 6.75 -0.28 10.57
3/25/2021 12:30:00 PM 11.57 52.826 0.234 6.78 -0.39 10.67
3/25/2021 12:45:00 PM 11.61 52.898 0.234 6.81 -0.71 10.73
3/25/2021 1:00:00 PM 11.66 52.988 0.235 6.83 0.21 10.79
3/25/2021 1:15:00 PM 11.7 53.06 0.235 6.84 -0.31 10.84
3/25/2021 1:30:00 PM 11.75 53.15 0.235 6.87 0.23 10.95
3/25/2021 1:45:00 PM 11.79 53.222 0.235 6.9 0.95 11.03
3/25/2021 2:00:00 PM 11.82 53.276 0.235 6.93 -0.24 11.05
3/25/2021 2:15:00 PM 11.87 53.366 0.235 6.95 -0.5 11.11
3/25/2021 2:30:00 PM 11.92 53.456 0.234 6.99 0.16 11.18
3/25/2021 2:45:00 PM 12.01 53.618 0.234 7.03 -0.16 11.28
3/25/2021 3:00:00 PM 12.11 53.798 0.234 7.06 1.1 11.39
3/25/2021 3:15:00 PM 12.17 53.906 0.233 7.1 -0.57 11.46
3/25/2021 3:30:00 PM 12.23 54.014 0.233 7.14 -0.03 11.52
3/25/2021 3:45:00 PM 12.28 54.104 0.234 7.18 -0.32 11.55
3/25/2021 4:00:00 PM 12.34 54.212 0.235 7.2 -1.05 11.58
3/25/2021 4:15:00 PM 12.4 54.32 0.235 7.24 -0.37 11.65
3/25/2021 4:30:00 PM 12.46 54.428 0.236 7.25 0.97 11.66
3/25/2021 4:45:00 PM 12.5 54.5 0.236 7.28 -0.65 11.67
3/25/2021 5:00:00 PM 12.55 54.59 0.235 7.3 0.6 11.65
3/25/2021 5:15:00 PM 12.59 54.662 0.235 7.33 -0.71 11.64
3/25/2021 5:30:00 PM 12.62 54.716 0.235 7.34 -0.59 11.6
3/25/2021 5:45:00 PM 12.63 54.734 0.234 7.35 -0.44 11.56
3/25/2021 6:00:00 PM 12.65 54.77 0.234 7.36 -0.47 11.49
3/25/2021 6:15:00 PM 12.67 54.806 0.234 7.36 -0.04 11.46
3/25/2021 6:30:00 PM 12.68 54.824 0.234 7.36 -1.06 11.38
3/25/2021 6:45:00 PM 12.69 54.842 0.235 7.35 0 11.24
3/25/2021 7:00:00 PM 12.7 54.86 0.237 7.33 0.11 11.09
3/25/2021 7:15:00 PM 12.7 54.86 0.24 7.31 -0.39 10.96
3/25/2021 7:30:00 PM 12.7 54.86 0.241 7.3 0.04 10.84
3/25/2021 7:45:00 PM 12.7 54.86 0.242 7.28 -0.04 10.72
3/25/2021 8:00:00 PM 12.7 54.86 0.241 7.28 -1.1 10.62
3/25/2021 8:15:00 PM 12.7 54.86 0.241 7.25 -1.06 10.5
3/25/2021 8:30:00 PM 12.7 54.86 0.24 7.24 -0.42 10.39
3/25/2021 8:45:00 PM 12.7 54.86 0.239 7.21 0.19 10.3
3/25/2021 9:00:00 PM 12.7 54.86 0.238 7.2 -0.03 10.19
3/25/2021 9:15:00 PM 12.71 54.878 0.237 7.17 -0.18 10.1
3/25/2021 9:30:00 PM 12.72 54.896 0.237 7.15 0.68 10.01
3/25/2021 9:45:00 PM 12.73 54.914 0.238 7.13 1.82 9.9
3/25/2021 10:00:00 PM 12.75 54.95 0.239 7.11 0.45 9.84
3/25/2021 10:15:00 PM 12.76 54.968 0.241 7.09 1.21 9.76
3/25/2021 10:30:00 PM 12.78 55.004 0.242 7.06 0.51 9.46
3/25/2021 10:45:00 PM 12.78 55.004 0.243 7.05 0.28 9.69
3/25/2021 11:00:00 PM 12.79 55.022 0.243 7.03 2.51 9.65
3/25/2021 11:15:00 PM 12.79 55.022 0.243 7.01 -0.09 9.58
3/25/2021 11:30:00 PM 12.8 55.04 0.242 7 1.84 9.54
3/25/2021 11:45:00 PM 12.8 55.04 0.241 6.98 -0.07 9.47
3/26/2021 12:00:00 AM 12.8 55.04 0.24 6.97 1.05 9.45
3/26/2021 12:15:00 AM 12.8 55.04 0.24 6.95 1.17 9.39
3/26/2021 12:30:00 AM 12.81 55.058 0.24 6.94 0.28 9.34
3/26/2021 12:45:00 AM 12.81 55.058 0.241 6.93 1.42 9.32
3/26/2021 1:00:00 AM 12.81 55.058 0.242 6.91 -0.85 9.28
3/26/2021 1:15:00 AM 12.8 55.04 0.244 6.9 0.63 9.24
3/26/2021 1:30:00 AM 12.8 55.04 0.245 6.88 0.29 9.2
3/26/2021 1:45:00 AM 12.79 55.022 0.246 6.86 0.66 9.16
3/26/2021 2:00:00 AM 12.79 55.022 0.246 6.85 -0.89 9.13
3/26/2021 2:15:00 AM 12.78 55.004 0.246 6.83 -0.7 9.11
3/26/2021 2:30:00 AM 12.78 55.004 0.245 6.82 -0.43 9.09
3/26/2021 2:45:00 AM 12.77 54.986 0.245 6.81 0.57 9.06
3/26/2021 3:00:00 AM 12.76 54.968 0.244 6.79 0.02 9.04
3/26/2021 3:15:00 AM 12.75 54.95 0.243 6.78 0.62 9.03
3/26/2021 3:30:00 AM 12.74 54.932 0.243 6.77 3.37 9.01
3/26/2021 3:45:00 AM 12.73 54.914 0.244 6.76 0.99 9
3/26/2021 4:00:00 AM 12.73 54.914 0.244 6.75 0.66 8.97
3/26/2021 4:15:00 AM 12.72 54.896 0.246 6.74 1.26 8.97
3/26/2021 4:30:00 AM 12.71 54.878 0.248 6.72 2.97 8.91
3/26/2021 4:45:00 AM 12.7 54.86 0.248 6.71 1.18 8.91
3/26/2021 5:00:00 AM 12.69 54.842 0.248 6.7 -1.23 8.9
3/26/2021 5:15:00 AM 12.68 54.824 0.248 6.69 1.83 8.89
3/26/2021 5:30:00 AM 12.68 54.824 0.247 6.7 4.85 8.89
3/26/2021 5:45:00 AM 12.67 54.806 0.247 6.69 -1.1 8.88
3/26/2021 6:00:00 AM 12.66 54.788 0.246 6.68 3.54 8.86
3/26/2021 6:15:00 AM 12.66 54.788 0.245 6.68 0.86 8.87
3/26/2021 6:30:00 AM 12.65 54.77 0.244 6.67 -1.32 8.86
3/26/2021 6:45:00 AM 12.65 54.77 0.245 6.66 3.4 8.86
3/26/2021 7:00:00 AM 12.64 54.752 0.246 6.66 -0.83 8.84
3/26/2021 7:15:00 AM 12.65 54.77 0.247 6.66 0.42 8.83
3/26/2021 7:30:00 AM 12.66 54.788 0.249 6.65 2.11 8.85
3/26/2021 7:45:00 AM 12.68 54.824 0.25 6.65 0.8 8.87
3/26/2021 8:00:00 AM 12.71 54.878 0.251 6.66 0.51 8.89
3/26/2021 8:15:00 AM 12.73 54.914 0.25 6.67 1.05 8.96
3/26/2021 8:30:00 AM 12.78 55.004 0.249 6.67 5.48 9.04
3/26/2021 8:45:00 AM 12.85 55.13 0.248 6.7 -0.47 9.15
3/26/2021 9:00:00 AM 12.91 55.238 0.247 6.71 -0.99 9.27
3/26/2021 9:15:00 AM 13 55.4 0.246 6.74 -0.38 9.39
3/26/2021 9:30:00 AM 13.1 55.58 0.246 6.76 -0.51 9.52
3/26/2021 9:45:00 AM 13.22 55.796 0.245 6.8 -0.69 9.66
3/26/2021 10:00:00 AM 13.33 55.994 0.246 6.83 0.65 9.77
3/26/2021 10:15:00 AM 13.43 56.174 0.247 6.87 -0.7 9.91
3/26/2021 10:30:00 AM 13.54 56.372 0.248 6.9 0.22 10.04
3/26/2021 10:45:00 AM 13.66 56.588 0.249 6.94 -0.79 10.15
3/26/2021 11:00:00 AM 13.73 56.714 0.249 6.97 -0.6 10.22
3/26/2021 11:15:00 AM 13.88 56.984 0.249 7 -0.56 10.33
3/26/2021 11:30:00 AM 14.02 57.236 0.249 7.03 1.46 10.43
3/26/2021 11:45:00 AM 14.14 57.452 0.248 7.07 -0.52 10.53
3/26/2021 12:00:00 PM 14.28 57.704 0.248 7.12 -0.38 10.61
3/26/2021 12:15:00 PM 14.43 57.974 0.247 7.17 -0.97 10.72
3/26/2021 12:30:00 PM 14.59 58.262 0.247 7.22 0.53 10.82
3/26/2021 12:45:00 PM 14.73 58.514 0.247 7.26 -0.95 10.92
3/26/2021 1:00:00 PM 14.87 58.766 0.247 7.31 -1.33 10.99
3/26/2021 1:15:00 PM 15 59 0.248 7.35 -1.04 11.06
3/26/2021 1:30:00 PM 15.13 59.234 0.249 7.39 -1.36 11.14
3/26/2021 1:45:00 PM 15.26 59.468 0.249 7.42 1.15 11.2
3/26/2021 2:00:00 PM 15.39 59.702 0.249 7.46 -0.63 11.27
3/26/2021 2:15:00 PM 15.5 59.9 0.249 7.5 0.63 11.29
3/26/2021 2:30:00 PM 15.62 60.116 0.249 7.55 -1.35 11.34
3/26/2021 2:45:00 PM 15.73 60.314 0.248 7.58 -0.1 11.41
3/26/2021 3:00:00 PM 15.81 60.458 0.248 7.61 0 11.43
3/26/2021 3:15:00 PM 15.89 60.602 0.248 7.64 -0.73 11.44
3/26/2021 3:30:00 PM 15.97 60.746 0.248 7.67 -0.06 11.45
3/26/2021 3:45:00 PM 16.03 60.854 0.248 7.69 -1.04 11.44
3/26/2021 4:00:00 PM 16.09 60.962 0.247 7.71 -0.7 11.43
3/26/2021 4:15:00 PM 16.14 61.052 0.247 7.74 0.57 11.44
3/26/2021 4:30:00 PM 16.17 61.106 0.248 7.75 -1.47 11.41
3/26/2021 4:45:00 PM 16.21 61.178 0.248 7.77 -1.22 11.36
3/26/2021 5:00:00 PM 16.21 61.178 0.249 7.78 -1.1 11.3
3/26/2021 5:15:00 PM 16.22 61.196 0.248 7.79 -0.24 11.25
3/26/2021 5:30:00 PM 16.23 61.214 0.248 7.8 -1.36 11.2
3/26/2021 5:45:00 PM 16.25 61.25 0.247 7.81 -0.29 11.14
3/26/2021 6:00:00 PM 16.25 61.25 0.247 7.82 -0.71 11.08
3/26/2021 6:15:00 PM 16.24 61.232 0.246 7.83 -0.66 10.99
3/26/2021 6:30:00 PM 16.22 61.196 0.246 7.83 -0.25 10.9
3/26/2021 6:45:00 PM 16.2 61.16 0.246 7.82 -0.94 10.76
3/26/2021 7:00:00 PM 16.16 61.088 0.246 7.81 3.35 10.62
3/26/2021 7:15:00 PM 16.12 61.016 0.247 7.79 -1.41 10.46
3/26/2021 7:30:00 PM 16.07 60.926 0.249 7.76 -0.55 10.29
3/26/2021 7:45:00 PM 16.03 60.854 0.251 7.74 -1.62 10.12
3/26/2021 8:00:00 PM 15.99 60.782 0.251 7.71 0.94 9.96
3/26/2021 8:15:00 PM 15.95 60.71 0.252 7.68 0.8 9.79
3/26/2021 8:30:00 PM 15.91 60.638 0.251 7.66 -0.75 9.67
3/26/2021 8:45:00 PM 15.87 60.566 0.251 7.63 -1.19 9.53
3/26/2021 9:00:00 PM 15.83 60.494 0.249 7.6 -0.52 9.41
3/26/2021 9:15:00 PM 15.79 60.422 0.248 7.58 -0.87 9.28
3/26/2021 9:30:00 PM 15.75 60.35 0.247 7.54 -0.99 9.19
3/26/2021 9:45:00 PM 15.7 60.26 0.247 7.51 1.71 9.07
3/26/2021 10:00:00 PM 15.65 60.17 0.248 7.47 0.25 8.99
3/26/2021 10:15:00 PM 15.6 60.08 0.25 7.44 0.39 8.89
3/26/2021 10:30:00 PM 15.55 59.99 0.253 7.4 -0.47 8.82
3/26/2021 10:45:00 PM 15.5 59.9 0.255 7.37 -0.53 8.73
3/26/2021 11:00:00 PM 15.45 59.81 0.256 7.33 -0.13 8.67
3/26/2021 11:15:00 PM 15.4 59.72 0.256 7.3 -0.49 8.63
3/26/2021 11:30:00 PM 15.34 59.612 0.255 7.27 -0.53 8.57
3/26/2021 11:45:00 PM 15.28 59.504 0.255 7.25 -0.56 8.53
3/27/2021 12:00:00 AM 15.21 59.378 0.254 7.22 11.74 8.5
3/27/2021 12:15:00 AM 15.14 59.252 0.253 7.2 2.05 8.48
3/27/2021 12:30:00 AM 15.06 59.108 0.252 7.18 -0.28 8.45
3/27/2021 12:45:00 AM 14.97 58.946 0.252 7.15 0.24 8.43
3/27/2021 1:00:00 AM 14.88 58.784 0.253 7.13 1.11 8.41
3/27/2021 1:15:00 AM 14.79 58.622 0.254 7.1 -0.23 8.4
3/27/2021 1:30:00 AM 14.69 58.442 0.256 7.06 0.75 8.39
3/27/2021 1:45:00 AM 14.59 58.262 0.257 7.04 -0.39 8.37
3/27/2021 2:00:00 AM 14.5 58.1 0.258 7 0.21 8.38
3/27/2021 2:15:00 AM 14.39 57.902 0.258 6.98 1.76 8.38
3/27/2021 2:30:00 AM 14.29 57.722 0.258 6.96 -0.66 8.38
3/27/2021 2:45:00 AM 14.19 57.542 0.257 6.93 -0.04 8.38
3/27/2021 3:00:00 AM 14.09 57.362 0.257 6.91 0.47 8.38
3/27/2021 3:15:00 AM 14 57.2 0.256 6.88 -0.15 8.41
3/27/2021 3:30:00 AM 13.9 57.02 0.255 6.86 0.04 8.4
3/27/2021 3:45:00 AM 13.81 56.858 0.254 6.84 -0.14 8.42
3/27/2021 4:00:00 AM 13.71 56.678 0.255 6.82 -0.01 8.42
3/27/2021 4:15:00 AM 13.61 56.498 0.256 6.79 0.53 8.43
3/27/2021 4:30:00 AM 13.52 56.336 0.257 6.78 1.27 8.44
3/27/2021 4:45:00 AM 13.42 56.156 0.258 6.76 1.06 8.44
3/27/2021 5:00:00 AM 13.34 56.012 0.259 6.73 0.74 8.45
3/27/2021 5:15:00 AM 13.24 55.832 0.259 6.71 -0.97 8.47
3/27/2021 5:30:00 AM 13.15 55.67 0.259 6.7 2.19 8.48
3/27/2021 5:45:00 AM 13.06 55.508 0.259 6.69 0.81 8.5
3/27/2021 6:00:00 AM 12.98 55.364 0.259 6.67 0.84 8.52
3/27/2021 6:15:00 AM 12.9 55.22 0.257 6.67 -0.23 8.54
3/27/2021 6:30:00 AM 12.82 55.076 0.256 6.65 -0.95 8.57
3/27/2021 6:45:00 AM 12.75 54.95 0.256 6.64 4.67 8.57
3/27/2021 7:00:00 AM 12.67 54.806 0.256 6.63 0.33 8.59
3/27/2021 7:15:00 AM 12.59 54.662 0.256 6.63 0.43 8.61
3/27/2021 7:30:00 AM 12.54 54.572 0.257 6.62 -0.81 8.64
3/27/2021 7:45:00 AM 12.48 54.464 0.258 6.6 1.41 8.69
3/27/2021 8:00:00 AM 12.44 54.392 0.259 6.6 0.55 8.72
3/27/2021 8:15:00 AM 12.4 54.32 0.259 6.6 3.63 8.8
3/27/2021 8:30:00 AM 12.39 54.302 0.259 6.6 0.21 8.89
3/27/2021 8:45:00 AM 12.4 54.32 0.258 6.62 -0.54 9.01
3/27/2021 9:00:00 AM 12.4 54.32 0.257 6.63 -0.43 9.16
3/27/2021 9:15:00 AM 12.41 54.338 0.256 6.65 -0.86 9.3
3/27/2021 9:30:00 AM 12.44 54.392 0.256 6.67 -0.72 9.45
3/27/2021 9:45:00 AM 12.49 54.482 0.255 6.7 -0.93 9.61
3/27/2021 10:00:00 AM 12.55 54.59 0.254 6.73 -1.15 9.8
3/27/2021 10:15:00 AM 12.65 54.77 0.255 6.76 0.84 9.94
3/27/2021 10:30:00 AM 12.78 55.004 0.255 6.79 -0.82 10.1
3/27/2021 10:45:00 AM 12.89 55.202 0.256 6.84 -0.9 10.27
3/27/2021 11:00:00 AM 13 55.4 0.257 6.89 -0.53 10.41
3/27/2021 11:15:00 AM 13.12 55.616 0.257 6.93 -1.01 10.56
3/27/2021 11:30:00 AM 13.24 55.832 0.257 6.97 -1.03 10.67
3/27/2021 11:45:00 AM 13.37 56.066 0.256 7.01 -1.95 10.8
3/27/2021 12:00:00 PM 13.49 56.282 0.255 7.06 -1.63 10.91
3/27/2021 12:15:00 PM 13.63 56.534 0.255 7.1 -1.48 11
3/27/2021 12:30:00 PM 13.74 56.732 0.254 7.16 -1 11.14
3/27/2021 12:45:00 PM 13.88 56.984 0.253 7.21 -1.04 11.22
3/27/2021 1:00:00 PM 14.04 57.272 0.253 7.25 -0.99 11.36
3/27/2021 1:15:00 PM 14.16 57.488 0.253 7.3 -1.77 11.43
3/27/2021 1:30:00 PM 14.29 57.722 0.254 7.34 0.53 11.49
3/27/2021 1:45:00 PM 14.4 57.92 0.254 7.4 -1.38 11.6
3/27/2021 2:00:00 PM 14.52 58.136 0.254 7.44 -0.02 11.68
3/27/2021 2:15:00 PM 14.63 58.334 0.255 7.49 -1.52 11.77
3/27/2021 2:30:00 PM 14.72 58.496 0.255 7.52 -1.67 11.83
3/27/2021 2:45:00 PM 14.8 58.64 0.254 7.57 -1.54 11.89
3/27/2021 3:00:00 PM 14.87 58.766 0.254 7.6 -0.39 11.94
3/27/2021 3:15:00 PM 14.94 58.892 0.253 7.63 1.25 11.95
3/27/2021 3:30:00 PM 15.01 59.018 0.253 7.67 -1.4 12.01
3/27/2021 3:45:00 PM 15.05 59.09 0.252 7.7 -1.01 12.03
3/27/2021 4:00:00 PM 15.08 59.144 0.252 7.72 -1.22 12.04
3/27/2021 4:15:00 PM 15.1 59.18 0.252 7.73 -1.49 11.98
3/27/2021 4:30:00 PM 15.11 59.198 0.252 7.75 -0.71 11.94
3/27/2021 4:45:00 PM 15.12 59.216 0.252 7.75 -0.15 11.88
3/27/2021 5:00:00 PM 15.12 59.216 0.253 7.75 -1.61 11.79
3/27/2021 5:15:00 PM 15.12 59.216 0.253 7.75 -0.95 11.7
3/27/2021 5:30:00 PM 15.11 59.198 0.253 7.76 -0.16 11.63
3/27/2021 5:45:00 PM 15.1 59.18 0.253 7.75 0.14 11.52
3/27/2021 6:00:00 PM 15.09 59.162 0.253 7.75 -0.79 11.4
3/27/2021 6:15:00 PM 15.08 59.144 0.252 7.74 -0.81 11.28
3/27/2021 6:30:00 PM 15.07 59.126 0.252 7.73 0.17 11.13
3/27/2021 6:45:00 PM 15.05 59.09 0.252 7.72 -0.91 10.98
3/27/2021 7:00:00 PM 15.03 59.054 0.252 7.71 -0.7 10.82
3/27/2021 7:15:00 PM 15.01 59.018 0.253 7.68 -1.18 10.66
3/27/2021 7:30:00 PM 14.98 58.964 0.254 7.66 -1.48 10.51
3/27/2021 7:45:00 PM 14.96 58.928 0.255 7.63 1.27 10.36
3/27/2021 8:00:00 PM 14.94 58.892 0.257 7.6 -1.19 10.17
3/27/2021 8:15:00 PM 14.92 58.856 0.258 7.57 0.86 10.05
3/27/2021 8:30:00 PM 14.91 58.838 0.258 7.55 -0.93 9.93
3/27/2021 8:45:00 PM 14.89 58.802 0.258 7.53 -0.22 9.81
3/27/2021 9:00:00 PM 14.87 58.766 0.258 7.52 -0.13 9.69
3/27/2021 9:15:00 PM 14.85 58.73 0.258 7.49 -0.79 9.56
3/27/2021 9:30:00 PM 14.84 58.712 0.257 7.46 -0.44 9.47
3/27/2021 9:45:00 PM 14.81 58.658 0.257 7.44 0.13 9.36
3/27/2021 10:00:00 PM 14.79 58.622 0.256 7.41 0.71 9.26
3/27/2021 10:15:00 PM 14.77 58.586 0.257 7.38 2.01 9.18
3/27/2021 10:30:00 PM 14.74 58.532 0.259 7.36 -0.12 9.1
3/27/2021 10:45:00 PM 14.7 58.46 0.261 7.32 2.86 9.02
3/27/2021 11:00:00 PM 14.67 58.406 0.263 7.29 1.63 8.95
3/27/2021 11:15:00 PM 14.63 58.334 0.263 7.26 3.82 8.9
3/27/2021 11:30:00 PM 14.59 58.262 0.263 7.23 1.15 8.86
3/27/2021 11:45:00 PM 14.54 58.172 0.263 7.21 1.14 8.81
3/28/2021 12:00:00 AM 14.49 58.082 0.262 7.19 0.92 8.77
3/28/2021 12:15:00 AM 14.45 58.01 0.261 7.17 3.18 8.73
3/28/2021 12:30:00 AM 14.39 57.902 0.259 7.16 0.41 8.7
3/28/2021 12:45:00 AM 14.34 57.812 0.258 7.13 0.93 8.68
3/28/2021 1:00:00 AM 14.28 57.704 0.258 7.11 0.34 8.64
3/28/2021 1:15:00 AM 14.22 57.596 0.258 7.09 1.48 8.62
3/28/2021 1:30:00 AM 14.16 57.488 0.259 7.06 6 8.61
3/28/2021 1:45:00 AM 14.09 57.362 0.261 7.04 2.84 8.58
3/28/2021 2:00:00 AM 14.03 57.254 0.262 7.01 1.66 8.56
3/28/2021 2:15:00 AM 13.97 57.146 0.263 6.99 2.04 8.55
3/28/2021 2:30:00 AM 13.91 57.038 0.264 6.97 0.55 8.54
3/28/2021 2:45:00 AM 13.86 56.948 0.263 6.94 0.09 8.51
3/28/2021 3:00:00 AM 13.81 56.858 0.262 6.92 0.84 8.52
3/28/2021 3:15:00 AM 13.76 56.768 0.261 6.9 3.63 8.52
3/28/2021 3:30:00 AM 13.71 56.678 0.261 6.88 0.9 8.5
3/28/2021 3:45:00 AM 13.66 56.588 0.26 6.87 7.57 8.51
3/28/2021 4:00:00 AM 13.62 56.516 0.259 6.85 1.36 8.52
3/28/2021 4:15:00 AM 13.57 56.426 0.259 6.84 3.51 8.51
3/28/2021 4:30:00 AM 13.53 56.354 0.26 6.82 2.02 8.5
3/28/2021 4:45:00 AM 13.49 56.282 0.261 6.8 1.33 8.51
3/28/2021 5:00:00 AM 13.45 56.21 0.262 6.79 1.85 8.49
3/28/2021 5:15:00 AM 13.41 56.138 0.263 6.77 2.63 8.48
3/28/2021 5:30:00 AM 13.37 56.066 0.263 6.76 3.71 8.49
3/28/2021 5:45:00 AM 13.34 56.012 0.262 6.74 3.92 8.5
3/28/2021 6:00:00 AM 13.3 55.94 0.261 6.73 5.07 8.51
3/28/2021 6:15:00 AM 13.26 55.868 0.261 6.73 2.43 8.49
3/28/2021 6:30:00 AM 13.24 55.832 0.26 6.72 4.24 8.5
3/28/2021 6:45:00 AM 13.21 55.778 0.259 6.71 10.99 8.5
3/28/2021 7:00:00 AM 13.18 55.724 0.259 6.7 4.09 8.51
3/28/2021 7:15:00 AM 13.15 55.67 0.259 6.7 4.16 8.51
3/28/2021 7:30:00 AM 13.13 55.634 0.259 6.69 3.9 8.53
3/28/2021 7:45:00 AM 13.11 55.598 0.261 6.68 2.49 8.53
3/28/2021 8:00:00 AM 13.09 55.562 0.261 6.67 1.66 8.55
3/28/2021 8:15:00 AM 13.07 55.526 0.262 6.67 4.75 8.57
3/28/2021 8:30:00 AM 13.05 55.49 0.263 6.67 7.34 8.57
3/28/2021 8:45:00 AM 13.03 55.454 0.263 6.68 8.87 8.6
3/28/2021 9:00:00 AM 13.02 55.436 0.261 6.68 9.07 8.66
3/28/2021 9:15:00 AM 13 55.4 0.261 6.68 12.88 8.67
3/28/2021 9:30:00 AM 12.99 55.382 0.26 6.68 1.08 8.7
3/28/2021 9:45:00 AM 12.98 55.364 0.259 6.68 6.18 8.76
3/28/2021 10:00:00 AM 12.97 55.346 0.258 6.69 4.16 8.81
3/28/2021 10:15:00 AM 12.95 55.31 0.257 6.68 1.4 8.83
3/28/2021 10:30:00 AM 12.94 55.292 0.257 6.68 4.61 8.83
3/28/2021 10:45:00 AM 12.95 55.31 0.258 6.69 9.78 8.9
3/28/2021 11:00:00 AM 12.95 55.31 0.259 6.69 8.96 8.96
3/28/2021 11:15:00 AM 12.97 55.346 0.26 6.7 1.26 9.02
3/28/2021 11:30:00 AM 12.99 55.382 0.26 6.72 3.91 9.17
3/28/2021 11:45:00 AM 13 55.4 0.259 6.74 7.31 9.27
3/28/2021 12:00:00 PM 13 55.4 0.259 6.74 6.36 9.29
3/28/2021 12:15:00 PM 13.01 55.418 0.259 6.76 7.99 9.28
3/28/2021 12:30:00 PM 13.02 55.436 0.258 6.75 8.02 9.32
3/28/2021 12:45:00 PM 13.03 55.454 0.258 6.77 9.02 9.38
3/28/2021 1:00:00 PM 13.05 55.49 0.257 6.79 6.25 9.43
3/28/2021 1:15:00 PM 13.07 55.526 0.258 6.79 4.73 9.53
3/28/2021 1:30:00 PM 13.11 55.598 0.258 6.82 9.08 9.65
3/28/2021 1:45:00 PM 13.18 55.724 0.259 6.85 6.04 9.79
3/28/2021 2:00:00 PM 13.27 55.886 0.26 6.89 5.05 10
3/28/2021 2:15:00 PM 13.33 55.994 0.26 6.93 5.56 10.16
3/28/2021 2:30:00 PM 13.35 56.03 0.26 6.96 2.87 10.25
3/28/2021 2:45:00 PM 13.4 56.12 0.26 6.99 4.3 10.29
3/28/2021 3:00:00 PM 13.43 56.174 0.259 7.01 5.63 10.33
3/28/2021 3:15:00 PM 13.49 56.282 0.259 7.04 4.12 10.39
3/28/2021 3:30:00 PM 13.56 56.408 0.258 7.08 4.98 10.5
3/28/2021 3:45:00 PM 13.63 56.534 0.258 7.12 7.01 10.64
3/28/2021 4:00:00 PM 13.7 56.66 0.257 7.15 3 10.75
3/28/2021 4:15:00 PM 13.76 56.768 0.257 7.19 5.35 10.86
3/28/2021 4:30:00 PM 13.79 56.822 0.258 7.21 6.33 10.9
3/28/2021 4:45:00 PM 13.8 56.84 0.258 7.23 21.83 10.81
3/28/2021 5:00:00 PM 13.79 56.822 0.258 7.22 4.86 10.68
3/28/2021 5:15:00 PM 13.8 56.84 0.257 7.22 0 10.58
3/28/2021 5:30:00 PM 13.78 56.804 0.257 7.2 0.28 10.5
3/28/2021 5:45:00 PM 13.76 56.768 0.257 7.19 0.92 10.42
3/28/2021 6:00:00 PM 13.73 56.714 0.257 7.16 1.37 10.31
3/28/2021 6:15:00 PM 13.72 56.696 0.256 7.15 1.24 10.23
3/28/2021 6:30:00 PM 13.71 56.678 0.256 7.13 0.59 10.14
3/28/2021 6:45:00 PM 13.7 56.66 0.256 7.13 -0.63 10.09
3/28/2021 7:00:00 PM 13.68 56.624 0.257 7.13 1.09 10.05
3/28/2021 7:15:00 PM 13.63 56.534 0.258 7.11 0.09 9.98
3/28/2021 7:30:00 PM 13.58 56.444 0.26 7.09 0.14 9.87
3/28/2021 7:45:00 PM 13.53 56.354 0.261 7.06 0.54 9.78
3/28/2021 8:00:00 PM 13.46 56.228 0.262 7.04 1.68 9.68
3/28/2021 8:15:00 PM 13.4 56.12 0.263 7.01 1.08 9.6
3/28/2021 8:30:00 PM 13.34 56.012 0.263 6.99 3.84 9.55
3/28/2021 8:45:00 PM 13.29 55.922 0.263 6.97 2.45 9.49
3/28/2021 9:00:00 PM 13.23 55.814 0.262 6.96 3.05 9.45
3/28/2021 9:15:00 PM 13.19 55.742 0.262 6.94 3.92 9.4
3/28/2021 9:30:00 PM 13.15 55.67 0.262 6.94 3.84 9.36
3/28/2021 9:45:00 PM 13.09 55.562 0.263 6.93 1.45 9.32
3/28/2021 10:00:00 PM 13.04 55.472 0.264 6.91 3.77 9.28
3/28/2021 10:15:00 PM 12.98 55.364 0.267 6.9 1.46 9.22
3/28/2021 10:30:00 PM 12.95 55.31 0.269 6.89 1.68 9.19
3/28/2021 10:45:00 PM 12.9 55.22 0.27 6.87 1.97 9.15
3/28/2021 11:00:00 PM 12.85 55.13 0.27 6.86 1.7 9.11
3/28/2021 11:15:00 PM 12.81 55.058 0.268 6.85 4.55 9.09
3/28/2021 11:30:00 PM 12.76 54.968 0.266 6.85 21.69 9.06
3/28/2021 11:45:00 PM 12.7 54.86 0.265 6.84 7.87 9.04
3/29/2021 12:00:00 AM 12.65 54.77 0.262 6.84 4.08 9.03
3/29/2021 12:15:00 AM 12.58 54.644 0.262 6.83 2.94 9.01
3/29/2021 12:30:00 AM 12.54 54.572 0.262 6.8 5.15 8.99
3/29/2021 12:45:00 AM 12.49 54.482 0.263 6.79 1.26 8.97
3/29/2021 1:00:00 AM 12.42 54.356 0.265 6.78 0.54 8.96
3/29/2021 1:15:00 AM 12.37 54.266 0.267 6.76 2.18 8.93
3/29/2021 1:30:00 AM 12.31 54.158 0.268 6.75 1.69 8.94
3/29/2021 1:45:00 AM 12.25 54.05 0.268 6.74 4.26 8.95
3/29/2021 2:00:00 AM 12.18 53.924 0.267 6.73 1.03 8.93
3/29/2021 2:15:00 AM 12.11 53.798 0.267 6.72 0.03 8.93
3/29/2021 2:30:00 AM 12.05 53.69 0.265 6.7 1.91 8.96
3/29/2021 2:45:00 AM 11.99 53.582 0.263 6.7 0.42 8.95
3/29/2021 3:00:00 AM 11.93 53.474 0.263 6.69 2.39 8.95
3/29/2021 3:15:00 AM 11.88 53.384 0.262 6.67 1.47 8.96
3/29/2021 3:30:00 AM 11.81 53.258 0.262 6.65 2.79 8.97
3/29/2021 3:45:00 AM 11.76 53.168 0.263 6.64 1.72 8.97
3/29/2021 4:00:00 AM 11.7 53.06 0.265 6.63 2.02 8.97
3/29/2021 4:15:00 AM 11.63 52.934 0.266 6.62 2.64 8.96
3/29/2021 4:30:00 AM 11.56 52.808 0.266 6.62 3.71 8.99
3/29/2021 4:45:00 AM 11.5 52.7 0.266 6.6 3.06 8.99
3/29/2021 5:00:00 AM 11.42 52.556 0.265 6.6 0.77 9.02
3/29/2021 5:15:00 AM 11.36 52.448 0.263 6.58 2.09 9.01
3/29/2021 5:30:00 AM 11.28 52.304 0.261 6.57 0.45 9.04
3/29/2021 5:45:00 AM 11.21 52.178 0.26 6.57 2.73 9.04
3/29/2021 6:00:00 AM 11.13 52.034 0.259 6.55 2.95 9.07
3/29/2021 6:15:00 AM 11.06 51.908 0.258 6.54 1.93 9.09
3/29/2021 6:30:00 AM 11 51.8 0.257 6.54 -0.24 9.13
3/29/2021 6:45:00 AM 10.93 51.674 0.258 6.52 2.57 9.14
3/29/2021 7:00:00 AM 10.87 51.566 0.259 6.51 3.46 9.15
3/29/2021 7:15:00 AM 10.8 51.44 0.26 6.51 2.62 9.17
3/29/2021 7:30:00 AM 10.73 51.314 0.26 6.51 0.71 9.2
3/29/2021 7:45:00 AM 10.67 51.206 0.26 6.5 1.62 9.25
3/29/2021 8:00:00 AM 10.62 51.116 0.259 6.5 3.3 9.3
3/29/2021 8:15:00 AM 10.57 51.026 0.257 6.5 -0.25 9.35
3/29/2021 8:30:00 AM 10.52 50.936 0.254 6.5 0.17 9.44
3/29/2021 8:45:00 AM 10.48 50.864 0.253 6.5 1.18 9.5
3/29/2021 9:00:00 AM 10.45 50.81 0.251 6.51 3.11 9.59
3/29/2021 9:15:00 AM 10.42 50.756 0.251 6.52 1.32 9.66
3/29/2021 9:30:00 AM 10.44 50.792 0.25 6.52 0.62 9.77
3/29/2021 9:45:00 AM 10.53 50.954 0.25 6.54 0.52 9.98
3/29/2021 10:00:00 AM 10.6 51.08 0.25 6.57 1.37 10.16
3/29/2021 10:15:00 AM 10.64 51.152 0.251 6.6 0.28 10.32
3/29/2021 10:30:00 AM 10.67 51.206 0.251 6.63 0.26 10.46
3/29/2021 10:45:00 AM 10.74 51.332 0.25 6.67 0.53 10.57
3/29/2021 11:00:00 AM 10.81 51.458 0.249 6.69 -0.31 10.72
3/29/2021 11:15:00 AM 10.84 51.512 0.248 6.72 3.2 10.84
3/29/2021 11:30:00 AM 10.81 51.458 0.247 6.76 -0.05 10.91
3/29/2021 11:45:00 AM 10.84 51.512 0.245 6.78 2.69 10.98
3/29/2021 12:00:00 PM 10.97 51.746 0.244 6.79 0.05 11.08
3/29/2021 12:15:00 PM 11.09 51.962 0.244 6.83 -0.57 11.2
3/29/2021 12:30:00 PM 11.21 52.178 0.243 6.87 0.49 11.34
3/29/2021 12:45:00 PM 11.31 52.358 0.243 6.92 1.09 11.42
3/29/2021 1:00:00 PM 11.44 52.592 0.243 6.95 0.47 11.54
3/29/2021 1:15:00 PM 11.54 52.772 0.243 7 0 11.61
3/29/2021 1:30:00 PM 11.65 52.97 0.242 7.03 0.76 11.69
3/29/2021 1:45:00 PM 11.76 53.168 0.242 7.07 -0.66 11.76
3/29/2021 2:00:00 PM 11.86 53.348 0.242 7.12 0.7 11.84
3/29/2021 2:15:00 PM 11.99 53.582 0.241 7.16 0.02 11.89
3/29/2021 2:30:00 PM 12.09 53.762 0.241 7.2 -0.08 11.96
3/29/2021 2:45:00 PM 12.18 53.924 0.24 7.24 -0.14 12.02
3/29/2021 3:00:00 PM 12.26 54.068 0.239 7.27 1.65 12.08
3/29/2021 3:15:00 PM 12.31 54.158 0.238 7.31 0.6 12.1
3/29/2021 3:30:00 PM 12.36 54.248 0.238 7.35 0.13 12.13
3/29/2021 3:45:00 PM 12.42 54.356 0.238 7.37 -0.23 12.14
3/29/2021 4:00:00 PM 12.47 54.446 0.239 7.39 2.2 12.06
3/29/2021 4:15:00 PM 12.51 54.518 0.239 7.42 1.27 12.04
3/29/2021 4:30:00 PM 12.54 54.572 0.239 7.45 0.7 12.16
3/29/2021 4:45:00 PM 12.56 54.608 0.239 7.46 1.86 12.16
3/29/2021 5:00:00 PM 12.58 54.644 0.239 7.48 4.38 12.14
3/29/2021 5:15:00 PM 12.59 54.662 0.239 7.49 0.69 12.09
3/29/2021 5:30:00 PM 12.59 54.662 0.238 7.5 1.06 12.05
3/29/2021 5:45:00 PM 12.57 54.626 0.238 7.5 -1 11.99
3/29/2021 6:00:00 PM 12.55 54.59 0.237 7.52 -0.03 11.91
3/29/2021 6:15:00 PM 12.53 54.554 0.236 7.51 0.93 11.84
3/29/2021 6:30:00 PM 12.5 54.5 0.236 7.51 -0.02 11.73
3/29/2021 6:45:00 PM 12.48 54.464 0.237 7.5 0.73 11.65
3/29/2021 7:00:00 PM 12.45 54.41 0.239 7.48 -0.16 11.51
3/29/2021 7:15:00 PM 12.44 54.392 0.241 7.46 -0.49 11.37
3/29/2021 7:30:00 PM 12.4 54.32 0.242 7.44 -0.42 11.26
3/29/2021 7:45:00 PM 12.37 54.266 0.243 7.42 -0.75 11.12
3/29/2021 8:00:00 PM 12.34 54.212 0.242 7.4 0.67 10.97
3/29/2021 8:15:00 PM 12.3 54.14 0.241 7.36 -0.5 10.83
3/29/2021 8:30:00 PM 12.27 54.086 0.24 7.35 0.91 10.72
3/29/2021 8:45:00 PM 12.22 53.996 0.239 7.33 -0.55 10.58
3/29/2021 9:00:00 PM 12.19 53.942 0.238 7.3 0.71 10.47
3/29/2021 9:15:00 PM 12.14 53.852 0.237 7.29 0.85 10.37
3/29/2021 9:30:00 PM 12.12 53.816 0.237 7.25 2.93 10.28
3/29/2021 9:45:00 PM 12.06 53.708 0.237 7.23 1.17 10.18
3/29/2021 10:00:00 PM 12.02 53.636 0.239 7.19 -0.72 10.08
3/29/2021 10:15:00 PM 11.98 53.564 0.241 7.16 0.94 9.99
3/29/2021 10:30:00 PM 11.95 53.51 0.243 7.12 2.6 9.91
3/29/2021 10:45:00 PM 11.91 53.438 0.243 7.08 2.79 9.84
3/29/2021 11:00:00 PM 11.85 53.33 0.244 7.06 -0.06 9.81
3/29/2021 11:15:00 PM 11.81 53.258 0.243 7.04 -0.69 9.76
3/29/2021 11:30:00 PM 11.76 53.168 0.242 7.02 0.12 9.7
3/29/2021 11:45:00 PM 11.7 53.06 0.24 7 0.61 9.68
3/30/2021 12:00:00 AM 11.64 52.952 0.24 6.97 1.64 9.65
3/30/2021 12:15:00 AM 11.58 52.844 0.239 6.94 7 9.62
3/30/2021 12:30:00 AM 11.51 52.718 0.239 6.92 -1.13 9.58
3/30/2021 12:45:00 AM 11.44 52.592 0.239 6.9 -0.09 9.56
3/30/2021 1:00:00 AM 11.37 52.466 0.24 6.87 -0.23 9.55
3/30/2021 1:15:00 AM 11.31 52.358 0.241 6.85 1.41 9.52
3/30/2021 1:30:00 AM 11.23 52.214 0.243 6.81 0.65 9.5
3/30/2021 1:45:00 AM 11.16 52.088 0.243 6.79 -1.06 9.5
3/30/2021 2:00:00 AM 11.07 51.926 0.243 6.77 -0.86 9.49
3/30/2021 2:15:00 AM 11 51.8 0.243 6.74 -0.25 9.49
3/30/2021 2:30:00 AM 10.92 51.656 0.242 6.72 0.43 9.48
3/30/2021 2:45:00 AM 10.84 51.512 0.241 6.69 -0.62 9.48
3/30/2021 3:00:00 AM 10.75 51.35 0.24 6.68 0.18 9.48
3/30/2021 3:15:00 AM 10.67 51.206 0.239 6.66 -1.25 9.48
3/30/2021 3:30:00 AM 10.58 51.044 0.239 6.64 -0.51 9.49
3/30/2021 3:45:00 AM 10.5 50.9 0.239 6.63 0.34 9.5
3/30/2021 4:00:00 AM 10.42 50.756 0.24 6.6 2.55 9.5
3/30/2021 4:15:00 AM 10.34 50.612 0.241 6.58 -0.38 9.51
3/30/2021 4:30:00 AM 10.27 50.486 0.243 6.55 1.85 9.52
3/30/2021 4:45:00 AM 10.19 50.342 0.244 6.54 1.04 9.53
3/30/2021 5:00:00 AM 10.12 50.216 0.244 6.53 0.51 9.53
3/30/2021 5:15:00 AM 10.05 50.09 0.244 6.52 -0.67 9.54
3/30/2021 5:30:00 AM 9.97 49.946 0.243 6.51 0.75 9.55
3/30/2021 5:45:00 AM 9.9 49.82 0.243 6.48 -0.32 9.56
3/30/2021 6:00:00 AM 9.83 49.694 0.242 6.48 -1.08 9.57
3/30/2021 6:15:00 AM 9.76 49.568 0.242 6.46 -0.94 9.6
3/30/2021 6:30:00 AM 9.68 49.424 0.242 6.45 -0.77 9.61
3/30/2021 6:45:00 AM 9.62 49.316 0.242 6.45 -0.47 9.62
3/30/2021 7:00:00 AM 9.57 49.226 0.242 6.43 -0.76 9.65
3/30/2021 7:15:00 AM 9.51 49.118 0.244 6.42 0.05 9.66
3/30/2021 7:30:00 AM 9.47 49.046 0.245 6.42 -1.32 9.68
3/30/2021 7:45:00 AM 9.42 48.956 0.247 6.42 -1.3 9.73
3/30/2021 8:00:00 AM 9.39 48.902 0.248 6.41 -0.53 9.76
3/30/2021 8:15:00 AM 9.37 48.866 0.248 6.41 -0.51 9.83
3/30/2021 8:30:00 AM 9.36 48.848 0.247 6.42 -1.35 9.9
3/30/2021 8:45:00 AM 9.37 48.866 0.246 6.42 -0.58 10.03
3/30/2021 9:00:00 AM 9.42 48.956 0.246 6.43 -0.07 10.12
3/30/2021 9:15:00 AM 9.49 49.082 0.245 6.44 -0.06 10.26
3/30/2021 9:30:00 AM 9.6 49.28 0.244 6.46 0.77 10.41
3/30/2021 9:45:00 AM 9.66 49.388 0.244 6.49 -0.52 10.55
3/30/2021 10:00:00 AM 9.75 49.55 0.244 6.52 -0.42 10.69
3/30/2021 10:15:00 AM 9.85 49.73 0.245 6.56 -0.57 10.82
3/30/2021 10:30:00 AM 9.95 49.91 0.246 6.59 -0.21 10.98
3/30/2021 10:45:00 AM 10.07 50.126 0.247 6.63 -0.95 11.08
3/30/2021 11:00:00 AM 10.21 50.378 0.247 6.66 -1.05 11.21
3/30/2021 11:15:00 AM 10.34 50.612 0.247 6.7 -0.77 11.34
3/30/2021 11:30:00 AM 10.47 50.846 0.247 6.74 -0.01 11.45
3/30/2021 11:45:00 AM 10.63 51.134 0.247 6.79 -1.08 11.55
3/30/2021 12:00:00 PM 10.78 51.404 0.246 6.82 1.7 11.63
3/30/2021 12:15:00 PM 10.93 51.674 0.245 6.87 -0.98 11.73
3/30/2021 12:30:00 PM 11.07 51.926 0.245 6.92 0.67 11.81
3/30/2021 12:45:00 PM 11.23 52.214 0.245 6.98 -1.59 11.88
3/30/2021 1:00:00 PM 11.39 52.502 0.244 7.04 -0.85 11.97
3/30/2021 1:15:00 PM 11.55 52.79 0.245 7.09 -1 12.04
3/30/2021 1:30:00 PM 11.7 53.06 0.245 7.13 -0.66 12.1
3/30/2021 1:45:00 PM 11.85 53.33 0.246 7.17 -1.26 12.17
3/30/2021 2:00:00 PM 12 53.6 0.246 7.21 1.43 12.21
3/30/2021 2:15:00 PM 12.14 53.852 0.246 7.25 -1.02 12.24
3/30/2021 2:30:00 PM 12.28 54.104 0.246 7.29 -0.34 12.29
3/30/2021 2:45:00 PM 12.4 54.32 0.246 7.34 -1.9 12.32
3/30/2021 3:00:00 PM 12.53 54.554 0.246 7.37 -1.46 12.36
3/30/2021 3:15:00 PM 12.64 54.752 0.246 7.41 -0.04 12.39
3/30/2021 3:30:00 PM 12.75 54.95 0.245 7.43 -1.08 12.42
3/30/2021 3:45:00 PM 12.85 55.13 0.245 7.46 -0.89 12.39
3/30/2021 4:00:00 PM 12.95 55.31 0.245 7.49 -1.14 12.42
3/30/2021 4:15:00 PM 13.01 55.418 0.246 7.51 -1.35 12.41
3/30/2021 4:30:00 PM 13.09 55.562 0.247 7.54 -1.43 12.37
3/30/2021 4:45:00 PM 13.17 55.706 0.248 7.56 -1.63 12.38
3/30/2021 5:00:00 PM 13.23 55.814 0.248 7.58 -0.85 12.33
3/30/2021 5:15:00 PM 13.27 55.886 0.249 7.59 -1.22 12.29
3/30/2021 5:30:00 PM 13.31 55.958 0.249 7.6 -0.73 12.24
3/30/2021 5:45:00 PM 13.33 55.994 0.248 7.62 -1.88 12.18
3/30/2021 6:00:00 PM 13.33 55.994 0.248 7.63 -1.16 12.09
3/30/2021 6:15:00 PM 13.33 55.994 0.247 7.63 -0.43 11.97
3/30/2021 6:30:00 PM 13.33 55.994 0.247 7.63 -1.52 11.85
3/30/2021 6:45:00 PM 13.33 55.994 0.247 7.64 -1.15 11.72
3/30/2021 7:00:00 PM 13.3 55.94 0.248 7.62 0.02 11.59
3/30/2021 7:15:00 PM 13.29 55.922 0.249 7.61 -1.82 11.45
3/30/2021 7:30:00 PM 13.26 55.868 0.251 7.58 -0.84 11.28
3/30/2021 7:45:00 PM 13.24 55.832 0.253 7.56 -1.26 11.1
3/30/2021 8:00:00 PM 13.22 55.796 0.255 7.53 -0.73 10.94
3/30/2021 8:15:00 PM 13.2 55.76 0.256 7.51 -1.08 10.78
3/30/2021 8:30:00 PM 13.18 55.724 0.255 7.48 -1.33 10.65
3/30/2021 8:45:00 PM 13.16 55.688 0.255 7.46 -1.1 10.51
3/30/2021 9:00:00 PM 13.14 55.652 0.254 7.44 -0.67 10.36
3/30/2021 9:15:00 PM 13.12 55.616 0.253 7.41 -0.54 10.24
3/30/2021 9:30:00 PM 13.09 55.562 0.253 7.39 -0.37 10.12
3/30/2021 9:45:00 PM 13.06 55.508 0.252 7.37 -1.48 10.01
3/30/2021 10:00:00 PM 13.04 55.472 0.252 7.34 -0.79 9.9
3/30/2021 10:15:00 PM 13.03 55.454 0.253 7.3 -0.47 9.79
3/30/2021 10:30:00 PM 13 55.4 0.255 7.27 -1 9.7
3/30/2021 10:45:00 PM 12.99 55.382 0.257 7.23 -0.65 9.6
3/30/2021 11:00:00 PM 12.96 55.328 0.259 7.2 -1.25 9.52
3/30/2021 11:15:00 PM 12.94 55.292 0.26 7.17 -0.07 9.46
3/30/2021 11:30:00 PM 12.92 55.256 0.26 7.15 -0.62 9.39
3/30/2021 11:45:00 PM 12.89 55.202 0.259 7.13 -0.19 9.35
3/31/2021 12:00:00 AM 12.86 55.148 0.258 7.1 2.21 9.3
3/31/2021 12:15:00 AM 12.83 55.094 0.257 7.09 -1.32 9.26
3/31/2021 12:30:00 AM 12.8 55.04 0.256 7.07 -0.83 9.22
3/31/2021 12:45:00 AM 12.76 54.968 0.255 7.04 6.87 9.19
3/31/2021 1:00:00 AM 12.71 54.878 0.255 7.03 -0.11 9.17
3/31/2021 1:15:00 AM 12.66 54.788 0.256 7.01 -0.62 9.13
3/31/2021 1:30:00 AM 12.62 54.716 0.257 6.98 2.38 9.09
3/31/2021 1:45:00 AM 12.56 54.608 0.259 6.96 -0.61 9.07
3/31/2021 2:00:00 AM 12.51 54.518 0.26 6.94 -0.62 9.05
3/31/2021 2:15:00 AM 12.45 54.41 0.26 6.91 0.77 9.04
3/31/2021 2:30:00 AM 12.39 54.302 0.261 6.89 -1.15 9.02
3/31/2021 2:45:00 AM 12.32 54.176 0.26 6.86 -1.21 9.01
3/31/2021 3:00:00 AM 12.26 54.068 0.259 6.84 -1.03 8.98
3/31/2021 3:15:00 AM 12.2 53.96 0.258 6.82 -0.41 9
3/31/2021 3:30:00 AM 12.13 53.834 0.257 6.8 -0.03 9
3/31/2021 3:45:00 AM 12.07 53.726 0.257 6.78 0.38 8.97
3/31/2021 4:00:00 AM 12 53.6 0.256 6.76 7.34 9
3/31/2021 4:15:00 AM 11.94 53.492 0.257 6.73 0.2 8.98
3/31/2021 4:30:00 AM 11.89 53.402 0.257 6.71 -1.6 8.99
3/31/2021 4:45:00 AM 11.82 53.276 0.259 6.7 -0.86 8.97
3/31/2021 5:00:00 AM 11.75 53.15 0.26 6.68 6.17 8.98
3/31/2021 5:15:00 AM 11.7 53.06 0.26 6.67 -1.85 8.97
3/31/2021 5:30:00 AM 11.63 52.934 0.26 6.65 -0.32 8.99
3/31/2021 5:45:00 AM 11.57 52.826 0.259 6.64 -1.21 8.99
3/31/2021 6:00:00 AM 11.51 52.718 0.259 6.63 -1.15 9
3/31/2021 6:15:00 AM 11.45 52.61 0.258 6.59 -0.51 8.99
3/31/2021 6:30:00 AM 11.39 52.502 0.257 6.58 -0.21 9.01
3/31/2021 6:45:00 AM 11.33 52.394 0.256 6.56 15.66 9.04
3/31/2021 7:00:00 AM 11.28 52.304 0.256 6.54 1.51 9.03
3/31/2021 7:15:00 AM 11.24 52.232 0.256 6.53 -0.61 9.05
3/31/2021 7:30:00 AM 11.2 52.16 0.257 6.52 0 9.08
3/31/2021 7:45:00 AM 11.18 52.124 0.259 6.52 -0.82 9.12
3/31/2021 8:00:00 AM 11.16 52.088 0.26 6.52 -0.85 9.17
3/31/2021 8:15:00 AM 11.16 52.088 0.261 6.53 -0.82 9.26
3/31/2021 8:30:00 AM 11.16 52.088 0.261 6.55 -1.13 9.35
3/31/2021 8:45:00 AM 11.17 52.106 0.261 6.54 -0.9 9.42
3/31/2021 9:00:00 AM 11.18 52.124 0.26 6.55 -1.09 9.5
3/31/2021 9:15:00 AM 11.2 52.16 0.258 6.55 -0.21 9.59
3/31/2021 9:30:00 AM 11.23 52.214 0.257 6.55 -0.47 9.64
3/31/2021 9:45:00 AM 11.27 52.286 0.256 6.54 -1.56 9.73
3/31/2021 10:00:00 AM 11.34 52.412 0.256 6.55 -1.87 9.86
3/31/2021 10:15:00 AM 11.41 52.538 0.256 6.57 -0.88 10.03
3/31/2021 10:30:00 AM 11.46 52.628 0.256 6.6 0.1 10.16
3/31/2021 10:45:00 AM 11.52 52.736 0.257 6.64 -0.4 10.28
3/31/2021 11:00:00 AM 11.59 52.862 0.258 6.67 -0.5 10.37
3/31/2021 11:15:00 AM 11.7 53.06 0.258 6.71 -0.26 10.49
3/31/2021 11:30:00 AM 11.78 53.204 0.258 6.76 -1.22 10.64
3/31/2021 11:45:00 AM 11.84 53.312 0.258 6.8 -1.3